Provisional Data: Little Mehoopany Creek near North Mehoopany, PA


Please select a monitoring station.
Please select start date.
Please select start date.

Toggle Unit: C/F Toggle Unit: C/F
Sample Time Temperature (C) Temperature (F) Specific Conductivity (mS/cm) pH   Turbidity (NTU+) DO (mg/L)
12/23/2022 12:00:00 AM 3.33 37.994 0.121 7.09 18.24 14.94
12/23/2022 12:15:00 AM 3.18 37.724 0.122 7.11 24.55 15.06
12/23/2022 12:30:00 AM 2.99 37.382 0.12 7.15 35.58 15.16
12/23/2022 12:45:00 AM 2.81 37.058 0.115 7.14 40.74 15.28
12/23/2022 1:00:00 AM 2.68 36.824 0.108 7.12 52.54 15.36
12/23/2022 1:15:00 AM 2.56 36.608 0.101 7.09 58.22 15.38
12/23/2022 1:30:00 AM 2.49 36.482 0.092 7.07 58.03 15.41
12/23/2022 1:45:00 AM 2.44 36.392 0.086 7.06 76.33 15.47
12/23/2022 2:00:00 AM 2.39 36.302 0.081 7.05 91.12 15.53
12/23/2022 2:15:00 AM 2.32 36.176 0.077 7 119.15 15.55
12/23/2022 2:30:00 AM 2.24 36.032 0.073 6.99 129.13 15.59
12/23/2022 2:45:00 AM 2.19 35.942 0.07 6.98 140.87 15.61
12/23/2022 3:00:00 AM 2.12 35.816 0.066 6.94 175.63 15.64
12/23/2022 3:15:00 AM 2.08 35.744 0.062 6.93 181.95 15.67
12/23/2022 3:30:00 AM 2.13 35.834 0.06 6.93 201.19 15.66
12/23/2022 3:45:00 AM 2.19 35.942 0.06 6.9 181.71 15.64
12/23/2022 4:00:00 AM 2.25 36.05 0.06 6.9 170.35 15.61
12/23/2022 4:15:00 AM 2.32 36.176 0.06 6.89 154.92 15.59
12/23/2022 4:30:00 AM 2.39 36.302 0.06 6.91 163.27 15.55
12/23/2022 4:45:00 AM 2.48 36.464 0.062 6.92 144.85 15.5
12/23/2022 5:00:00 AM 2.56 36.608 0.063 6.92 135.96 15.46
12/23/2022 5:15:00 AM 2.63 36.734 0.065 6.94 142.55 15.42
12/23/2022 5:30:00 AM 2.72 36.896 0.067 6.97 116.88 15.38
12/23/2022 5:45:00 AM 2.83 37.094 0.07 6.97 146.34 15.33
12/23/2022 6:00:00 AM 2.93 37.274 0.071 6.99 115.45 15.29
12/23/2022 6:15:00 AM 3.04 37.472 0.073 7 95.17 15.24
12/23/2022 6:30:00 AM 3.12 37.616 0.073 6.94 161.6 15.23
12/23/2022 6:45:00 AM 3.19 37.742 0.075 6.92 98.16 15.19
12/23/2022 7:00:00 AM 3.27 37.886 0.07 6.93 676.26 15.16
12/23/2022 7:15:00 AM 3.31 37.958 0.046 7.02 702.9 15.14
12/23/2022 7:30:00 AM 3.31 37.958 0.066 7.01 1328.46 15.14
12/23/2022 7:45:00 AM 3.3 37.94 0.057 7.03 434.44 15.15
12/23/2022 8:00:00 AM 3.27 37.886 0.066 7 1584.26 15.14
12/23/2022 8:15:00 AM 3.25 37.85 0.066 7 1638.77 15.15
12/23/2022 8:30:00 AM 3.23 37.814 0.064 6.93 675.94 15.16
12/23/2022 8:45:00 AM 3.23 37.814 0.063 7 43.4 15.17
12/23/2022 9:00:00 AM 3.24 37.832 0.075 6.98 21.65 15.15
12/23/2022 9:15:00 AM 3.23 37.814 0.075 7.03 92.58 15.15
12/23/2022 9:30:00 AM 3.23 37.814 0.071 7 63.16 15.15
12/23/2022 9:45:00 AM 3.26 37.868 0.075 6.98 51.99 15.14
12/23/2022 10:00:00 AM 3.29 37.922 0.077 6.97 57.34 15.13
12/23/2022 10:15:00 AM 3.29 37.922 0.072 7.02 58.95 15.13
12/23/2022 10:30:00 AM 3.32 37.976 0.076 6.97 41.27 15.12
12/23/2022 10:45:00 AM 3.33 37.994 0.072 6.98 42.93 15.12
12/23/2022 11:00:00 AM 3.33 37.994 0.075 7.03 47.33 15.12
12/23/2022 11:15:00 AM 3.31 37.958 0.07 7.01 73.7 15.13
12/23/2022 11:30:00 AM 3.29 37.922 0.074 7.01 210.81 15.14
12/23/2022 11:45:00 AM 3.27 37.886 0.072 6.98 141 15.16
12/23/2022 12:00:00 PM 3.24 37.832 0.071 6.99 124.16 15.17
12/23/2022 12:15:00 PM 3.18 37.724 0.074 7 129.54 15.19
12/23/2022 12:30:00 PM 3.13 37.634 0.073 7.01 152.83 15.22
12/23/2022 12:45:00 PM 3.1 37.58 0.072 7.02 160.07 15.24
12/23/2022 1:00:00 PM 3.07 37.526 0.075 7 113.38 15.24
12/23/2022 1:15:00 PM 3.04 37.472 0.075 7.06 126.48 15.26
12/23/2022 1:30:00 PM 2.99 37.382 0.075 7.07 106.7 15.29
12/23/2022 1:45:00 PM 2.94 37.292 0.076 7.09 125.28 15.32
12/23/2022 2:00:00 PM 2.89 37.202 0.076 7.07 137.76 15.34
12/23/2022 2:15:00 PM 2.86 37.148 0.077 7.02 134.34 15.36
12/23/2022 2:30:00 PM 2.82 37.076 0.076 7.02 135.42 15.38
12/23/2022 2:45:00 PM 2.77 36.986 0.076 7.05 136.84 15.4
12/23/2022 3:00:00 PM 2.73 36.914 0.076 7.05 146.17 15.42
12/23/2022 3:15:00 PM 2.69 36.842 0.077 7.08 127.99 15.45
12/23/2022 3:30:00 PM 2.65 36.77 0.077 7.06 136.34 15.47
12/23/2022 3:45:00 PM 2.61 36.698 0.077 7.08 168.09 15.5
12/23/2022 4:00:00 PM 2.58 36.644 0.077 7.06 177.71 15.51
12/23/2022 4:15:00 PM 2.54 36.572 0.077 7.08 181.31 15.52
12/23/2022 4:30:00 PM 2.49 36.482 0.077 7.09 190.75 15.55
12/23/2022 4:45:00 PM 2.44 36.392 0.078 7.03 223.23 15.59
12/23/2022 5:00:00 PM 2.4 36.32 0.078 7.09 220.08 15.6
12/23/2022 5:15:00 PM 2.37 36.266 0.078 7.09 220.79 15.62
12/23/2022 5:30:00 PM 2.34 36.212 0.078 7.08 224.63 15.65
12/23/2022 5:45:00 PM 2.29 36.122 0.078 7.1 217.45 15.66
12/23/2022 6:00:00 PM 2.23 36.014 0.078 7.11 239.06 15.69
12/23/2022 6:15:00 PM 2.21 35.978 0.078 7.11 255.55 15.7
12/23/2022 6:30:00 PM 2.19 35.942 0.078 7.1 264.13 15.72
12/23/2022 6:45:00 PM 2.17 35.906 0.078 7.1 271 15.73
12/23/2022 7:00:00 PM 2.13 35.834 0.078 7.1 264.77 15.75
12/23/2022 7:15:00 PM 2.11 35.798 0.078 7.1 262.74 15.76
12/23/2022 7:30:00 PM 2.09 35.762 0.078 7.11 238.09 15.77
12/23/2022 7:45:00 PM 2.07 35.726 0.078 7.11 270.72 15.78
12/23/2022 8:00:00 PM 2.06 35.708 0.078 7.1 269.12 15.79
12/23/2022 8:15:00 PM 2.03 35.654 0.078 7.1 267.85 15.8
12/23/2022 8:30:00 PM 2 35.6 0.079 7.11 268 15.83
12/23/2022 8:45:00 PM 1.98 35.564 0.079 7.1 277.52 15.83
12/23/2022 9:00:00 PM 1.95 35.51 0.079 7.11 269.84 15.85
12/23/2022 9:15:00 PM 1.93 35.474 0.079 7.11 261.71 15.86
12/23/2022 9:30:00 PM 1.89 35.402 0.079 7.1 269.52 15.88
12/23/2022 9:45:00 PM 1.85 35.33 0.079 7.1 268.04 15.89
12/23/2022 10:00:00 PM 1.83 35.294 0.079 7.12 274.65 15.89
12/23/2022 10:15:00 PM 1.8 35.24 0.08 7.13 272.57 15.92
12/23/2022 10:30:00 PM 1.78 35.204 0.081 7.11 273.71 15.92
12/23/2022 10:45:00 PM 1.75 35.15 0.081 7.13 280.55 15.94
12/23/2022 11:00:00 PM 1.72 35.096 0.082 7.14 273.45 15.96
12/23/2022 11:15:00 PM 1.69 35.042 0.082 7.14 272.67 15.97
12/23/2022 11:30:00 PM 1.67 35.006 0.082 7.15 282.15 15.98
12/23/2022 11:45:00 PM 1.63 34.934 0.082 7.14 271.82 16
12/24/2022 12:00:00 AM 1.6 34.88 0.083 7.14 286.69 16.01
12/24/2022 12:15:00 AM 1.59 34.862 0.083 7.15 295.22 16.02
12/24/2022 12:30:00 AM 1.59 34.862 0.083 7.15 277.48 16.03
12/24/2022 12:45:00 AM 1.58 34.844 0.083 7.15 285.8 16.03
12/24/2022 1:00:00 AM 1.57 34.826 0.083 7.15 278.13 16.04
12/24/2022 1:15:00 AM 1.56 34.808 0.081 7.16 282.89 16.05
12/24/2022 1:30:00 AM 1.55 34.79 0.08 7.14 273.69 16.06
12/24/2022 1:45:00 AM 1.54 34.772 0.08 7.14 256.6 16.06
12/24/2022 2:00:00 AM 1.55 34.79 0.08 7.15 260.24 16.07
12/24/2022 2:15:00 AM 1.52 34.736 0.08 7.15 261.79 16.08
12/24/2022 2:30:00 AM 1.52 34.736 0.08 7.15 292.24 16.08
12/24/2022 2:45:00 AM 1.5 34.7 0.08 7.15 266.5 16.08
12/24/2022 3:00:00 AM 1.49 34.682 0.079 7.15 273.62 16.1
12/24/2022 3:15:00 AM 1.49 34.682 0.077 7.15 283.15 16.1
12/24/2022 3:30:00 AM 1.48 34.664 0.076 7.14 277.77 16.1
12/24/2022 3:45:00 AM 1.47 34.646 0.075 7.13 275.61 16.12
12/24/2022 4:00:00 AM 1.47 34.646 0.077 7.14 274.88 16.1
12/24/2022 4:15:00 AM 1.44 34.592 0.078 7.14 273.76 16.11
12/24/2022 4:30:00 AM 1.41 34.538 0.079 7.14 274.77 16.14
12/24/2022 4:45:00 AM 1.39 34.502 0.079 7.15 276.09 16.15
12/24/2022 5:00:00 AM 1.36 34.448 0.079 7.16 282.44 16.15
12/24/2022 5:15:00 AM 1.35 34.43 0.078 7.14 282.69 16.18
12/24/2022 5:30:00 AM 1.33 34.394 0.078 7.15 268.36 16.18
12/24/2022 5:45:00 AM 1.33 34.394 0.078 7.15 271.39 16.18
12/24/2022 6:00:00 AM 1.32 34.376 0.078 7.15 273.3 16.18
12/24/2022 6:15:00 AM 1.31 34.358 0.078 7.15 272.61 16.19
12/24/2022 6:30:00 AM 1.29 34.322 0.078 7.17 288.37 16.2
12/24/2022 6:45:00 AM 1.27 34.286 0.078 7.16 248.98 16.21
12/24/2022 7:00:00 AM 1.26 34.268 0.078 7.16 253.5 16.22
12/24/2022 7:15:00 AM 1.26 34.268 0.078 7.15 256.25 16.2
12/24/2022 7:30:00 AM 1.26 34.268 0.078 7.16 262.92 16.21
12/24/2022 7:45:00 AM 1.25 34.25 0.079 7.18 270.29 16.21
12/24/2022 8:00:00 AM 1.24 34.232 0.079 7.19 275.78 16.22
12/24/2022 8:15:00 AM 1.25 34.25 0.079 7.19 272.55 16.24
12/24/2022 8:30:00 AM 1.24 34.232 0.079 7.19 260.79 16.24
12/24/2022 8:45:00 AM 1.26 34.268 0.079 7.19 265.3 16.24
12/24/2022 9:00:00 AM 1.27 34.286 0.079 7.19 282.06 16.23
12/24/2022 9:15:00 AM 1.29 34.322 0.079 7.2 276.42 16.23
12/24/2022 9:30:00 AM 1.32 34.376 0.08 7.2 277.6 16.22
12/24/2022 9:45:00 AM 1.32 34.376 0.079 7.2 289.71 16.22
12/24/2022 10:00:00 AM 1.33 34.394 0.079 7.2 275.8 16.22
12/24/2022 10:15:00 AM 1.35 34.43 0.078 7.2 280.61 16.22
12/24/2022 10:30:00 AM 1.38 34.484 0.078 7.2 290.91 16.2
12/24/2022 10:45:00 AM 1.44 34.592 0.078 7.19 292.34 16.18
12/24/2022 11:00:00 AM 1.5 34.7 0.078 7.2 291.39 16.16
12/24/2022 11:15:00 AM 1.53 34.754 0.079 7.19 293.54 16.14
12/24/2022 11:30:00 AM 1.55 34.79 0.079 7.2 309.61 16.13
12/24/2022 11:45:00 AM 1.6 34.88 0.079 7.2 291.81 16.12
12/24/2022 12:00:00 PM 1.63 34.934 0.079 7.19 304.71 16.1
12/24/2022 12:15:00 PM 1.67 35.006 0.079 7.2 305.75 16.08
12/24/2022 12:30:00 PM 1.7 35.06 0.079 7.21 311.73 16.06
12/24/2022 12:45:00 PM 1.7 35.06 0.079 7.21 309.57 16.06
12/24/2022 1:00:00 PM 1.71 35.078 0.079 7.21 309.38 16.06
12/24/2022 1:15:00 PM 1.71 35.078 0.079 7.21 313.03 16.06
12/24/2022 1:30:00 PM 1.71 35.078 0.079 7.21 320.87 16.06
12/24/2022 1:45:00 PM 1.7 35.06 0.08 7.21 315.32 16.06
12/24/2022 2:00:00 PM 1.68 35.024 0.079 7.21 336.14 16.06
12/24/2022 2:15:00 PM 1.67 35.006 0.08 7.21 320.95 16.06
12/24/2022 2:30:00 PM 1.65 34.97 0.08 7.21 329.64 16.07
12/24/2022 2:45:00 PM 1.63 34.934 0.08 7.22 333.47 16.08
12/24/2022 3:00:00 PM 1.61 34.898 0.08 7.21 335.39 16.08
12/24/2022 3:15:00 PM 1.57 34.826 0.08 7.21 336.62 16.1
12/24/2022 3:30:00 PM 1.53 34.754 0.08 7.21 330.46 16.12
12/24/2022 3:45:00 PM 1.49 34.682 0.079 7.21 328.79 16.14
12/24/2022 4:00:00 PM 1.46 34.628 0.079 7.22 338.99 16.14
12/24/2022 4:15:00 PM 1.42 34.556 0.08 7.21 336.96 16.17
12/24/2022 4:30:00 PM 1.39 34.502 0.08 7.21 340.46 16.18
12/24/2022 4:45:00 PM 1.37 34.466 0.08 7.21 335.74 16.19
12/24/2022 5:00:00 PM 1.36 34.448 0.08 7.21 340.9 16.2
12/24/2022 5:15:00 PM 1.34 34.412 0.08 7.21 350.3 16.19
12/24/2022 5:30:00 PM 1.33 34.394 0.08 7.21 343.24 16.21
12/24/2022 5:45:00 PM 1.3 34.34 0.081 7.21 344.73 16.21
12/24/2022 6:00:00 PM 1.27 34.286 0.081 7.21 354.38 16.23
12/24/2022 6:15:00 PM 1.25 34.25 0.079 7.21 349.65 16.25
12/24/2022 6:30:00 PM 1.25 34.25 0.081 7.21 348.01 16.24
12/24/2022 6:45:00 PM 1.24 34.232 0.081 7.2 346.35 16.25
12/24/2022 7:00:00 PM 1.22 34.196 0.081 7.21 353.35 16.26
12/24/2022 7:15:00 PM 1.21 34.178 0.081 7.21 353.69 16.26
12/24/2022 7:30:00 PM 1.22 34.196 0.081 7.22 357.28 16.26
12/24/2022 7:45:00 PM 1.24 34.232 0.082 7.21 355.9 16.26
12/24/2022 8:00:00 PM 1.26 34.268 0.082 7.22 359.87 16.24
12/24/2022 8:15:00 PM 1.27 34.286 0.082 7.22 365.04 16.22
12/24/2022 8:30:00 PM 1.27 34.286 0.083 7.21 364.35 16.23
12/24/2022 8:45:00 PM 1.26 34.268 0.083 7.22 361.78 16.23
12/24/2022 9:00:00 PM 1.24 34.232 0.083 7.22 361.53 16.24
12/24/2022 9:15:00 PM 1.24 34.232 0.083 7.21 367.87 16.24
12/24/2022 9:30:00 PM 1.25 34.25 0.083 7.22 372.83 16.24
12/24/2022 9:45:00 PM 1.25 34.25 0.083 7.21 373.87 16.22
12/24/2022 10:00:00 PM 1.26 34.268 0.083 7.22 375.31 16.24
12/24/2022 10:15:00 PM 1.27 34.286 0.083 7.21 377.88 16.22
12/24/2022 10:30:00 PM 1.28 34.304 0.083 7.22 378.42 16.21
12/24/2022 10:45:00 PM 1.31 34.358 0.083 7.2 391.42 16.21
12/24/2022 11:00:00 PM 1.31 34.358 0.083 7.2 390.38 16.18
12/24/2022 11:15:00 PM 1.29 34.322 0.083 7.2 400.88 16.19
12/24/2022 11:30:00 PM 1.29 34.322 0.083 7.2 404.13 16.19
12/24/2022 11:45:00 PM 1.27 34.286 0.083 7.19 412.29 16.18
12/25/2022 12:00:00 AM 1.28 34.304 0.083 7.19 403.01 16.18
12/25/2022 12:15:00 AM 1.25 34.25 0.083 7.19 412.25 16.19
12/25/2022 12:30:00 AM 1.27 34.286 0.083 7.19 413.51 16.2
12/25/2022 12:45:00 AM 1.24 34.232 0.083 7.19 415.46 16.16
12/25/2022 1:00:00 AM 1.22 34.196 0.083 7.19 409.37 16.17
12/25/2022 1:15:00 AM 1.21 34.178 0.083 7.19 409.37 16.19
12/25/2022 1:30:00 AM 1.2 34.16 0.083 7.19 415.39 16.19
12/25/2022 1:45:00 AM 1.17 34.106 0.083 7.19 413.9 16.21
12/25/2022 2:00:00 AM 1.17 34.106 0.083 7.19 416.91 16.18
12/25/2022 2:15:00 AM 1.15 34.07 0.083 7.18 422.01 16.23
12/25/2022 2:30:00 AM 1.16 34.088 0.083 7.19 419.73 16.19
12/25/2022 2:45:00 AM 1.15 34.07 0.083 7.19 422.18 16.21
12/25/2022 3:00:00 AM 1.16 34.088 0.083 7.19 425.54 16.2
12/25/2022 3:15:00 AM 1.17 34.106 0.083 7.19 427.32 16.19
12/25/2022 3:30:00 AM 1.17 34.106 0.083 7.19 427.81 16.2
12/25/2022 3:45:00 AM 1.18 34.124 0.083 7.19 432.02 16.17
12/25/2022 4:00:00 AM 1.18 34.124 0.083 7.19 434.27 16.17
12/25/2022 4:15:00 AM 1.17 34.106 0.083 7.18 462.49 16.19
12/25/2022 4:30:00 AM 1.17 34.106 0.083 7.19 452 16.16
12/25/2022 4:45:00 AM 1.18 34.124 0.083 7.19 452.91 16.16
12/25/2022 5:00:00 AM 1.19 34.142 0.083 7.19 452.99 16.14
12/25/2022 5:15:00 AM 1.19 34.142 0.083 7.18 452.49 16.16
12/25/2022 5:30:00 AM 1.2 34.16 0.083 7.19 449.92 16.14
12/25/2022 5:45:00 AM 1.21 34.178 0.083 7.19 451.65 16.14
12/25/2022 6:00:00 AM 1.21 34.178 0.083 7.19 449.95 16.17
12/25/2022 6:15:00 AM 1.22 34.196 0.083 7.19 450.36 16.13
12/25/2022 6:30:00 AM 1.23 34.214 0.083 7.19 452.8 16.12
12/25/2022 6:45:00 AM 1.23 34.214 0.083 7.19 452.65 16.11
12/25/2022 7:00:00 AM 1.24 34.232 0.084 7.19 453.91 16.11
12/25/2022 7:15:00 AM 1.24 34.232 0.084 7.19 455.63 16.1
12/25/2022 7:30:00 AM 1.23 34.214 0.084 7.19 454.24 16.11
12/25/2022 7:45:00 AM 1.23 34.214 0.084 7.18 455.04 16.1
12/25/2022 8:00:00 AM 1.23 34.214 0.084 7.18 454.6 16.09
12/25/2022 8:15:00 AM 1.23 34.214 0.084 7.18 454.28 16.06
12/25/2022 8:30:00 AM 1.23 34.214 0.084 7.18 455.2 16.11
12/25/2022 8:45:00 AM 1.24 34.232 0.084 7.18 455.59 16.06
12/25/2022 9:00:00 AM 1.26 34.268 0.084 7.18 455.23 16.12
12/25/2022 9:15:00 AM 1.27 34.286 0.084 7.18 455.2 16.05
12/25/2022 9:30:00 AM 1.28 34.304 0.084 7.18 455.57 16.08
12/25/2022 9:45:00 AM 1.3 34.34 0.084 7.18 455.03 16.07
12/25/2022 10:00:00 AM 1.35 34.43 0.084 7.18 455.7 16.06
12/25/2022 10:15:00 AM 1.37 34.466 0.084 7.18 456.26 16.06
12/25/2022 10:30:00 AM 1.42 34.556 0.084 7.18 456.08 16.01
12/25/2022 10:45:00 AM 1.47 34.646 0.084 7.18 455.87 16.04
12/25/2022 11:00:00 AM 1.48 34.664 0.084 7.18 456.98 15.99
12/25/2022 11:15:00 AM 1.51 34.718 0.084 7.18 457.09 16.05
12/25/2022 11:30:00 AM 1.55 34.79 0.084 7.18 458.19 15.98
12/25/2022 11:45:00 AM 1.6 34.88 0.084 7.17 457.79 15.98
12/25/2022 12:00:00 PM 1.65 34.97 0.084 7.18 457.48 15.93
12/25/2022 12:15:00 PM 1.71 35.078 0.084 7.18 459.64 15.93
12/25/2022 12:30:00 PM 1.76 35.168 0.084 7.18 459.04 15.88
12/25/2022 12:45:00 PM 1.84 35.312 0.084 7.17 460.12 15.84
12/25/2022 1:00:00 PM 1.89 35.402 0.084 7.18 460.39 15.81
12/25/2022 1:15:00 PM 1.92 35.456 0.084 7.17 460.69 15.81
12/25/2022 1:30:00 PM 1.96 35.528 0.084 7.18 461.05 15.82
12/25/2022 1:45:00 PM 2 35.6 0.084 7.18 458.94 15.72
12/25/2022 2:00:00 PM 2.05 35.69 0.084 7.17 460.61 15.73
12/25/2022 2:15:00 PM 2.1 35.78 0.084 7.17 459.91 15.72
12/25/2022 2:30:00 PM 2.1 35.78 0.084 7.17 462.11 15.75
12/25/2022 2:45:00 PM 2.12 35.816 0.084 7.18 461.49 15.74
12/25/2022 3:00:00 PM 2.13 35.834 0.084 7.18 462.67 15.73
12/25/2022 3:15:00 PM 2.11 35.798 0.084 7.18 463.18 15.75
12/25/2022 3:30:00 PM 2.11 35.798 0.084 7.17 463.55 15.72
12/25/2022 3:45:00 PM 2.06 35.708 0.084 7.17 464.43 15.75
12/25/2022 4:00:00 PM 2.02 35.636 0.084 7.17 463.93 15.73
12/25/2022 4:15:00 PM 2 35.6 0.084 7.16 464.11 15.75
12/25/2022 4:30:00 PM 1.97 35.546 0.084 7.16 464.61 15.75
12/25/2022 4:45:00 PM 1.93 35.474 0.084 7.16 464.42 15.78
12/25/2022 5:00:00 PM 1.88 35.384 0.084 7.16 462.82 15.79
12/25/2022 5:15:00 PM 1.84 35.312 0.084 7.16 463.5 15.83
12/25/2022 5:30:00 PM 1.78 35.204 0.084 7.16 464.02 15.87
12/25/2022 5:45:00 PM 1.74 35.132 0.084 7.16 463.13 15.85
12/25/2022 6:00:00 PM 1.68 35.024 0.084 7.16 463.73 15.86
12/25/2022 6:15:00 PM 1.64 34.952 0.084 7.16 461.16 15.91
12/25/2022 6:30:00 PM 1.6 34.88 0.084 7.17 460.77 15.93
12/25/2022 6:45:00 PM 1.57 34.826 0.085 7.16 464.93 15.95
12/25/2022 7:00:00 PM 1.54 34.772 0.085 7.16 465.08 15.99
12/25/2022 7:15:00 PM 1.51 34.718 0.085 7.16 464.23 15.99
12/25/2022 7:30:00 PM 1.48 34.664 0.085 7.16 466.11 16
12/25/2022 7:45:00 PM 1.44 34.592 0.085 7.17 464.83 16.05
12/25/2022 8:00:00 PM 1.41 34.538 0.085 7.17 464.56 16.06
12/25/2022 8:15:00 PM 1.39 34.502 0.085 7.17 466.52 16.07
12/25/2022 8:30:00 PM 1.37 34.466 0.085 7.17 466.37 16.07
12/25/2022 8:45:00 PM 1.36 34.448 0.085 7.17 467.54 16.08
12/25/2022 9:00:00 PM 1.33 34.394 0.085 7.17 465.85 16.09
12/25/2022 9:15:00 PM 1.33 34.394 0.085 7.17 467.37 16.1
12/25/2022 9:30:00 PM 1.34 34.412 0.085 7.17 466.93 16.1
12/25/2022 9:45:00 PM 1.33 34.394 0.085 7.17 468.8 16.06
12/25/2022 10:00:00 PM 1.32 34.376 0.085 7.17 468.37 16.09
12/25/2022 10:15:00 PM 1.31 34.358 0.085 7.17 468.47 16.08
12/25/2022 10:30:00 PM 1.28 34.304 0.085 7.17 468.21 16.07
12/25/2022 10:45:00 PM 1.28 34.304 0.085 7.17 469.72 16.07
12/25/2022 11:00:00 PM 1.29 34.322 0.085 7.17 468.73 16.05
12/25/2022 11:15:00 PM 1.27 34.286 0.086 7.17 471.65 16.09
12/25/2022 11:30:00 PM 1.28 34.304 0.086 7.17 471.41 16.09
12/25/2022 11:45:00 PM 1.29 34.322 0.086 7.17 471.32 16.04
12/26/2022 12:00:00 AM 1.29 34.322 0.086 7.16 468.42 16.04
12/26/2022 12:15:00 AM 1.28 34.304 0.086 7.16 469.61 15.99
12/26/2022 12:30:00 AM 1.28 34.304 0.085 7.16 470.48 15.99
12/26/2022 12:45:00 AM 1.27 34.286 0.085 7.15 472.24 15.94
12/26/2022 1:00:00 AM 1.28 34.304 0.086 7.15 469.69 15.96
12/26/2022 1:15:00 AM 1.24 34.232 0.086 7.15 472.34 16
12/26/2022 1:30:00 AM 1.25 34.25 0.085 7.14 471.17 15.96
12/26/2022 1:45:00 AM 1.24 34.232 0.084 7.15 473.47 15.97
12/26/2022 2:00:00 AM 1.24 34.232 0.085 7.14 474.15 15.97
12/26/2022 2:15:00 AM 1.25 34.25 0.083 7.14 474.77 15.95
12/26/2022 2:30:00 AM 1.23 34.214 0.086 7.14 475.66 15.92
12/26/2022 2:45:00 AM 1.22 34.196 0.086 7.14 473.32 15.84
12/26/2022 3:00:00 AM 1.21 34.178 0.086 7.14 474.76 15.94
12/26/2022 3:15:00 AM 1.19 34.142 0.086 7.13 474.86 15.96
12/26/2022 3:30:00 AM 1.19 34.142 0.086 7.13 474.5 15.87
12/26/2022 3:45:00 AM 1.18 34.124 0.086 7.12 474.93 15.81
12/26/2022 4:00:00 AM 1.16 34.088 0.086 7.13 475.61 15.82
12/26/2022 4:15:00 AM 1.15 34.07 0.086 7.13 475.84 15.8
12/26/2022 4:30:00 AM 1.15 34.07 0.086 7.13 475.89 15.77
12/26/2022 4:45:00 AM 1.14 34.052 0.086 7.13 476.09 15.77
12/26/2022 5:00:00 AM 1.15 34.07 0.086 7.12 476.22 15.77
12/26/2022 5:15:00 AM 1.14 34.052 0.086 7.13 476.59 15.75
12/26/2022 5:30:00 AM 1.12 34.016 0.086 7.12 476.69 15.79
12/26/2022 5:45:00 AM 1.12 34.016 0.086 7.12 477.1 15.73
12/26/2022 6:00:00 AM 1.12 34.016 0.086 7.12 476.77 15.77
12/26/2022 6:15:00 AM 1.12 34.016 0.086 7.12 477.06 15.77
12/26/2022 6:30:00 AM 1.11 33.998 0.085 7.12 477.71 15.76
12/26/2022 6:45:00 AM 1.08 33.944 0.085 7.12 477.45 15.78
12/26/2022 7:00:00 AM 1.06 33.908 0.086 7.12 477.11 15.84
12/26/2022 7:15:00 AM 1.05 33.89 0.086 7.12 477.33 15.88
12/26/2022 7:30:00 AM 1.06 33.908 0.086 7.12 477.74 15.83
12/26/2022 7:45:00 AM 1.07 33.926 0.086 7.12 478.14 15.84
12/26/2022 8:00:00 AM 1.07 33.926 0.086 7.12 478.6 15.8
12/26/2022 8:15:00 AM 1.08 33.944 0.086 7.12 478.31 15.76
12/26/2022 8:30:00 AM 1.12 34.016 0.086 7.12 478.76 15.73
12/26/2022 8:45:00 AM 1.15 34.07 0.086 7.13 468.82 15.67
12/26/2022 9:00:00 AM 1.19 34.142 0.086 7.13 468.6 15.58
12/26/2022 9:15:00 AM 1.25 34.25 0.086 7.13 469.45 15.55
12/26/2022 9:30:00 AM 1.27 34.286 0.086 7.13 469.7 15.55
12/26/2022 9:45:00 AM 1.31 34.358 0.085 7.13 470 15.61
12/26/2022 10:00:00 AM 1.35 34.43 0.085 7.13 470.04 15.63
12/26/2022 10:15:00 AM 1.39 34.502 0.085 7.12 470.14 15.54
12/26/2022 10:30:00 AM 1.45 34.61 0.085 7.13 470.09 15.56
12/26/2022 10:45:00 AM 1.49 34.682 0.085 7.13 470.49 15.55
12/26/2022 11:00:00 AM 1.55 34.79 0.085 7.12 470.37 15.44
12/26/2022 11:15:00 AM 1.55 34.79 0.085 7.12 470.09 15.42
12/26/2022 11:30:00 AM 1.59 34.862 0.085 7.12 469.96 15.51
12/26/2022 11:45:00 AM 1.59 34.862 0.085 7.12 470.36 15.52
12/26/2022 12:00:00 PM 1.61 34.898 0.085 7.13 470.05 15.4
12/26/2022 12:15:00 PM 1.67 35.006 0.085 7.11 470.15 15.38
12/26/2022 12:30:00 PM 1.7 35.06 0.085 7.12 469.44 15.23
12/26/2022 12:45:00 PM 1.74 35.132 0.085 7.11 470.7 15.28
12/26/2022 1:00:00 PM 1.76 35.168 0.085 7.12 470.66 15.24
12/26/2022 1:15:00 PM 1.79 35.222 0.085 7.11 470.46 15.19
12/26/2022 1:30:00 PM 1.81 35.258 0.085 7.11 470.23 15.26
12/26/2022 1:45:00 PM 1.85 35.33 0.085 7.12 469.87 15.26
12/26/2022 2:00:00 PM 1.87 35.366 0.085 7.11 469.58 15.14
12/26/2022 2:15:00 PM 1.89 35.402 0.085 7.11 469.44 15.07
12/26/2022 2:30:00 PM 1.91 35.438 0.085 7.11 469.73 15.08
12/26/2022 2:45:00 PM 1.95 35.51 0.085 7.11 469.81 15.12
12/26/2022 3:00:00 PM 1.97 35.546 0.085 7.11 469.98 15.13
12/26/2022 3:15:00 PM 1.98 35.564 0.085 7.11 469.89 15.16
12/26/2022 3:30:00 PM 2 35.6 0.085 7.11 470.27 15.07
12/26/2022 3:45:00 PM 1.99 35.582 0.085 7.11 469.96 15.14
12/26/2022 4:00:00 PM 2.01 35.618 0.085 7.11 470.58 15.1
12/26/2022 4:15:00 PM 2 35.6 0.085 7.11 470.85 14.98
12/26/2022 4:30:00 PM 1.99 35.582 0.085 7.11 470.17 14.93
12/26/2022 4:45:00 PM 1.99 35.582 0.085 7.11 470.97 15.01
12/26/2022 5:00:00 PM 1.98 35.564 0.085 7.1 470.55 15.17
12/26/2022 5:15:00 PM 1.99 35.582 0.085 7.1 471.1 15.28
12/26/2022 5:30:00 PM 1.98 35.564 0.085 7.1 470.8 15.33
12/26/2022 5:45:00 PM 1.97 35.546 0.085 7.1 470.81 15.36
12/26/2022 6:00:00 PM 1.99 35.582 0.085 7.1 470.74 15.29
12/26/2022 6:15:00 PM 1.99 35.582 0.085 7.09 471.01 15.25
12/26/2022 6:30:00 PM 1.99 35.582 0.085 7.1 470.75 15.28
12/26/2022 6:45:00 PM 1.97 35.546 0.085 7.09 471.06 15.26
12/26/2022 7:00:00 PM 1.96 35.528 0.085 7.09 471.28 15.3
12/26/2022 7:15:00 PM 1.92 35.456 0.085 7.1 470.8 15.35
12/26/2022 7:30:00 PM 1.93 35.474 0.085 7.09 470.67 15.4
12/26/2022 7:45:00 PM 1.92 35.456 0.085 7.09 469.97 15.41
12/26/2022 8:00:00 PM 1.89 35.402 0.085 7.09 469.48 15.39
12/26/2022 8:15:00 PM 1.86 35.348 0.085 7.09 470.34 15.44
12/26/2022 8:30:00 PM 1.88 35.384 0.085 7.09 470.38 15.48
12/26/2022 8:45:00 PM 1.85 35.33 0.085 7.1 470.7 15.47
12/26/2022 9:00:00 PM 1.84 35.312 0.085 7.08 470.8 15.51
12/26/2022 9:15:00 PM 1.84 35.312 0.085 7.1 470.91 15.5
12/26/2022 9:30:00 PM 1.83 35.294 0.085 7.1 471.15 15.53
12/26/2022 9:45:00 PM 1.81 35.258 0.085 7.09 471.02 15.53
12/26/2022 10:00:00 PM 1.8 35.24 0.085 7.1 471.2 15.57
12/26/2022 10:15:00 PM 1.81 35.258 0.085 7.08 471.16 15.57
12/26/2022 10:30:00 PM 1.79 35.222 0.085 7.08 470.87 15.57
12/26/2022 10:45:00 PM 1.78 35.204 0.085 7.09 471.19 15.6
12/26/2022 11:00:00 PM 1.78 35.204 0.085 7.09 470.87 15.6
12/26/2022 11:15:00 PM 1.78 35.204 0.085 7.09 470.95 15.6
12/26/2022 11:30:00 PM 1.79 35.222 0.085 7.09 470.82 15.54
12/26/2022 11:45:00 PM 1.78 35.204 0.085 7.09 471.02 15.56
12/27/2022 12:00:00 AM 1.79 35.222 0.085 7.08 471.42 15.58
12/27/2022 12:15:00 AM 1.78 35.204 0.085 7.09 471.77 15.56
12/27/2022 12:30:00 AM 1.79 35.222 0.085 7.08 472.16 15.52
12/27/2022 12:45:00 AM 1.79 35.222 0.085 7.08 472.11 15.47
12/27/2022 1:00:00 AM 1.81 35.258 0.085 7.08 472.48 15.45
12/27/2022 1:15:00 AM 1.81 35.258 0.085 7.08 472.33 15.47
12/27/2022 1:30:00 AM 1.8 35.24 0.085 7.08 472.27 15.48
12/27/2022 1:45:00 AM 1.81 35.258 0.085 7.08 471.78 15.45
12/27/2022 2:00:00 AM 1.82 35.276 0.085 7.08 471.93 15.46
12/27/2022 2:15:00 AM 1.81 35.258 0.085 7.08 472.99 15.42
12/27/2022 2:30:00 AM 1.84 35.312 0.085 7.07 455.17 15.4
12/27/2022 2:45:00 AM 1.81 35.258 0.085 7.07 470.5 15.35
12/27/2022 3:00:00 AM 1.83 35.294 0.086 7.05 475.68 15.42
12/27/2022 3:15:00 AM 1.82 35.276 0.086 7.06 449.45 15.31
12/27/2022 3:30:00 AM 1.82 35.276 0.085 7.06 446.27 15.26
12/27/2022 3:45:00 AM 1.81 35.258 0.085 7.06 480.3 15.29
12/27/2022 4:00:00 AM 1.82 35.276 0.085 7.06 480.4 15.33
12/27/2022 4:15:00 AM 1.82 35.276 0.085 7.06 479.46 15.28
12/27/2022 4:30:00 AM 1.81 35.258 0.085 7.07 409.86 15.34
12/27/2022 4:45:00 AM 1.81 35.258 0.085 7.06 445.64 15.41
12/27/2022 5:00:00 AM 1.82 35.276 0.085 7.07 433.43 15.36
12/27/2022 5:15:00 AM 1.81 35.258 0.085 7.07 433.23 15.36
12/27/2022 5:30:00 AM 1.82 35.276 0.086 7.05 432.78 15.44
12/27/2022 5:45:00 AM 1.83 35.294 0.085 7.07 432.36 15.43
12/27/2022 6:00:00 AM 1.83 35.294 0.085 7.07 409.05 15.38
12/27/2022 6:15:00 AM 1.82 35.276 0.085 7.05 408.79 15.28
12/27/2022 6:30:00 AM 1.82 35.276 0.085 7.05 410.41 15.31
12/27/2022 6:45:00 AM 1.82 35.276 0.085 7.06 410.2 15.15
12/27/2022 7:00:00 AM 1.82 35.276 0.085 7.06 410.62 15.05
12/27/2022 7:15:00 AM 1.83 35.294 0.085 7.05 410.52 15.03
12/27/2022 7:30:00 AM 1.83 35.294 0.085 7.06 410.12 15.01
12/27/2022 7:45:00 AM 1.84 35.312 0.085 7.04 410.57 15.01
12/27/2022 8:00:00 AM 1.83 35.294 0.085 7.05 410.52 15.05
12/27/2022 8:15:00 AM 1.84 35.312 0.085 7.04 410.86 15.08
12/27/2022 8:30:00 AM 1.86 35.348 0.085 7.05 411.07 15.04
12/27/2022 8:45:00 AM 1.87 35.366 0.085 7.02 411.84 14.99
12/27/2022 9:00:00 AM 1.89 35.402 0.085 7.01 411.66 15
12/27/2022 9:15:00 AM 1.91 35.438 0.085 7.02 411.72 14.97
12/27/2022 9:30:00 AM 1.93 35.474 0.085 7.03 411.75 14.83
12/27/2022 9:45:00 AM 1.97 35.546 0.085 6.99 411.17 14.91
12/27/2022 10:00:00 AM 1.99 35.582 0.086 6.94 410.77 14.83
12/27/2022 10:15:00 AM 2.02 35.636 0.085 6.96 410.3 14.6
12/27/2022 10:30:00 AM 2.05 35.69 0.085 6.97 410.45 14.54
12/27/2022 10:45:00 AM 2.1 35.78 0.085 7 410.65 14.46
12/27/2022 11:00:00 AM 2.16 35.888 0.085 6.93 410.7 14.65
12/27/2022 11:15:00 AM 2.2 35.96 0.085 6.97 410.52 14.9
12/27/2022 11:30:00 AM 2.26 36.068 0.086 6.96 456.73 14.64
12/27/2022 11:45:00 AM 2.3 36.14 0.085 6.92 457.67 14.79
12/27/2022 12:00:00 PM 2.34 36.212 0.086 6.91 455.88 14.69
12/27/2022 12:15:00 PM 2.38 36.284 0.086 6.9 456.05 14.54
12/27/2022 12:30:00 PM 2.4 36.32 0.086 6.9 455.73 14.47
12/27/2022 12:45:00 PM 2.43 36.374 0.086 6.88 457.43 14.45
12/27/2022 1:00:00 PM 2.46 36.428 0.086 6.89 455.77 14.26
12/27/2022 1:15:00 PM 2.47 36.446 0.085 6.88 456.03 14.17
12/27/2022 1:30:00 PM 2.51 36.518 0.086 6.87 456.42 14.19
12/27/2022 1:45:00 PM 2.56 36.608 0.086 6.87 455.18 14.2
12/27/2022 2:00:00 PM 2.58 36.644 0.086 6.84 454.93 14.37
12/27/2022 2:15:00 PM 2.62 36.716 0.086 6.85 455.77 14.26
12/27/2022 2:30:00 PM 2.65 36.77 0.085 6.84 526.4 14.03
12/27/2022 2:45:00 PM 2.67 36.806 0.085 6.84 420.08 13.91
12/27/2022 3:00:00 PM 2.68 36.824 0.085 6.82 568.33 13.94
12/27/2022 3:15:00 PM 2.7 36.86 0.085 6.85 505.78 13.68
12/27/2022 3:30:00 PM 2.73 36.914 0.086 6.83 501.71 13.68
12/27/2022 3:45:00 PM 2.71 36.878 0.086 6.83 472.45 13.7
12/27/2022 4:00:00 PM 2.72 36.896 0.086 6.84 494.75 13.71
12/27/2022 4:15:00 PM 2.71 36.878 0.085 6.85 512.31 13.64
12/27/2022 4:30:00 PM 2.7 36.86 0.085 6.86 510.4 13.57
12/27/2022 4:45:00 PM 2.7 36.86 0.086 6.83 509.04 13.54
12/27/2022 5:00:00 PM 2.69 36.842 0.085 6.83 508.42 13.49
12/27/2022 5:15:00 PM 2.69 36.842 0.085 6.82 501.36 13.33
12/27/2022 5:30:00 PM 2.66 36.788 0.086 6.83 502.3 13.31
12/27/2022 5:45:00 PM 2.64 36.752 0.086 6.83 501.29 13.12
12/27/2022 6:00:00 PM 2.62 36.716 0.086 6.86 501.5 13.1
12/27/2022 6:15:00 PM 2.61 36.698 0.086 6.92 501.16 13.34
12/27/2022 6:30:00 PM 2.61 36.698 0.085 6.9 500.98 13.68
12/27/2022 6:45:00 PM 2.58 36.644 0.086 6.91 500.97 13.85
12/27/2022 7:00:00 PM 2.58 36.644 0.086 6.93 500.9 14.15
12/27/2022 7:15:00 PM 2.6 36.68 0.086 6.89 500.51 14.15
12/27/2022 7:30:00 PM 2.58 36.644 0.086 6.9 500.34 13.94
12/27/2022 7:45:00 PM 2.58 36.644 0.086 6.9 500.73 13.95
12/27/2022 8:00:00 PM 2.54 36.572 0.086 6.91 460.27 14.01
12/27/2022 8:15:00 PM 2.55 36.59 0.086 6.93 617.51 14
12/27/2022 8:30:00 PM 2.54 36.572 0.086 6.93 616.35 14.24
12/27/2022 8:45:00 PM 2.51 36.518 0.086 6.92 585.69 14.26
12/27/2022 9:00:00 PM 2.47 36.446 0.086 6.96 620.76 14.42
12/27/2022 9:15:00 PM 2.45 36.41 0.086 6.97 416.73 14.61
12/27/2022 9:30:00 PM 2.44 36.392 0.086 6.96 558.75 14.6
12/27/2022 9:45:00 PM 2.4 36.32 0.086 6.96 591.69 14.45
12/27/2022 10:00:00 PM 2.37 36.266 0.086 6.98 591.37 14.58
12/27/2022 10:15:00 PM 2.35 36.23 0.085 6.99 591.89 14.73
12/27/2022 10:30:00 PM 2.32 36.176 0.086 6.96 590.43 14.82
12/27/2022 10:45:00 PM 2.31 36.158 0.086 7 589.65 14.86
12/27/2022 11:00:00 PM 2.3 36.14 0.086 6.98 588.53 14.97
12/27/2022 11:15:00 PM 2.29 36.122 0.086 7 587.27 14.98
12/27/2022 11:30:00 PM 2.3 36.14 0.086 6.99 587.48 14.92
12/27/2022 11:45:00 PM 2.3 36.14 0.086 7.02 572.23 15.03
12/28/2022 12:00:00 AM 2.29 36.122 0.086 7 481.15 14.91
12/28/2022 12:15:00 AM 2.3 36.14 0.086 7.01 451.47 15.1
12/28/2022 12:30:00 AM 2.31 36.158 0.086 7.03 542.97 15.16
12/28/2022 12:45:00 AM 2.31 36.158 0.086 6.99 529.98 15.19
12/28/2022 1:00:00 AM 2.29 36.122 0.086 7.02 541.61 15.26
12/28/2022 1:15:00 AM 2.31 36.158 0.086 7.02 528.3 15.22
12/28/2022 1:30:00 AM 2.33 36.194 0.086 7.03 528.17 15.25
12/28/2022 1:45:00 AM 2.3 36.14 0.086 7.04 528.57 15.32
12/28/2022 2:00:00 AM 2.32 36.176 0.086 7.01 528.52 15.36
12/28/2022 2:15:00 AM 2.33 36.194 0.086 7.04 528.97 15.33
12/28/2022 2:30:00 AM 2.34 36.212 0.086 7.05 533 15.33
12/28/2022 2:45:00 AM 2.34 36.212 0.086 7.04 531.71 15.29
12/28/2022 3:00:00 AM 2.35 36.23 0.086 7.04 531.6 15.3
12/28/2022 3:15:00 AM 2.36 36.248 0.086 7.05 531.55 15.3
12/28/2022 3:30:00 AM 2.34 36.212 0.086 7.04 531.67 15.32
12/28/2022 3:45:00 AM 2.36 36.248 0.086 7.03 555.84 15.36
12/28/2022 4:00:00 AM 2.36 36.248 0.086 7.06 555.39 15.32
12/28/2022 4:15:00 AM 2.37 36.266 0.086 7.05 554.56 15.33
12/28/2022 4:30:00 AM 2.38 36.284 0.086 7.03 555.06 15.35
12/28/2022 4:45:00 AM 2.38 36.284 0.086 7.06 554.61 15.32
12/28/2022 5:00:00 AM 2.39 36.302 0.086 7.04 554.53 15.35
12/28/2022 5:15:00 AM 2.38 36.284 0.086 7.06 554.3 15.36
12/28/2022 5:30:00 AM 2.39 36.302 0.086 7.05 553.87 15.31
12/28/2022 5:45:00 AM 2.36 36.248 0.086 7.06 553.96 15.28
12/28/2022 6:00:00 AM 2.36 36.248 0.086 7.06 553.63 15.3
12/28/2022 6:15:00 AM 2.33 36.194 0.086 7.06 553.41 15.35
12/28/2022 6:30:00 AM 2.3 36.14 0.086 7.06 553.01 15.32
12/28/2022 6:45:00 AM 2.3 36.14 0.086 7.06 552.36 15.32
12/28/2022 7:00:00 AM 2.29 36.122 0.086 7.06 551.96 15.35
12/28/2022 7:15:00 AM 2.3 36.14 0.086 7.05 552.37 15.33
12/28/2022 7:30:00 AM 2.28 36.104 0.086 7.06 552.14 15.31
12/28/2022 7:45:00 AM 2.27 36.086 0.086 7.05 552.41 15.35
12/28/2022 8:00:00 AM 2.24 36.032 0.086 7.05 552.55 15.34
12/28/2022 8:15:00 AM 2.26 36.068 0.086 7.06 552.63 15.35
12/28/2022 8:30:00 AM 2.24 36.032 0.086 7.06 552.44 15.35
12/28/2022 8:45:00 AM 2.25 36.05 0.086 7.05 552.66 15.39
12/28/2022 9:00:00 AM 2.27 36.086 0.086 7.06 553.38 15.36
12/28/2022 9:15:00 AM 2.27 36.086 0.086 7.07 554.52 15.4
12/28/2022 9:30:00 AM 2.31 36.158 0.086 7.08 554.42 15.4
12/28/2022 9:45:00 AM 2.32 36.176 0.086 7.07 555.06 15.38
12/28/2022 10:00:00 AM 2.35 36.23 0.086 7.07 555.08 15.39
12/28/2022 10:15:00 AM 2.4 36.32 0.086 7.08 554.69 15.33
12/28/2022 10:30:00 AM 2.47 36.446 0.086 7.07 555.03 15.35
12/28/2022 10:45:00 AM 2.56 36.608 0.086 7.08 554.66 15.31
12/28/2022 11:00:00 AM 2.63 36.734 0.086 7.08 554.77 15.22
12/28/2022 11:15:00 AM 2.68 36.824 0.086 7.09 555.58 15.2
12/28/2022 11:30:00 AM 2.78 37.004 0.086 7.08 555.62 15.13
12/28/2022 11:45:00 AM 2.88 37.184 0.086 7.09 554.87 15.1
12/28/2022 12:00:00 PM 3.01 37.418 0.086 7.09 555.25 15.18
12/28/2022 12:15:00 PM 3.09 37.562 0.086 7.09 556.7 15.14
12/28/2022 12:30:00 PM 3.17 37.706 0.086 7.1 556.33 15.02
12/28/2022 12:45:00 PM 3.22 37.796 0.086 7.08 574.95 14.99
12/28/2022 1:00:00 PM 3.27 37.886 0.086 7.09 574.83 14.98
12/28/2022 1:15:00 PM 3.3 37.94 0.086 7.09 573.9 14.88
12/28/2022 1:30:00 PM 3.33 37.994 0.086 7.09 575.07 14.83
12/28/2022 1:45:00 PM 3.36 38.048 0.086 7.09 574.77 14.85
12/28/2022 2:00:00 PM 3.36 38.048 0.086 7.08 574.73 14.83
12/28/2022 2:15:00 PM 3.39 38.102 0.085 7.09 573.11 14.8
12/28/2022 2:30:00 PM 3.43 38.174 0.085 7.09 573.37 14.82
12/28/2022 2:45:00 PM 3.47 38.246 0.084 7.09 572.99 14.8
12/28/2022 3:00:00 PM 3.51 38.318 0.086 7.09 572.54 14.81
12/28/2022 3:15:00 PM 3.54 38.372 0.086 7.09 572.32 14.69
12/28/2022 3:30:00 PM 3.56 38.408 0.085 7.08 573.22 14.59
12/28/2022 3:45:00 PM 3.55 38.39 0.085 7.09 573.4 14.78
12/28/2022 4:00:00 PM 3.54 38.372 0.085 7.09 572.09 14.78
12/28/2022 4:15:00 PM 3.52 38.336 0.084 7.08 572.32 14.72
12/28/2022 4:30:00 PM 3.48 38.264 0.085 7.08 572.83 14.71
12/28/2022 4:45:00 PM 3.44 38.192 0.084 7.09 572.86 14.77
12/28/2022 5:00:00 PM 3.41 38.138 0.086 7.08 573.29 14.72
12/28/2022 5:15:00 PM 3.35 38.03 0.085 7.08 572.92 14.75
12/28/2022 5:30:00 PM 3.32 37.976 0.086 7.08 574.91 14.62
12/28/2022 5:45:00 PM 3.28 37.904 0.086 7.07 572.44 14.67
12/28/2022 6:00:00 PM 3.26 37.868 0.086 7.08 571.55 14.73
12/28/2022 6:15:00 PM 3.22 37.796 0.086 7.08 570.62 14.8
12/28/2022 6:30:00 PM 3.18 37.724 0.086 7.08 571.67 14.85
12/28/2022 6:45:00 PM 3.15 37.67 0.086 7.08 570.23 14.73
12/28/2022 7:00:00 PM 3.13 37.634 0.086 7.08 570.41 14.83
12/28/2022 7:15:00 PM 3.11 37.598 0.086 7.08 570.8 14.86
12/28/2022 7:30:00 PM 3.09 37.562 0.086 7.08 570.16 14.86
12/28/2022 7:45:00 PM 3.08 37.544 0.086 7.07 570.83 14.93
12/28/2022 8:00:00 PM 3.05 37.49 0.085 7.08 572.46 14.9
12/28/2022 8:15:00 PM 3.01 37.418 0.086 7.07 573.66 14.96
12/28/2022 8:30:00 PM 2.99 37.382 0.086 7.07 570.44 14.92
12/28/2022 8:45:00 PM 2.98 37.364 0.086 7.07 580.97 14.92
12/28/2022 9:00:00 PM 2.94 37.292 0.087 7.07 579.1 14.89
12/28/2022 9:15:00 PM 2.92 37.256 0.087 7.07 578.7 14.94
12/28/2022 9:30:00 PM 2.9 37.22 0.087 7.07 578.21 14.82
12/28/2022 9:45:00 PM 2.85 37.13 0.087 7.07 578.71 14.88
12/28/2022 10:00:00 PM 2.82 37.076 0.087 7.07 578.63 14.92
12/28/2022 10:15:00 PM 2.76 36.968 0.086 7.08 578.24 14.99
12/28/2022 10:30:00 PM 2.75 36.95 0.087 7.08 578.36 15.03
12/28/2022 10:45:00 PM 2.71 36.878 0.087 7.08 577.96 15.02
12/28/2022 11:00:00 PM 2.68 36.824 0.087 7.07 578.47 15.09
12/28/2022 11:15:00 PM 2.65 36.77 0.087 7.08 578.79 15.15
12/28/2022 11:30:00 PM 2.63 36.734 0.085 7.07 578.75 15.12
12/28/2022 11:45:00 PM 2.59 36.662 0.086 7.09 578.59 15.09
12/29/2022 12:00:00 AM 2.56 36.608 0.087 7.07 578.63 14.58
12/29/2022 12:15:00 AM 2.54 36.572 0.087 7.08 579.8 14.61
12/29/2022 12:30:00 AM 2.53 36.554 0.086 7.09 580.29 14.81
12/29/2022 12:45:00 AM 2.49 36.482 0.087 7.08 579.28 14.68
12/29/2022 1:00:00 AM 2.47 36.446 0.087 7.09 579.32 15.11
12/29/2022 1:15:00 AM 2.46 36.428 0.087 7.08 579.21 15.17
12/29/2022 1:30:00 AM 2.44 36.392 0.087 7.09 578.28 15.2
12/29/2022 1:45:00 AM 2.43 36.374 0.087 7.07 578.41 15.15
12/29/2022 2:00:00 AM 2.38 36.284 0.087 7.09 577.88 15.08
12/29/2022 2:15:00 AM 2.36 36.248 0.087 7.08 578.59 15.04
12/29/2022 2:30:00 AM 2.33 36.194 0.087 7.08 578.38 15.15
12/29/2022 2:45:00 AM 2.31 36.158 0.087 7.08 578.16 15.1
12/29/2022 3:00:00 AM 2.27 36.086 0.087 7.08 577.56 15.02
12/29/2022 3:15:00 AM 2.26 36.068 0.087 7.08 577.53 15.1
12/29/2022 3:30:00 AM 2.23 36.014 0.087 7.07 578.36 15.14
12/29/2022 3:45:00 AM 2.21 35.978 0.087 7.08 578.06 15.23
12/29/2022 4:00:00 AM 2.2 35.96 0.087 7.08 578.11 15.35
12/29/2022 4:15:00 AM 2.17 35.906 0.087 7.08 577.29 15.36
12/29/2022 4:30:00 AM 2.16 35.888 0.087 7.08 577.36 15.4
12/29/2022 4:45:00 AM 2.15 35.87 0.087 7.08 577.2 15.36
12/29/2022 5:00:00 AM 2.12 35.816 0.087 7.08 576.48 15.35
12/29/2022 5:15:00 AM 2.11 35.798 0.087 7.08 577.04 15.38
12/29/2022 5:30:00 AM 2.09 35.762 0.086 7.08 577.07 15.38
12/29/2022 5:45:00 AM 2.07 35.726 0.087 7.08 577.14 15.39
12/29/2022 6:00:00 AM 2.05 35.69 0.087 7.08 577.15 15.41
12/29/2022 6:15:00 AM 2.03 35.654 0.087 7.07 577.37 15.44
12/29/2022 6:30:00 AM 1.99 35.582 0.087 7.07 577.21 15.46
12/29/2022 6:45:00 AM 1.97 35.546 0.087 7.08 577.49 15.47
12/29/2022 7:00:00 AM 1.96 35.528 0.087 7.08 578.03 15.51
12/29/2022 7:15:00 AM 1.95 35.51 0.087 7.08 578.33 15.47
12/29/2022 7:30:00 AM 1.94 35.492 0.087 7.08 578.43 15.44
12/29/2022 7:45:00 AM 1.91 35.438 0.087 7.08 578.15 15.48
12/29/2022 8:00:00 AM 1.9 35.42 0.087 7.08 578.23 15.48
12/29/2022 8:15:00 AM 1.89 35.402 0.087 7.08 578.76 15.5
12/29/2022 8:30:00 AM 1.9 35.42 0.087 7.08 579.07 15.53
12/29/2022 8:45:00 AM 1.91 35.438 0.087 7.08 579.55 15.55
12/29/2022 9:00:00 AM 1.93 35.474 0.087 7.09 580.72 15.55
12/29/2022 9:15:00 AM 1.97 35.546 0.087 7.09 580.18 15.54
12/29/2022 9:30:00 AM 2 35.6 0.086 7.08 580.57 15.56
12/29/2022 9:45:00 AM 2.04 35.672 0.087 7.09 580.19 15.57
12/29/2022 10:00:00 AM 2.1 35.78 0.087 7.09 580.14 15.52
12/29/2022 10:15:00 AM 2.14 35.852 0.087 7.1 580.2 15.51
12/29/2022 10:30:00 AM 2.2 35.96 0.087 7.09 578.9 15.56
12/29/2022 10:45:00 AM 2.23 36.014 0.087 7.09 579 15.5
12/29/2022 11:00:00 AM 2.28 36.104 0.086 7.09 578.65 15.46
12/29/2022 11:15:00 AM 2.34 36.212 0.086 7.09 579.74 15.44
12/29/2022 11:30:00 AM 2.41 36.338 0.086 7.1 579.13 15.41
12/29/2022 11:45:00 AM 2.47 36.446 0.086 7.09 579.67 15.39
12/29/2022 12:00:00 PM 2.51 36.518 0.086 7.08 580.3 15.37
12/29/2022 12:15:00 PM 2.59 36.662 0.086 7.09 580.61 15.31
12/29/2022 12:30:00 PM 2.65 36.77 0.086 7.09 580.54 15.32
12/29/2022 12:45:00 PM 2.74 36.932 0.086 7.09 580.79 15.27
12/29/2022 1:00:00 PM 2.82 37.076 0.086 7.09 581.76 15.19
12/29/2022 1:15:00 PM 2.91 37.238 0.086 7.09 582.16 15.14
12/29/2022 1:30:00 PM 2.98 37.364 0.086 7.1 304.69 15.14
12/29/2022 1:45:00 PM 3.06 37.508 0.086 7.1 562.22 15.08
12/29/2022 2:00:00 PM 3.12 37.616 0.086 7.1 557.84 15.04
12/29/2022 2:15:00 PM 3.17 37.706 0.086 7.1 512.1 15.03
12/29/2022 2:30:00 PM 3.24 37.832 0.086 7.09 507.08 14.98
12/29/2022 2:45:00 PM 3.3 37.94 0.086 7.11 517.64 14.92
12/29/2022 3:00:00 PM 3.35 38.03 0.086 7.12 516.14 14.89
12/29/2022 3:15:00 PM 3.39 38.102 0.086 7.11 516.26 14.87
12/29/2022 3:30:00 PM 3.43 38.174 0.086 7.11 515.29 14.85
12/29/2022 3:45:00 PM 3.44 38.192 0.086 7.11 514.89 14.8
12/29/2022 4:00:00 PM 3.44 38.192 0.086 7.11 514.72 14.81
12/29/2022 4:15:00 PM 3.45 38.21 0.086 7.11 514.02 14.77
12/29/2022 4:30:00 PM 3.42 38.156 0.086 7.11 514.03 14.79
12/29/2022 4:45:00 PM 3.39 38.102 0.086 7.11 514.04 14.83
12/29/2022 5:00:00 PM 3.4 38.12 0.086 7.11 514.28 14.8
12/29/2022 5:15:00 PM 3.36 38.048 0.086 7.11 514.17 14.77
12/29/2022 5:30:00 PM 3.33 37.994 0.086 7.1 514.02 14.78
12/29/2022 5:45:00 PM 3.3 37.94 0.086 7.11 513.85 14.83
12/29/2022 6:00:00 PM 3.31 37.958 0.086 7.1 514.63 14.83
12/29/2022 6:15:00 PM 3.27 37.886 0.086 7.11 514.26 14.83
12/29/2022 6:30:00 PM 3.29 37.922 0.086 7.11 514.07 14.83
12/29/2022 6:45:00 PM 3.29 37.922 0.086 7.1 513.75 14.81
12/29/2022 7:00:00 PM 3.28 37.904 0.086 7.08 513.73 14.78
12/29/2022 7:15:00 PM 3.28 37.904 0.086 7.1 512.33 14.8
12/29/2022 7:30:00 PM 3.24 37.832 0.086 7.1 508.25 14.84
12/29/2022 7:45:00 PM 3.25 37.85 0.086 7.1 515.34 14.86
12/29/2022 8:00:00 PM 3.24 37.832 0.086 7.11 514.74 14.82
12/29/2022 8:15:00 PM 3.2 37.76 0.086 7.1 514.67 14.83
12/29/2022 8:30:00 PM 3.2 37.76 0.086 7.1 515.95 14.85
12/29/2022 8:45:00 PM 3.18 37.724 0.086 7.11 516.34 14.84
12/29/2022 9:00:00 PM 3.16 37.688 0.086 7.11 515.7 14.87
12/29/2022 9:15:00 PM 3.15 37.67 0.086 7.1 516.48 14.89
12/29/2022 9:30:00 PM 3.17 37.706 0.086 7.1 516.97 14.89
12/29/2022 9:45:00 PM 3.17 37.706 0.086 7.11 518.19 14.86
12/29/2022 10:00:00 PM 3.2 37.76 0.086 7.1 518.61 14.86
12/29/2022 10:15:00 PM 3.2 37.76 0.086 7.1 518.49 14.89
12/29/2022 10:30:00 PM 3.21 37.778 0.086 7.11 519.25 14.91
12/29/2022 10:45:00 PM 3.24 37.832 0.086 7.1 516.51 14.9
12/29/2022 11:00:00 PM 3.25 37.85 0.086 7.1 518.75 14.84
12/29/2022 11:15:00 PM 3.28 37.904 0.086 7.11 520.81 14.84
12/29/2022 11:30:00 PM 3.27 37.886 0.086 7.1 521.49 14.86
12/29/2022 11:45:00 PM 3.3 37.94 0.086 7.11 521.22 14.85
12/30/2022 12:00:00 AM 3.31 37.958 0.086 7.08 522.26 14.83
12/30/2022 12:15:00 AM 3.32 37.976 0.086 7.11 553.84 14.83
12/30/2022 12:30:00 AM 3.33 37.994 0.086 7.09 554.27 14.88
12/30/2022 12:45:00 AM 3.35 38.03 0.086 7.11 552.79 14.85
12/30/2022 1:00:00 AM 3.39 38.102 0.086 7.08 552.95 14.83
12/30/2022 1:15:00 AM 3.37 38.066 0.086 7.1 552.38 14.84
12/30/2022 1:30:00 AM 3.41 38.138 0.086 7.1 552.26 14.82
12/30/2022 1:45:00 AM 3.42 38.156 0.086 7.1 551.84 14.81
12/30/2022 2:00:00 AM 3.43 38.174 0.086 7.11 551.96 14.81
12/30/2022 2:15:00 AM 3.42 38.156 0.086 7.1 556.91 14.81
12/30/2022 2:30:00 AM 3.4 38.12 0.086 7.1 567.96 14.78
12/30/2022 2:45:00 AM 3.37 38.066 0.086 7.11 565.29 14.79
12/30/2022 3:00:00 AM 3.36 38.048 0.086 7.11 565.89 14.85
12/30/2022 3:15:00 AM 3.38 38.084 0.086 7.11 571.25 14.85
12/30/2022 3:30:00 AM 3.35 38.03 0.086 7.1 566.27 14.83
12/30/2022 3:45:00 AM 3.35 38.03 0.086 7.11 571.56 14.85
12/30/2022 4:00:00 AM 3.34 38.012 0.086 7.1 569.69 14.83
12/30/2022 4:15:00 AM 3.37 38.066 0.086 7.1 569.38 14.84
12/30/2022 4:30:00 AM 3.37 38.066 0.086 7.09 569.56 14.79
12/30/2022 4:45:00 AM 3.37 38.066 0.086 7.1 567.63 14.78
12/30/2022 5:00:00 AM 3.39 38.102 0.086 7.11 568.76 14.84
12/30/2022 5:15:00 AM 3.41 38.138 0.086 7.09 578.61 14.83
12/30/2022 5:30:00 AM 3.42 38.156 0.086 7.1 572.76 14.78
12/30/2022 5:45:00 AM 3.44 38.192 0.084 7.1 582.78 14.7
12/30/2022 6:00:00 AM 3.42 38.156 0.086 7.1 581.08 14.72
12/30/2022 6:15:00 AM 3.45 38.21 0.086 7.1 573.85 14.72
12/30/2022 6:30:00 AM 3.46 38.228 0.086 7.08 577.32 14.76
12/30/2022 6:45:00 AM 3.46 38.228 0.085 7.07 575.58 14.76
12/30/2022 7:00:00 AM 3.46 38.228 0.085 7.1 576.92 14.77
12/30/2022 7:15:00 AM 3.47 38.246 0.085 7.1 573.13 14.7
12/30/2022 7:30:00 AM 3.47 38.246 0.085 7.08 569.64 14.64
12/30/2022 7:45:00 AM 3.49 38.282 0.085 7.1 568.58 14.68
12/30/2022 8:00:00 AM 3.5 38.3 0.085 7.1 568.93 14.66
12/30/2022 8:15:00 AM 3.52 38.336 0.085 7.09 568.54 14.59
12/30/2022 8:30:00 AM 3.54 38.372 0.085 7.1 568.51 14.45
12/30/2022 8:45:00 AM 3.56 38.408 0.085 7.1 569.16 14.56
12/30/2022 9:00:00 AM 3.59 38.462 0.085 7.1 568.87 14.52
12/30/2022 9:15:00 AM 3.62 38.516 0.085 7.09 568.45 14.69
12/30/2022 9:30:00 AM 3.68 38.624 0.085 7.11 568.55 14.89
12/30/2022 9:45:00 AM 3.73 38.714 0.085 7.09 569.2 14.96
12/30/2022 10:00:00 AM 3.78 38.804 0.085 7.1 568.89 14.98
12/30/2022 10:15:00 AM 3.85 38.93 0.085 7.1 569.34 14.92
12/30/2022 10:30:00 AM 3.91 39.038 0.085 7.11 568.37 14.96
12/30/2022 10:45:00 AM 3.96 39.128 0.085 7.11 568.39 14.94
12/30/2022 11:00:00 AM 4.04 39.272 0.085 7.11 568.63 14.9
12/30/2022 11:15:00 AM 4.11 39.398 0.085 7.11 568.22 14.83
12/30/2022 11:30:00 AM 4.18 39.524 0.085 7.1 568.17 14.81
12/30/2022 11:45:00 AM 4.24 39.632 0.085 7.11 569.31 14.78
12/30/2022 12:00:00 PM 4.31 39.758 0.085 7.12 568.86 14.74
12/30/2022 12:15:00 PM 4.36 39.848 0.085 7.11 568.41 14.75
12/30/2022 12:30:00 PM 4.42 39.956 0.085 7.11 569.09 14.7
12/30/2022 12:45:00 PM 4.45 40.01 0.085 7.11 569.51 14.69
12/30/2022 1:00:00 PM 4.47 40.046 0.084 7.11 569.7 14.65
12/30/2022 1:15:00 PM 4.51 40.118 0.084 7.11 570.28 14.61
12/30/2022 1:30:00 PM 4.53 40.154 0.084 7.11 569.19 14.55
12/30/2022 1:45:00 PM 4.58 40.244 0.084 7.11 569.75 14.42
12/30/2022 2:00:00 PM 4.6 40.28 0.084 7.11 569.12 14.48
12/30/2022 2:15:00 PM 4.61 40.298 0.084 7.1 569.14 14.46
12/30/2022 2:30:00 PM 4.62 40.316 0.084 7.1 568.83 14.44
12/30/2022 2:45:00 PM 4.62 40.316 0.084 7.1 569.18 14.48
12/30/2022 3:00:00 PM 4.64 40.352 0.084 7.09 569.18 14.45
12/30/2022 3:15:00 PM 4.64 40.352 0.084 7.1 569.52 14.65
12/30/2022 3:30:00 PM 4.64 40.352 0.084 7.1 568.72 14.59
12/30/2022 3:45:00 PM 4.64 40.352 0.084 7.1 621.83 14.6
12/30/2022 4:00:00 PM 4.63 40.334 0.083 7.09 616.96 14.42
12/30/2022 4:15:00 PM 4.6 40.28 0.083 7.09 613.39 14.6
12/30/2022 4:30:00 PM 4.58 40.244 0.083 7.09 612.84 14.6
12/30/2022 4:45:00 PM 4.56 40.208 0.083 7.09 611.48 14.58
12/30/2022 5:00:00 PM 4.51 40.118 0.083 7.08 612.12 14.53
12/30/2022 5:15:00 PM 4.44 39.992 0.083 7.08 613.84 14.64
12/30/2022 5:30:00 PM 4.4 39.92 0.083 7.08 612.87 14.64
12/30/2022 5:45:00 PM 4.32 39.776 0.083 7.07 612.53 14.69
12/30/2022 6:00:00 PM 4.25 39.65 0.082 7.07 611.24 14.74
12/30/2022 6:15:00 PM 4.2 39.56 0.082 7.07 610.99 14.73
12/30/2022 6:30:00 PM 4.16 39.488 0.082 7.07 608.13 14.77
12/30/2022 6:45:00 PM 4.11 39.398 0.082 7.06 608.42 14.8
12/30/2022 7:00:00 PM 4.06 39.308 0.082 7.06 609.11 14.79
12/30/2022 7:15:00 PM 4.02 39.236 0.082 7.06 608.67 14.79
12/30/2022 7:30:00 PM 3.97 39.146 0.082 7.05 607.33 14.83
12/30/2022 7:45:00 PM 3.89 39.002 0.081 7.06 606.91 14.9
12/30/2022 8:00:00 PM 3.85 38.93 0.081 7.03 606.36 14.9
12/30/2022 8:15:00 PM 3.83 38.894 0.081 7.05 605.43 14.88
12/30/2022 8:30:00 PM 3.77 38.786 0.081 7.06 606.89 14.93
12/30/2022 8:45:00 PM 3.74 38.732 0.081 7.05 606.44 14.94
12/30/2022 9:00:00 PM 3.73 38.714 0.081 7.04 547.98 14.9
12/30/2022 9:15:00 PM 3.7 38.66 0.081 7.04 551.49 14.9
12/30/2022 9:30:00 PM 3.65 38.57 0.081 7.03 552.69 14.94
12/30/2022 9:45:00 PM 3.64 38.552 0.081 7.04 553.42 14.77
12/30/2022 10:00:00 PM 3.61 38.498 0.082 7.04 592.28 14.92
12/30/2022 10:15:00 PM 3.56 38.408 0.082 7.02 572.34 15
12/30/2022 10:30:00 PM 3.55 38.39 0.082 7.02 531.17 15
12/30/2022 10:45:00 PM 3.53 38.354 0.082 7.01 513.3 14.97
12/30/2022 11:00:00 PM 3.49 38.282 0.082 7 601.26 14.95
12/30/2022 11:15:00 PM 3.49 38.282 0.082 6.98 597.7 14.98
12/30/2022 11:30:00 PM 3.44 38.192 0.082 7 550.61 14.94
12/30/2022 11:45:00 PM 3.43 38.174 0.082 6.97 550.64 14.99
12/31/2022 12:00:00 AM 3.42 38.156 0.082 6.95 548.87 14.9
12/31/2022 12:15:00 AM 3.41 38.138 0.082 6.9 549.39 14.73
12/31/2022 12:30:00 AM 3.41 38.138 0.082 6.89 549.12 14.69
12/31/2022 12:45:00 AM 3.39 38.102 0.082 6.88 548.94 14.89
12/31/2022 1:00:00 AM 3.38 38.084 0.082 6.87 548.7 14.79
12/31/2022 1:15:00 AM 3.37 38.066 0.082 6.81 548.24 14.62
12/31/2022 1:30:00 AM 3.36 38.048 0.083 6.84 547.47 14.54
12/31/2022 1:45:00 AM 3.35 38.03 0.082 6.79 547.71 14.66
12/31/2022 2:00:00 AM 3.36 38.048 0.082 6.78 548.4 14.68
12/31/2022 2:15:00 AM 3.36 38.048 0.083 6.77 537.62 14.58
12/31/2022 2:30:00 AM 3.34 38.012 0.082 6.81 538.05 14.48
12/31/2022 2:45:00 AM 3.35 38.03 0.082 6.8 576.93 14.69
12/31/2022 3:00:00 AM 3.36 38.048 0.082 6.77 568.28 14.57
12/31/2022 3:15:00 AM 3.37 38.066 0.082 6.75 554.5 14.7
12/31/2022 3:30:00 AM 3.38 38.084 0.083 6.76 554.18 14.42
12/31/2022 3:45:00 AM 3.39 38.102 0.082 6.72 554.06 14.53
12/31/2022 4:00:00 AM 3.38 38.084 0.082 6.77 546.61 14.61
12/31/2022 4:15:00 AM 3.4 38.12 0.082 6.72 534 14.79
12/31/2022 4:30:00 AM 3.4 38.12 0.082 6.75 533.61 14.77
12/31/2022 4:45:00 AM 3.39 38.102 0.082 6.75 536.66 14.6
12/31/2022 5:00:00 AM 3.41 38.138 0.082 6.75 535.99 14.53
12/31/2022 5:15:00 AM 3.46 38.228 0.082 6.73 574.01 14.52
12/31/2022 5:30:00 AM 3.48 38.264 0.082 6.71 573.55 14.59
12/31/2022 5:45:00 AM 3.51 38.318 0.082 6.75 572.68 14.75
12/31/2022 6:00:00 AM 3.55 38.39 0.082 6.78 572.78 14.87
12/31/2022 6:15:00 AM 3.58 38.444 0.082 6.81 565.21 14.74
12/31/2022 6:30:00 AM 3.62 38.516 0.082 6.88 562.42 14.95
12/31/2022 6:45:00 AM 3.63 38.534 0.082 6.88 548.09 14.96
12/31/2022 7:00:00 AM 3.66 38.588 0.081 6.89 547.69 14.94
12/31/2022 7:15:00 AM 3.69 38.642 0.081 6.91 547.77 14.9
12/31/2022 7:30:00 AM 3.72 38.696 0.081 6.89 547.93 14.85
12/31/2022 7:45:00 AM 3.75 38.75 0.081 6.86 547.03 14.75
12/31/2022 8:00:00 AM 3.76 38.768 0.081 6.87 546.83 14.77
12/31/2022 8:15:00 AM 3.78 38.804 0.081 6.92 546.69 14.84
12/31/2022 8:30:00 AM 3.79 38.822 0.081 6.95 545.05 14.88
12/31/2022 8:45:00 AM 3.81 38.858 0.08 6.96 545.48 14.96
12/31/2022 9:00:00 AM 3.83 38.894 0.08 6.97 545.61 14.95
12/31/2022 9:15:00 AM 3.86 38.948 0.08 6.97 545.19 14.96
12/31/2022 9:30:00 AM 3.88 38.984 0.08 6.98 545.38 14.96
12/31/2022 9:45:00 AM 3.9 39.02 0.08 6.98 545.73 14.92
12/31/2022 10:00:00 AM 3.93 39.074 0.079 7.01 545.46 14.95
12/31/2022 10:15:00 AM 3.95 39.11 0.079 7 546.2 14.93
12/31/2022 10:30:00 AM 3.98 39.164 0.079 6.99 545.94 14.9
12/31/2022 10:45:00 AM 4.03 39.254 0.079 6.99 545.49 14.9
12/31/2022 11:00:00 AM 4.05 39.29 0.079 7 545.64 14.87
12/31/2022 11:15:00 AM 4.1 39.38 0.079 7 546.13 14.9
12/31/2022 11:30:00 AM 4.13 39.434 0.079 7 545.75 14.87
12/31/2022 11:45:00 AM 4.16 39.488 0.079 7.01 545.5 14.84
12/31/2022 12:00:00 PM 4.2 39.56 0.079 7.02 545.35 14.86
12/31/2022 12:15:00 PM 4.23 39.614 0.079 7.02 544.82 14.82
12/31/2022 12:30:00 PM 4.27 39.686 0.078 7.01 545.26 14.79
12/31/2022 12:45:00 PM 4.29 39.722 0.078 7.03 544.1 14.79
12/31/2022 1:00:00 PM 4.31 39.758 0.078 7 544.13 14.71
12/31/2022 1:15:00 PM 4.33 39.794 0.078 7.03 545.27 14.76
12/31/2022 1:30:00 PM 4.33 39.794 0.078 7.03 544.4 14.75
12/31/2022 1:45:00 PM 4.34 39.812 0.078 7 539.57 14.76
12/31/2022 2:00:00 PM 4.36 39.848 0.078 7.02 539.58 14.73
12/31/2022 2:15:00 PM 4.37 39.866 0.078 7.04 539.75 14.77
12/31/2022 2:30:00 PM 4.39 39.902 0.078 7.02 540.27 14.73
12/31/2022 2:45:00 PM 4.38 39.884 0.077 7.03 539.73 14.73
12/31/2022 3:00:00 PM 4.38 39.884 0.077 7.04 540.31 14.75
12/31/2022 3:15:00 PM 4.37 39.866 0.077 7.04 540.36 14.78
12/31/2022 3:30:00 PM 4.34 39.812 0.077 7.05 540.32 14.83
12/31/2022 3:45:00 PM 4.31 39.758 0.077 7.05 540.88 14.82
12/31/2022 4:00:00 PM 4.28 39.704 0.077 7.06 540.86 14.86
12/31/2022 4:15:00 PM 4.25 39.65 0.076 7.07 540.64 14.87
12/31/2022 4:30:00 PM 4.21 39.578 0.076 7.07 540.55 14.89
12/31/2022 4:45:00 PM 4.18 39.524 0.076 7.08 540.33 14.87
12/31/2022 5:00:00 PM 4.15 39.47 0.076 7.09 540.08 14.9
12/31/2022 5:15:00 PM 4.12 39.416 0.076 7.09 540.47 14.91
12/31/2022 5:30:00 PM 4.09 39.362 0.076 7.09 539.74 14.92
12/31/2022 5:45:00 PM 4.07 39.326 0.076 7.1 525.74 14.93
12/31/2022 6:00:00 PM 4.05 39.29 0.076 7.07 550.31 14.92
12/31/2022 6:15:00 PM 4.01 39.218 0.076 7.1 548.06 14.95
12/31/2022 6:30:00 PM 3.98 39.164 0.076 7.09 554.07 14.95
12/31/2022 6:45:00 PM 3.97 39.146 0.076 7.08 556.92 14.95
12/31/2022 7:00:00 PM 3.96 39.128 0.076 7.09 550.34 14.97
12/31/2022 7:15:00 PM 3.93 39.074 0.076 7.1 552.43 14.98
12/31/2022 7:30:00 PM 3.93 39.074 0.077 7.1 631.39 14.99
12/31/2022 7:45:00 PM 3.91 39.038 0.077 7.11 633.48 15.02
12/31/2022 8:00:00 PM 3.9 39.02 0.077 7.11 587.07 15.01
12/31/2022 8:15:00 PM 3.9 39.02 0.077 7.11 602 15
12/31/2022 8:30:00 PM 3.89 39.002 0.077 7.11 603.33 15
12/31/2022 8:45:00 PM 3.89 39.002 0.077 7.12 601.28 15.01
12/31/2022 9:00:00 PM 3.89 39.002 0.077 7.11 605.86 15.01
12/31/2022 9:15:00 PM 3.88 38.984 0.077 7.12 604.51 15
12/31/2022 9:30:00 PM 3.88 38.984 0.077 7.11 604.36 15
12/31/2022 9:45:00 PM 3.88 38.984 0.077 7.11 604.44 15.02
12/31/2022 10:00:00 PM 3.88 38.984 0.077 7.11 604.71 15
12/31/2022 10:15:00 PM 3.89 39.002 0.077 7.11 523.8 14.99
12/31/2022 10:30:00 PM 3.88 38.984 0.077 7.11 496.06 14.98
12/31/2022 10:45:00 PM 3.88 38.984 0.077 7.12 539.89 15
12/31/2022 11:00:00 PM 3.88 38.984 0.077 7.11 578.8 15
12/31/2022 11:15:00 PM 3.88 38.984 0.077 7.12 559.66 15.01
12/31/2022 11:30:00 PM 3.87 38.966 0.077 7.11 561.14 15
12/31/2022 11:45:00 PM 3.86 38.948 0.077 7.12 557.2 15
1/1/2023 12:00:00 AM 3.86 38.948 0.077 7.11 556.41 15
1/1/2023 12:15:00 AM 3.84 38.912 0.077 7.12 556.59 15
1/1/2023 12:30:00 AM 3.84 38.912 0.077 7.12 556.46 15.01
1/1/2023 12:45:00 AM 3.82 38.876 0.077 7.11 572.37 15.02
1/1/2023 1:00:00 AM 3.8 38.84 0.077 7.1 569.56 15.02
1/1/2023 1:15:00 AM 3.79 38.822 0.077 7.11 940.79 15.03
1/1/2023 1:30:00 AM 3.76 38.768 0.077 7.11 764.74 15.03
1/1/2023 1:45:00 AM 3.74 38.732 0.077 7.11 655.88 15.05
1/1/2023 2:00:00 AM 3.74 38.732 0.077 7.11 650.8 15.04
1/1/2023 2:15:00 AM 3.71 38.678 0.077 7.11 653.42 15.07
1/1/2023 2:30:00 AM 3.7 38.66 0.077 7.1 782.7 15.06
1/1/2023 2:45:00 AM 3.69 38.642 0.077 7.11 779.32 15.12
1/1/2023 3:00:00 AM 3.69 38.642 0.077 7.12 960.82 15.07
1/1/2023 3:15:00 AM 3.68 38.624 0.077 7.11 913.73 15.07
1/1/2023 3:30:00 AM 3.67 38.606 0.077 7.11 900.33 15.05
1/1/2023 3:45:00 AM 3.65 38.57 0.077 7.12 893.58 15.08
1/1/2023 4:00:00 AM 3.62 38.516 0.078 7.09 889.55 15.08
1/1/2023 4:15:00 AM 3.61 38.498 0.078 7.11 898.58 15.08
1/1/2023 4:30:00 AM 3.59 38.462 0.078 7.11 896.72 15.1
1/1/2023 4:45:00 AM 3.56 38.408 0.078 7.1 894.34 15.13
1/1/2023 5:00:00 AM 3.55 38.39 0.078 7.11 892.61 15.12
1/1/2023 5:15:00 AM 3.53 38.354 0.078 7.12 891.39 15.15
1/1/2023 5:30:00 AM 3.53 38.354 0.078 7.11 792.98 15.16
1/1/2023 5:45:00 AM 3.52 38.336 0.078 7.11 788.48 15.15
1/1/2023 6:00:00 AM 3.5 38.3 0.078 7.12 788.01 15.17
1/1/2023 6:15:00 AM 3.49 38.282 0.078 7.1 545.92 15.18
1/1/2023 6:30:00 AM 3.49 38.282 0.078 7.11 455.4 15.18
1/1/2023 6:45:00 AM 3.49 38.282 0.078 7.12 677.25 15.19
1/1/2023 7:00:00 AM 3.5 38.3 0.078 7.1 764.17 15.19
1/1/2023 7:15:00 AM 3.52 38.336 0.078 7.11 841.85 15.19
1/1/2023 7:30:00 AM 3.53 38.354 0.077 7.11 549.31 15.16
1/1/2023 7:45:00 AM 3.54 38.372 0.077 7.11 519.96 15.15
1/1/2023 8:00:00 AM 3.56 38.408 0.078 7.1 391.16 15.15
1/1/2023 8:15:00 AM 3.57 38.426 0.078 7.11 389.69 15.18
1/1/2023 8:30:00 AM 3.6 38.48 0.078 7.1 374.05 15.16
1/1/2023 8:45:00 AM 3.62 38.516 0.078 7.12 374.02 15.18
1/1/2023 9:00:00 AM 3.64 38.552 0.078 7.12 374.18 15.19
1/1/2023 9:15:00 AM 3.71 38.678 0.078 7.12 374.53 15.18
1/1/2023 9:30:00 AM 3.74 38.732 0.077 7.12 383.08 15.15
1/1/2023 9:45:00 AM 3.77 38.786 0.077 7.13 401.76 15.16
1/1/2023 10:00:00 AM 3.85 38.93 0.078 7.13 522.2 15.16
1/1/2023 10:15:00 AM 3.89 39.002 0.078 7.12 534.21 15.12
1/1/2023 10:30:00 AM 3.93 39.074 0.077 7.14 680.1 15.11
1/1/2023 10:45:00 AM 3.94 39.092 0.077 7.13 677.84 15.11
1/1/2023 11:00:00 AM 4 39.2 0.077 7.14 677.92 15.09
1/1/2023 11:15:00 AM 4.05 39.29 0.077 7.14 677.22 15.06
1/1/2023 11:30:00 AM 4.05 39.29 0.077 7.13 677.58 15.07
1/1/2023 11:45:00 AM 4.07 39.326 0.078 7.14 1010.61 15.04
1/1/2023 12:00:00 PM 4.12 39.416 0.077 7.13 391.41 15
1/1/2023 12:15:00 PM 4.13 39.434 0.077 7.13 388.72 15.01
1/1/2023 12:30:00 PM 4.18 39.524 0.077 7.14 387.07 14.98
1/1/2023 12:45:00 PM 4.2 39.56 0.077 7.14 386.05 14.98
1/1/2023 1:00:00 PM 4.27 39.686 0.077 7.14 384.93 14.97
1/1/2023 1:15:00 PM 4.36 39.848 0.077 7.14 380.42 14.95
1/1/2023 1:30:00 PM 4.41 39.938 0.077 7.14 385.8 14.91
1/1/2023 1:45:00 PM 4.48 40.064 0.077 7.14 383 14.88
1/1/2023 2:00:00 PM 4.55 40.19 0.077 7.13 382.69 14.85
1/1/2023 2:15:00 PM 4.59 40.262 0.077 7.12 381 14.84
1/1/2023 2:30:00 PM 4.62 40.316 0.077 7.14 380.26 14.81
1/1/2023 2:45:00 PM 4.63 40.334 0.077 7.14 379.73 14.79
1/1/2023 3:00:00 PM 4.65 40.37 0.077 7.12 379.16 14.77
1/1/2023 3:15:00 PM 4.62 40.316 0.077 7.12 377.22 14.78
1/1/2023 3:30:00 PM 4.6 40.28 0.077 7.13 377.26 14.78
1/1/2023 3:45:00 PM 4.61 40.298 0.078 7.13 376.95 14.78
1/1/2023 4:00:00 PM 4.59 40.262 0.078 7.13 376.61 14.79
1/1/2023 4:15:00 PM 4.56 40.208 0.078 7.12 375.15 14.8
1/1/2023 4:30:00 PM 4.53 40.154 0.078 7.12 374.16 14.78
1/1/2023 4:45:00 PM 4.51 40.118 0.078 7.12 369.8 14.78
1/1/2023 5:00:00 PM 4.46 40.028 0.078 7.12 370.32 14.8
1/1/2023 5:15:00 PM 4.43 39.974 0.078 7.11 370.4 14.8
1/1/2023 5:30:00 PM 4.4 39.92 0.078 7.11 369.88 14.8
1/1/2023 5:45:00 PM 4.37 39.866 0.078 7.1 368.89 14.78
1/1/2023 6:00:00 PM 4.32 39.776 0.078 7.11 368.72 14.83
1/1/2023 6:15:00 PM 4.26 39.668 0.078 7.11 367.44 14.88
1/1/2023 6:30:00 PM 4.22 39.596 0.078 7.11 364.48 14.88
1/1/2023 6:45:00 PM 4.17 39.506 0.078 7.1 361.1 14.91
1/1/2023 7:00:00 PM 4.16 39.488 0.078 7.11 360.54 14.94
1/1/2023 7:15:00 PM 4.14 39.452 0.077 7.11 360.17 14.93
1/1/2023 7:30:00 PM 4.14 39.452 0.078 7.1 359.47 14.93
1/1/2023 7:45:00 PM 4.13 39.434 0.078 7.1 358.86 14.92
1/1/2023 8:00:00 PM 4.13 39.434 0.079 7.1 359.35 14.96
1/1/2023 8:15:00 PM 4.13 39.434 0.079 7.1 360.57 14.94
1/1/2023 8:30:00 PM 4.11 39.398 0.079 7.08 359.44 14.96
1/1/2023 8:45:00 PM 4.11 39.398 0.079 7.07 358.39 14.97
1/1/2023 9:00:00 PM 4.1 39.38 0.079 7.1 360.71 14.95
1/1/2023 9:15:00 PM 4.09 39.362 0.079 7.09 368.11 14.97
1/1/2023 9:30:00 PM 4.08 39.344 0.079 7.1 362.99 14.94
1/1/2023 9:45:00 PM 4.07 39.326 0.079 7.07 362.26 14.95
1/1/2023 10:00:00 PM 4.07 39.326 0.079 7.1 362.83 14.94
1/1/2023 10:15:00 PM 4.05 39.29 0.078 7.07 358.22 14.92
1/1/2023 10:30:00 PM 4.07 39.326 0.079 7.08 359.12 14.95
1/1/2023 10:45:00 PM 4.06 39.308 0.079 7.09 359.96 14.97
1/1/2023 11:00:00 PM 4.07 39.326 0.079 7.09 360.93 14.94
1/1/2023 11:15:00 PM 4.06 39.308 0.079 7.09 370.32 14.98
1/1/2023 11:30:00 PM 4.05 39.29 0.079 7.08 382.67 14.96
1/1/2023 11:45:00 PM 4.06 39.308 0.079 7.08 443.84 14.92
1/2/2023 12:00:00 AM 4.05 39.29 0.079 7.07 484.59 14.92
1/2/2023 12:15:00 AM 4.06 39.308 0.079 7.08 485.13 14.95
1/2/2023 12:30:00 AM 4.07 39.326 0.079 7.07 485.57 14.83
1/2/2023 12:45:00 AM 4.07 39.326 0.079 7.07 487.63 14.92
1/2/2023 1:00:00 AM 4.07 39.326 0.079 7.07 489.43 14.9
1/2/2023 1:15:00 AM 4.07 39.326 0.079 7.07 489.57 14.93
1/2/2023 1:30:00 AM 4.08 39.344 0.079 7.07 491.26 14.93
1/2/2023 1:45:00 AM 4.08 39.344 0.079 7.07 390.79 14.93
1/2/2023 2:00:00 AM 4.06 39.308 0.079 7.07 680.55 14.92
1/2/2023 2:15:00 AM 4.05 39.29 0.079 7.07 795.46 14.89
1/2/2023 2:30:00 AM 4.04 39.272 0.079 7.07 681.5 14.96
1/2/2023 2:45:00 AM 4.02 39.236 0.079 7.07 420.64 14.96
1/2/2023 3:00:00 AM 4 39.2 0.079 7.07 497.52 14.98
1/2/2023 3:15:00 AM 3.98 39.164 0.079 7.07 547.29 14.93
1/2/2023 3:30:00 AM 3.97 39.146 0.079 7.08 567.35 15
1/2/2023 3:45:00 AM 3.95 39.11 0.079 7.07 568.58 14.98
1/2/2023 4:00:00 AM 3.97 39.146 0.079 7.07 567.23 14.99
1/2/2023 4:15:00 AM 3.96 39.128 0.079 7.07 567.2 14.97
1/2/2023 4:30:00 AM 3.96 39.128 0.079 7.07 566.55 14.94
1/2/2023 4:45:00 AM 3.96 39.128 0.079 7.06 566.68 14.96
1/2/2023 5:00:00 AM 3.95 39.11 0.079 7.07 568.21 14.96
1/2/2023 5:15:00 AM 3.95 39.11 0.079 7.06 567.31 14.97
1/2/2023 5:30:00 AM 3.95 39.11 0.079 7.06 567.08 14.96
1/2/2023 5:45:00 AM 3.96 39.128 0.079 7.06 567.95 14.96
1/2/2023 6:00:00 AM 3.97 39.146 0.079 7.06 567.89 14.95
1/2/2023 6:15:00 AM 3.97 39.146 0.079 7.06 570.39 14.95
1/2/2023 6:30:00 AM 3.97 39.146 0.079 7.06 627.54 14.98
1/2/2023 6:45:00 AM 3.98 39.164 0.079 7.05 624.52 14.94
1/2/2023 7:00:00 AM 3.98 39.164 0.079 7.05 620.61 14.96
1/2/2023 7:15:00 AM 3.97 39.146 0.079 7.05 623.4 14.97
1/2/2023 7:30:00 AM 3.97 39.146 0.079 7.05 624.88 14.97
1/2/2023 7:45:00 AM 3.98 39.164 0.08 7.05 623.28 14.96
1/2/2023 8:00:00 AM 3.97 39.146 0.08 7.05 622.38 14.97
1/2/2023 8:15:00 AM 3.98 39.164 0.08 7.04 622.56 14.96
1/2/2023 8:30:00 AM 3.98 39.164 0.08 7.04 622.84 14.98
1/2/2023 8:45:00 AM 4 39.2 0.08 7.04 622.77 14.97
1/2/2023 9:00:00 AM 4.03 39.254 0.08 7.05 622.07 14.85
1/2/2023 9:15:00 AM 4.04 39.272 0.08 7.04 622.52 14.8
1/2/2023 9:30:00 AM 4.07 39.326 0.08 7.05 621.86 14.91
1/2/2023 9:45:00 AM 4.09 39.362 0.08 7.04 621.64 14.92
1/2/2023 10:00:00 AM 4.12 39.416 0.08 7.04 621.91 14.87
1/2/2023 10:15:00 AM 4.18 39.524 0.08 7.04 621.96 14.85
1/2/2023 10:30:00 AM 4.23 39.614 0.08 7.05 621.76 14.9
1/2/2023 10:45:00 AM 4.28 39.704 0.08 7.05 621.88 14.89
1/2/2023 11:00:00 AM 4.31 39.758 0.08 7.05 621.87 14.82
1/2/2023 11:15:00 AM 4.32 39.776 0.08 7.05 621.71 14.84
1/2/2023 11:30:00 AM 4.39 39.902 0.08 7.05 632.75 14.75
1/2/2023 11:45:00 AM 4.44 39.992 0.08 7.04 607.87 14.77
1/2/2023 12:00:00 PM 4.51 40.118 0.081 7.04 607.8 14.72
1/2/2023 12:15:00 PM 4.6 40.28 0.08 7.05 581.32 14.77
1/2/2023 12:30:00 PM 4.67 40.406 0.081 7.05 585 14.63
1/2/2023 12:45:00 PM 4.73 40.514 0.08 7.06 584.46 14.66
1/2/2023 1:00:00 PM 4.78 40.604 0.08 7.05 584.2 14.63
1/2/2023 1:15:00 PM 4.84 40.712 0.08 7.05 584.1 14.58
1/2/2023 1:30:00 PM 4.92 40.856 0.08 7.04 584.68 14.51
1/2/2023 1:45:00 PM 4.98 40.964 0.08 7.06 584.61 14.5
1/2/2023 2:00:00 PM 5.05 41.09 0.08 7.06 584.82 14.54
1/2/2023 2:15:00 PM 5.1 41.18 0.08 7.06 584.22 14.48
1/2/2023 2:30:00 PM 5.15 41.27 0.08 7.06 581.9 14.52
1/2/2023 2:45:00 PM 5.19 41.342 0.08 7.06 578.47 14.42
1/2/2023 3:00:00 PM 5.22 41.396 0.08 7.07 578.74 14.49
1/2/2023 3:15:00 PM 5.24 41.432 0.08 7.06 582.26 14.44
1/2/2023 3:30:00 PM 5.24 41.432 0.08 7.06 582.14 14.46
1/2/2023 3:45:00 PM 5.24 41.432 0.08 7.05 581.91 14.4
1/2/2023 4:00:00 PM 5.24 41.432 0.08 7.05 582.36 14.39
1/2/2023 4:15:00 PM 5.23 41.414 0.08 7.05 589.73 14.43
1/2/2023 4:30:00 PM 5.2 41.36 0.08 7.05 583.02 14.43
1/2/2023 4:45:00 PM 5.18 41.324 0.08 7.04 585.33 14.44
1/2/2023 5:00:00 PM 5.16 41.288 0.08 7.04 586.52 14.36
1/2/2023 5:15:00 PM 5.12 41.216 0.08 7.05 589.67 14.49
1/2/2023 5:30:00 PM 5.09 41.162 0.081 7.04 580.31 14.48
1/2/2023 5:45:00 PM 5.07 41.126 0.08 7.04 564.7 14.49
1/2/2023 6:00:00 PM 5.03 41.054 0.079 7.03 550.13 14.44
1/2/2023 6:15:00 PM 4.99 40.982 0.079 7.04 552.78 14.39
1/2/2023 6:30:00 PM 4.97 40.946 0.079 7.03 552.19 14.4
1/2/2023 6:45:00 PM 4.95 40.91 0.079 7.03 553.57 14.41
1/2/2023 7:00:00 PM 4.94 40.892 0.08 7.03 554.5 14.2
1/2/2023 7:15:00 PM 4.9 40.82 0.08 7.03 559.44 14.48
1/2/2023 7:30:00 PM 4.87 40.766 0.08 7.02 565.35 14.46
1/2/2023 7:45:00 PM 4.86 40.748 0.081 7.02 566.3 14.45
1/2/2023 8:00:00 PM 4.82 40.676 0.081 7.02 576.97 14.54
1/2/2023 8:15:00 PM 4.83 40.694 0.081 7.01 611.75 14.44
1/2/2023 8:30:00 PM 4.81 40.658 0.081 7.02 582.01 14.52
1/2/2023 8:45:00 PM 4.8 40.64 0.081 7.02 582.2 14.57
1/2/2023 9:00:00 PM 4.79 40.622 0.081 7.01 580.78 14.54
1/2/2023 9:15:00 PM 4.79 40.622 0.081 7.01 573.93 14.49
1/2/2023 9:30:00 PM 4.79 40.622 0.081 7.01 666.18 14.49
1/2/2023 9:45:00 PM 4.78 40.604 0.081 7.01 636.3 14.5
1/2/2023 10:00:00 PM 4.78 40.604 0.081 7.01 636.07 14.47
1/2/2023 10:15:00 PM 4.78 40.604 0.081 7 635.36 14.49
1/2/2023 10:30:00 PM 4.77 40.586 0.079 7.01 636.25 14.52
1/2/2023 10:45:00 PM 4.77 40.586 0.081 7.01 636.75 14.58
1/2/2023 11:00:00 PM 4.77 40.586 0.081 7.01 639.82 14.52
1/2/2023 11:15:00 PM 4.76 40.568 0.081 7.01 639.29 14.56
1/2/2023 11:30:00 PM 4.76 40.568 0.08 7.01 637.97 14.5
1/2/2023 11:45:00 PM 4.75 40.55 0.08 7 636.57 14.53
1/3/2023 12:00:00 AM 4.74 40.532 0.081 7 636.71 14.59
1/3/2023 12:15:00 AM 4.75 40.55 0.081 6.99 636.49 14.53
1/3/2023 12:30:00 AM 4.73 40.514 0.081 7 639.78 14.54
1/3/2023 12:45:00 AM 4.72 40.496 0.081 7 638.93 14.56
1/3/2023 1:00:00 AM 4.73 40.514 0.081 6.99 638.86 14.59
1/3/2023 1:15:00 AM 4.74 40.532 0.081 7 639.5 14.57
1/3/2023 1:30:00 AM 4.74 40.532 0.08 7 641.11 14.52
1/3/2023 1:45:00 AM 4.75 40.55 0.081 6.99 560.42 14.53
1/3/2023 2:00:00 AM 4.74 40.532 0.081 6.99 578.81 14.54
1/3/2023 2:15:00 AM 4.76 40.568 0.081 6.99 577.96 14.52
1/3/2023 2:30:00 AM 4.76 40.568 0.081 6.99 577.19 14.55
1/3/2023 2:45:00 AM 4.75 40.55 0.081 6.99 576.51 14.57
1/3/2023 3:00:00 AM 4.76 40.568 0.081 6.99 578.37 14.58
1/3/2023 3:15:00 AM 4.74 40.532 0.081 6.99 577.51 14.61
1/3/2023 3:30:00 AM 4.76 40.568 0.081 6.99 577.79 14.54
1/3/2023 3:45:00 AM 4.76 40.568 0.081 6.99 577.41 14.53
1/3/2023 4:00:00 AM 4.77 40.586 0.081 6.99 577.31 14.51
1/3/2023 4:15:00 AM 4.77 40.586 0.081 6.99 576.63 14.48
1/3/2023 4:30:00 AM 4.78 40.604 0.081 6.98 576.05 14.46
1/3/2023 4:45:00 AM 4.78 40.604 0.081 6.99 575.75 14.54
1/3/2023 5:00:00 AM 4.79 40.622 0.081 6.98 575.69 14.51
1/3/2023 5:15:00 AM 4.78 40.604 0.081 6.99 574.95 14.57
1/3/2023 5:30:00 AM 4.8 40.64 0.082 6.98 576.19 14.5
1/3/2023 5:45:00 AM 4.79 40.622 0.081 6.98 575.85 14.51
1/3/2023 6:00:00 AM 4.8 40.64 0.082 6.98 576.53 14.5
1/3/2023 6:15:00 AM 4.81 40.658 0.082 6.96 576.61 14.47
1/3/2023 6:30:00 AM 4.8 40.64 0.082 6.96 563.47 14.45
1/3/2023 6:45:00 AM 4.8 40.64 0.082 6.96 607.02 14.47
1/3/2023 7:00:00 AM 4.79 40.622 0.082 6.97 604.44 14.5
1/3/2023 7:15:00 AM 4.79 40.622 0.081 6.95 600.42 14.49
1/3/2023 7:30:00 AM 4.79 40.622 0.082 6.95 599.41 14.48
1/3/2023 7:45:00 AM 4.78 40.604 0.082 6.94 598.12 14.31
1/3/2023 8:00:00 AM 4.78 40.604 0.082 6.95 598.33 14.38
1/3/2023 8:15:00 AM 4.78 40.604 0.082 6.96 599.16 14.44
1/3/2023 8:30:00 AM 4.79 40.622 0.082 6.94 599.23 14.47
1/3/2023 8:45:00 AM 4.8 40.64 0.081 6.92 576.23 14.46
1/3/2023 9:00:00 AM 4.8 40.64 0.082 6.94 595.57 14.46
1/3/2023 9:15:00 AM 4.82 40.676 0.082 6.95 592.07 14.47
1/3/2023 9:30:00 AM 4.82 40.676 0.082 6.97 595.27 14.55
1/3/2023 9:45:00 AM 4.84 40.712 0.082 6.97 580.1 14.55
1/3/2023 10:00:00 AM 4.86 40.748 0.082 6.96 563.5 14.48
1/3/2023 10:15:00 AM 4.34 39.812 0.087 7.29 11.26 12.51
1/3/2023 10:30:00 AM 4.29 39.722 0.087 7.19 8.01 12.59
1/3/2023 10:45:00 AM 4.3 39.74 0.087 7.16 8.15 12.59
1/3/2023 11:00:00 AM 4.34 39.812 0.087 7.15 8.09 12.56
1/3/2023 11:15:00 AM 4.35 39.83 0.087 7.15 8.5 12.57
1/3/2023 11:30:00 AM 4.4 39.92 0.088 7.15 7.89 12.56
1/3/2023 11:45:00 AM 4.42 39.956 0.088 7.16 8.3 12.55
1/3/2023 12:00:00 PM 4.48 40.064 0.088 7.17 9.42 12.53
1/3/2023 12:15:00 PM 4.52 40.136 0.087 7.18 10.35 12.51
1/3/2023 12:30:00 PM 4.53 40.154 0.087 7.18 9.15 12.53
1/3/2023 12:45:00 PM 4.58 40.244 0.088 7.17 9.42 12.5
1/3/2023 1:00:00 PM 4.64 40.352 0.088 7.16 9.91 12.48
1/3/2023 1:15:00 PM 4.66 40.388 0.088 7.16 11.27 12.46
1/3/2023 1:30:00 PM 4.72 40.496 0.088 7.16 13.02 12.45
1/3/2023 1:45:00 PM 4.78 40.604 0.088 7.15 13.2 12.44
1/3/2023 2:00:00 PM 4.83 40.694 0.088 7.16 11.2 12.41
1/3/2023 2:15:00 PM 4.88 40.784 0.087 7.16 11.33 12.38
1/3/2023 2:30:00 PM 4.95 40.91 0.087 7.09 9.72 12.35
1/3/2023 2:45:00 PM 5 41 0.087 7.11 9.29 12.34
1/3/2023 3:00:00 PM 5.02 41.036 0.087 7.14 8.54 12.32
1/3/2023 3:15:00 PM 5.04 41.072 0.087 7.13 8.6 12.3
1/3/2023 3:30:00 PM 5.05 41.09 0.087 7.09 9.89 12.3
1/3/2023 3:45:00 PM 5.06 41.108 0.087 7.11 8.2 12.29
1/3/2023 4:00:00 PM 5.04 41.072 0.087 7.12 7.98 12.29
1/3/2023 4:15:00 PM 5.05 41.09 0.087 7.12 7.85 12.29
1/3/2023 4:30:00 PM 5.05 41.09 0.087 7.11 7.4 12.29
1/3/2023 4:45:00 PM 5.05 41.09 0.087 7.08 7.6 12.29
1/3/2023 5:00:00 PM 5.05 41.09 0.087 7.11 7.26 12.29
1/3/2023 5:15:00 PM 5.06 41.108 0.087 7.11 7.26 12.28
1/3/2023 5:30:00 PM 5.06 41.108 0.087 7.11 7.11 12.29
1/3/2023 5:45:00 PM 5.06 41.108 0.087 7.11 8.52 12.28
1/3/2023 6:00:00 PM 5.07 41.126 0.087 7.11 6.95 12.27
1/3/2023 6:15:00 PM 5.04 41.072 0.087 7.11 6.94 12.28
1/3/2023 6:30:00 PM 5.03 41.054 0.088 7.1 6.86 12.28
1/3/2023 6:45:00 PM 5.01 41.018 0.087 7.1 7.04 12.29
1/3/2023 7:00:00 PM 4.99 40.982 0.087 7.09 7.13 12.3
1/3/2023 7:15:00 PM 4.99 40.982 0.087 7.1 7.18 12.3
1/3/2023 7:30:00 PM 5 41 0.087 7.09 6.7 12.3
1/3/2023 7:45:00 PM 4.99 40.982 0.088 7.08 6.47 12.32
1/3/2023 8:00:00 PM 4.98 40.964 0.088 7.1 6.5 12.31
1/3/2023 8:15:00 PM 4.97 40.946 0.087 7.08 6.77 12.31
1/3/2023 8:30:00 PM 4.97 40.946 0.088 7.07 6.46 12.31
1/3/2023 8:45:00 PM 4.94 40.892 0.087 7.04 6.9 12.31
1/3/2023 9:00:00 PM 4.93 40.874 0.087 7.1 7.16 12.32
1/3/2023 9:15:00 PM 4.94 40.892 0.087 7.08 6.54 12.32
1/3/2023 9:30:00 PM 4.95 40.91 0.087 7.1 6.93 12.32
1/3/2023 9:45:00 PM 4.96 40.928 0.087 7.1 6.36 12.31
1/3/2023 10:00:00 PM 4.97 40.946 0.087 7.1 6.45 12.31
1/3/2023 10:15:00 PM 4.96 40.928 0.087 7.1 6.48 12.3
1/3/2023 10:30:00 PM 4.94 40.892 0.087 7.1 6.53 12.32
1/3/2023 10:45:00 PM 4.94 40.892 0.087 7.06 6.41 12.31
1/3/2023 11:00:00 PM 4.9 40.82 0.087 7.1 6.25 12.33
1/3/2023 11:15:00 PM 4.88 40.784 0.087 7.1 6.57 12.33
1/3/2023 11:30:00 PM 4.86 40.748 0.087 7.09 6.31 12.33
1/3/2023 11:45:00 PM 4.83 40.694 0.087 7.05 6.7 12.36
1/4/2023 12:00:00 AM 4.83 40.694 0.087 7.03 6.58 12.34
1/4/2023 12:15:00 AM 4.8 40.64 0.087 7.07 6.45 12.36
1/4/2023 12:30:00 AM 4.8 40.64 0.087 7.08 6.44 12.36
1/4/2023 12:45:00 AM 4.8 40.64 0.086 7.05 6.27 12.35
1/4/2023 1:00:00 AM 4.8 40.64 0.086 7.08 6.43 12.35
1/4/2023 1:15:00 AM 4.81 40.658 0.086 7.08 6.5 12.35
1/4/2023 1:30:00 AM 4.81 40.658 0.086 7.08 6.29 12.35
1/4/2023 1:45:00 AM 4.81 40.658 0.086 7.07 6.06 12.36
1/4/2023 2:00:00 AM 4.81 40.658 0.086 7.01 6.3 12.36
1/4/2023 2:15:00 AM 4.79 40.622 0.086 7.08 6.41 12.36
1/4/2023 2:30:00 AM 4.79 40.622 0.086 7.05 6.27 12.36
1/4/2023 2:45:00 AM 4.78 40.604 0.086 7.03 6.42 12.37
1/4/2023 3:00:00 AM 4.75 40.55 0.086 7.08 6.32 12.37
1/4/2023 3:15:00 AM 4.74 40.532 0.086 7.03 6.05 12.38
1/4/2023 3:30:00 AM 4.7 40.46 0.086 7.05 6.14 12.38
1/4/2023 3:45:00 AM 4.65 40.37 0.087 7.04 6.24 12.42
1/4/2023 4:00:00 AM 4.65 40.37 0.086 7 6.29 12.4
1/4/2023 4:15:00 AM 4.61 40.298 0.086 7.07 6.3 12.42
1/4/2023 4:30:00 AM 4.58 40.244 0.086 7.08 6.33 12.42
1/4/2023 4:45:00 AM 4.58 40.244 0.086 7.05 6.31 12.43
1/4/2023 5:00:00 AM 4.56 40.208 0.086 7.08 6.11 12.45
1/4/2023 5:15:00 AM 4.55 40.19 0.086 7.08 6.2 12.45
1/4/2023 5:30:00 AM 4.52 40.136 0.086 7.08 6.35 12.46
1/4/2023 5:45:00 AM 4.5 40.1 0.086 7.07 6.08 12.46
1/4/2023 6:00:00 AM 4.48 40.064 0.086 7.01 5.98 12.47
1/4/2023 6:15:00 AM 4.49 40.082 0.086 7.07 6.06 12.44
1/4/2023 6:30:00 AM 4.45 40.01 0.086 7.08 6.24 12.47
1/4/2023 6:45:00 AM 4.44 39.992 0.086 7.03 6.31 12.48
1/4/2023 7:00:00 AM 4.41 39.938 0.088 7.08 5.53 12.49
1/4/2023 7:15:00 AM 4.37 39.866 0.086 7.06 6.21 12.51
1/4/2023 7:30:00 AM 4.36 39.848 0.086 7.08 5.77 12.51
1/4/2023 7:45:00 AM 4.36 39.848 0.086 7.05 6.58 12.52
1/4/2023 8:00:00 AM 4.38 39.884 0.086 7.07 6.04 12.51
1/4/2023 8:15:00 AM 4.39 39.902 0.085 7.07 6.13 12.53
1/4/2023 8:30:00 AM 4.42 39.956 0.086 7.08 5.95 12.54
1/4/2023 8:45:00 AM 4.46 40.028 0.086 7.08 6.16 12.52
1/4/2023 9:00:00 AM 4.5 40.1 0.086 7.07 6.19 12.5
1/4/2023 9:15:00 AM 4.55 40.19 0.085 7.09 6.19 12.51
1/4/2023 9:30:00 AM 4.59 40.262 0.085 7.09 5.95 12.5
1/4/2023 9:45:00 AM 4.65 40.37 0.085 7.03 6.3 12.48
1/4/2023 10:00:00 AM 4.7 40.46 0.085 7.05 6.1 12.48
1/4/2023 10:15:00 AM 4.74 40.532 0.085 7.11 6.01 12.47
1/4/2023 10:30:00 AM 4.8 40.64 0.086 7.11 5.78 12.45
1/4/2023 10:45:00 AM 4.87 40.766 0.085 7.08 6.1 12.41
1/4/2023 11:00:00 AM 4.93 40.874 0.085 7.09 6.16 12.4
1/4/2023 11:15:00 AM 5 41 0.085 7.11 6.1 12.38
1/4/2023 11:30:00 AM 5.07 41.126 0.085 7.07 6.16 12.35
1/4/2023 11:45:00 AM 5.15 41.27 0.085 7.12 6.26 12.33
1/4/2023 12:00:00 PM 5.22 41.396 0.085 7.13 6.08 12.32
1/4/2023 12:15:00 PM 5.28 41.504 0.085 7.1 6.1 12.29
1/4/2023 12:30:00 PM 5.35 41.63 0.085 7.14 6.13 12.27
1/4/2023 12:45:00 PM 5.38 41.684 0.086 7.09 5.91 12.25
1/4/2023 1:00:00 PM 5.41 41.738 0.086 7.15 6.23 12.22
1/4/2023 1:15:00 PM 5.44 41.792 0.086 7.14 6.39 12.21
1/4/2023 1:30:00 PM 5.48 41.864 0.086 7.13 6.1 12.19
1/4/2023 1:45:00 PM 5.49 41.882 0.086 7.15 5.9 12.19
1/4/2023 2:00:00 PM 5.54 41.972 0.086 7.15 5.84 12.17
1/4/2023 2:15:00 PM 5.56 42.008 0.086 7.13 6.11 12.16
1/4/2023 2:30:00 PM 5.58 42.044 0.086 7.17 6.09 12.15
1/4/2023 2:45:00 PM 5.61 42.098 0.086 7.16 6.02 12.13
1/4/2023 3:00:00 PM 5.62 42.116 0.086 7.16 5.91 12.11
1/4/2023 3:15:00 PM 5.6 42.08 0.086 7.17 5.96 12.14
1/4/2023 3:30:00 PM 5.62 42.116 0.086 7.16 6.04 12.11
1/4/2023 3:45:00 PM 5.61 42.098 0.086 7.16 6.34 12.12
1/4/2023 4:00:00 PM 5.61 42.098 0.086 7.15 5.97 12.09
1/4/2023 4:15:00 PM 5.58 42.044 0.086 7.16 6.27 12.09
1/4/2023 4:30:00 PM 5.56 42.008 0.086 7.17 5.79 12.1
1/4/2023 4:45:00 PM 5.53 41.954 0.087 7.16 6.01 12.1
1/4/2023 5:00:00 PM 5.5 41.9 0.087 7.14 5.85 12.09
1/4/2023 5:15:00 PM 5.49 41.882 0.086 7.14 6.12 12.11
1/4/2023 5:30:00 PM 5.47 41.846 0.086 7.14 6.42 12.09
1/4/2023 5:45:00 PM 5.47 41.846 0.087 7.1 6.1 12.1
1/4/2023 6:00:00 PM 5.43 41.774 0.086 7.11 6.06 12.11
1/4/2023 6:15:00 PM 5.43 41.774 0.087 7.14 6.24 12.12
1/4/2023 6:30:00 PM 5.45 41.81 0.087 7.13 6.18 12.08
1/4/2023 6:45:00 PM 5.45 41.81 0.087 7.15 6.11 12.11
1/4/2023 7:00:00 PM 5.48 41.864 0.087 7.15 6.3 12.09
1/4/2023 7:15:00 PM 5.46 41.828 0.087 7.14 6.15 12.09
1/4/2023 7:30:00 PM 5.46 41.828 0.087 7.15 6.26 12.1
1/4/2023 7:45:00 PM 5.49 41.882 0.087 7.15 6.24 12.09
1/4/2023 8:00:00 PM 5.49 41.882 0.087 7.14 6.68 12.08
1/4/2023 8:15:00 PM 5.5 41.9 0.087 7.15 6.18 12.09
1/4/2023 8:30:00 PM 5.5 41.9 0.087 7.13 6.16 12.08
1/4/2023 8:45:00 PM 5.49 41.882 0.087 7.15 6.03 12.1
1/4/2023 9:00:00 PM 5.51 41.918 0.087 7.15 6.2 12.08
1/4/2023 9:15:00 PM 5.52 41.936 0.087 7.14 6.06 12.08
1/4/2023 9:30:00 PM 5.52 41.936 0.086 7.15 6.16 12.08
1/4/2023 9:45:00 PM 5.54 41.972 0.087 7.14 6.03 12.06
1/4/2023 10:00:00 PM 5.55 41.99 0.086 7.14 6.36 12.07
1/4/2023 10:15:00 PM 5.57 42.026 0.086 7.1 5.94 12.06
1/4/2023 10:30:00 PM 5.6 42.08 0.086 7.11 6.09 12.06
1/4/2023 10:45:00 PM 5.61 42.098 0.086 7.14 6.17 12.05
1/4/2023 11:00:00 PM 5.62 42.116 0.086 7.14 6 12.05
1/4/2023 11:15:00 PM 5.58 42.044 0.086 7.14 6.29 12.07
1/4/2023 11:30:00 PM 5.59 42.062 0.086 7.14 5.95 12.06
1/4/2023 11:45:00 PM 5.59 42.062 0.086 7.13 6.03 12.05
1/5/2023 12:00:00 AM 5.58 42.044 0.086 7.11 5.88 12.07
1/5/2023 12:15:00 AM 5.55 41.99 0.086 7.14 6.43 12.07
1/5/2023 12:30:00 AM 5.54 41.972 0.086 7.14 6.07 12.09
1/5/2023 12:45:00 AM 5.52 41.936 0.086 7.13 5.88 12.08
1/5/2023 1:00:00 AM 5.5 41.9 0.086 7.14 6.11 12.11
1/5/2023 1:15:00 AM 5.48 41.864 0.087 7.14 6.1 12.1
1/5/2023 1:30:00 AM 5.44 41.792 0.086 7.13 5.91 12.1
1/5/2023 1:45:00 AM 5.41 41.738 0.087 7.13 5.9 12.12
1/5/2023 2:00:00 AM 5.36 41.648 0.087 7.15 5.83 12.14
1/5/2023 2:15:00 AM 5.31 41.558 0.086 7.13 6.21 12.16
1/5/2023 2:30:00 AM 5.26 41.468 0.087 7.14 5.91 12.19
1/5/2023 2:45:00 AM 5.22 41.396 0.087 7.13 5.97 12.18
1/5/2023 3:00:00 AM 5.18 41.324 0.087 7.12 6.07 12.21
1/5/2023 3:15:00 AM 5.14 41.252 0.087 7.11 6.03 12.21
1/5/2023 3:30:00 AM 5.11 41.198 0.087 7.13 5.79 12.23
1/5/2023 3:45:00 AM 5.09 41.162 0.087 7.13 5.72 12.24
1/5/2023 4:00:00 AM 5.05 41.09 0.087 7.14 5.77 12.27
1/5/2023 4:15:00 AM 5.03 41.054 0.087 7.14 6.06 12.29
1/5/2023 4:30:00 AM 4.99 40.982 0.087 7.14 5.99 12.3
1/5/2023 4:45:00 AM 4.95 40.91 0.087 7.1 6.16 12.32
1/5/2023 5:00:00 AM 4.91 40.838 0.087 7.13 6.06 12.32
1/5/2023 5:15:00 AM 4.89 40.802 0.087 7.08 6.03 12.31
1/5/2023 5:30:00 AM 4.85 40.73 0.087 7.07 5.7 12.34
1/5/2023 5:45:00 AM 4.81 40.658 0.087 7.12 6.12 12.34
1/5/2023 6:00:00 AM 4.77 40.586 0.087 7.13 6.21 12.36
1/5/2023 6:15:00 AM 4.71 40.478 0.087 7.13 6.04 12.39
1/5/2023 6:30:00 AM 4.68 40.424 0.087 7.07 6.32 12.39
1/5/2023 6:45:00 AM 4.65 40.37 0.087 7.13 6.17 12.42
1/5/2023 7:00:00 AM 4.62 40.316 0.087 7.1 6.32 12.42
1/5/2023 7:15:00 AM 4.58 40.244 0.087 7.12 5.86 12.43
1/5/2023 7:30:00 AM 4.53 40.154 0.087 7.12 6.05 12.45
1/5/2023 7:45:00 AM 4.53 40.154 0.087 7.08 6.08 12.42
1/5/2023 8:00:00 AM 4.46 40.028 0.087 7.07 5.97 12.47
1/5/2023 8:15:00 AM 4.44 39.992 0.087 7.13 5.81 12.51
1/5/2023 8:30:00 AM 4.44 39.992 0.087 7.11 5.91 12.49
1/5/2023 8:45:00 AM 4.43 39.974 0.087 7.1 6.15 12.52
1/5/2023 9:00:00 AM 4.45 40.01 0.087 7.11 6.03 12.54
1/5/2023 9:15:00 AM 4.46 40.028 0.086 7.11 5.98 12.54
1/5/2023 9:30:00 AM 4.48 40.064 0.087 7.12 5.78 12.55
1/5/2023 9:45:00 AM 4.54 40.172 0.086 7.05 5.88 12.53
1/5/2023 10:00:00 AM 4.62 40.316 0.086 7.13 6.26 12.52
1/5/2023 10:15:00 AM 4.67 40.406 0.087 7.14 5.86 12.5
1/5/2023 10:30:00 AM 4.71 40.478 0.087 7.14 5.92 12.48
1/5/2023 10:45:00 AM 4.74 40.532 0.086 7.13 5.95 12.47
1/5/2023 11:00:00 AM 4.79 40.622 0.087 7.09 5.94 12.46
1/5/2023 11:15:00 AM 4.84 40.712 0.087 7.15 6.52 12.44
1/5/2023 11:30:00 AM 4.88 40.784 0.087 7.13 6.13 12.43
1/5/2023 11:45:00 AM 4.93 40.874 0.087 7.09 5.84 12.39
1/5/2023 12:00:00 PM 4.96 40.928 0.087 7.13 5.89 12.41
1/5/2023 12:15:00 PM 5.01 41.018 0.087 7.14 5.97 12.38
1/5/2023 12:30:00 PM 5.06 41.108 0.087 7.1 5.79 12.36
1/5/2023 12:45:00 PM 5.11 41.198 0.087 7.15 6.11 12.34
1/5/2023 1:00:00 PM 5.16 41.288 0.087 7.17 5.82 12.33
1/5/2023 1:15:00 PM 5.2 41.36 0.087 7.17 5.69 12.3
1/5/2023 1:30:00 PM 5.29 41.522 0.087 7.14 5.83 12.24
1/5/2023 1:45:00 PM 5.31 41.558 0.087 7.17 5.84 12.26
1/5/2023 2:00:00 PM 5.36 41.648 0.087 7.17 5.73 12.23
1/5/2023 2:15:00 PM 5.38 41.684 0.087 7.16 6.34 12.22
1/5/2023 2:30:00 PM 5.4 41.72 0.087 7.17 5.95 12.2
1/5/2023 2:45:00 PM 5.45 41.81 0.087 7.14 5.95 12.16
1/5/2023 3:00:00 PM 5.46 41.828 0.087 7.12 6.33 12.16
1/5/2023 3:15:00 PM 5.48 41.864 0.087 7.12 5.95 12.16
1/5/2023 3:30:00 PM 5.46 41.828 0.087 7.14 6.06 12.17
1/5/2023 3:45:00 PM 5.46 41.828 0.087 7.13 5.86 12.14
1/5/2023 4:00:00 PM 5.42 41.756 0.088 7.16 5.76 12.16
1/5/2023 4:15:00 PM 5.39 41.702 0.087 7.16 6.13 12.17
1/5/2023 4:30:00 PM 5.38 41.684 0.088 7.12 5.93 12.17
1/5/2023 4:45:00 PM 5.3 41.54 0.087 7.13 5.71 12.19
1/5/2023 5:00:00 PM 5.27 41.486 0.088 7.08 6.29 12.17
1/5/2023 5:15:00 PM 5.22 41.396 0.087 7.15 5.72 12.21
1/5/2023 5:30:00 PM 5.21 41.378 0.088 7.06 5.87 12.17
1/5/2023 5:45:00 PM 5.18 41.324 0.088 7.11 6.25 12.2
1/5/2023 6:00:00 PM 5.13 41.234 0.088 7.12 5.93 12.2
1/5/2023 6:15:00 PM 5.08 41.144 0.088 7.14 5.66 12.24
1/5/2023 6:30:00 PM 5.06 41.108 0.088 7.13 5.81 12.23
1/5/2023 6:45:00 PM 5.02 41.036 0.088 7.11 5.71 12.25
1/5/2023 7:00:00 PM 4.98 40.964 0.088 7.12 5.93 12.25
1/5/2023 7:15:00 PM 4.94 40.892 0.088 7.08 5.74 12.26
1/5/2023 7:30:00 PM 4.9 40.82 0.088 7.12 5.85 12.3
1/5/2023 7:45:00 PM 4.86 40.748 0.088 7.09 5.93 12.31
1/5/2023 8:00:00 PM 4.81 40.658 0.088 7.13 6.04 12.34
1/5/2023 8:15:00 PM 4.79 40.622 0.088 7.13 6.08 12.35
1/5/2023 8:30:00 PM 4.77 40.586 0.088 7.11 5.9 12.35
1/5/2023 8:45:00 PM 4.75 40.55 0.088 7.06 6 12.37
1/5/2023 9:00:00 PM 4.72 40.496 0.088 7.1 5.9 12.37
1/5/2023 9:15:00 PM 4.74 40.532 0.088 7.11 5.77 12.35
1/5/2023 9:30:00 PM 4.71 40.478 0.088 7.13 6.37 12.38
1/5/2023 9:45:00 PM 4.71 40.478 0.088 7.1 5.95 12.37
1/5/2023 10:00:00 PM 4.73 40.514 0.089 7.12 5.68 12.35
1/5/2023 10:15:00 PM 4.7 40.46 0.089 7.12 5.59 12.38
1/5/2023 10:30:00 PM 4.7 40.46 0.089 7.11 5.76 12.37
1/5/2023 10:45:00 PM 4.68 40.424 0.089 7.11 6.08 12.38
1/5/2023 11:00:00 PM 4.68 40.424 0.089 7.11 5.68 12.38
1/5/2023 11:15:00 PM 4.65 40.37 0.089 7.12 6.13 12.4
1/5/2023 11:30:00 PM 4.64 40.352 0.089 7.13 5.82 12.41
1/5/2023 11:45:00 PM 4.67 40.406 0.089 7.08 5.96 12.39
1/6/2023 12:00:00 AM 4.64 40.352 0.089 7.12 5.82 12.4
1/6/2023 12:15:00 AM 4.65 40.37 0.089 7.06 5.7 12.39
1/6/2023 12:30:00 AM 4.62 40.316 0.089 7.13 5.69 12.41
1/6/2023 12:45:00 AM 4.62 40.316 0.089 7.12 5.78 12.39
1/6/2023 1:00:00 AM 4.64 40.352 0.089 7.11 5.52 12.37
1/6/2023 1:15:00 AM 4.63 40.334 0.089 7.12 5.57 12.38
1/6/2023 1:30:00 AM 4.62 40.316 0.089 7.12 5.73 12.39
1/6/2023 1:45:00 AM 4.62 40.316 0.089 7.11 5.84 12.37
1/6/2023 2:00:00 AM 4.6 40.28 0.089 7.11 5.73 12.38
1/6/2023 2:15:00 AM 4.55 40.19 0.089 7.11 5.57 12.42
1/6/2023 2:30:00 AM 4.55 40.19 0.089 7.11 5.43 12.39
1/6/2023 2:45:00 AM 4.52 40.136 0.09 7.11 5.82 12.41
1/6/2023 3:00:00 AM 4.5 40.1 0.089 7.05 6.16 12.43
1/6/2023 3:15:00 AM 4.49 40.082 0.089 7.06 5.54 12.45
1/6/2023 3:30:00 AM 4.47 40.046 0.089 7.12 5.58 12.45
1/6/2023 3:45:00 AM 4.45 40.01 0.089 7.07 5.69 12.46
1/6/2023 4:00:00 AM 4.46 40.028 0.089 7.12 5.68 12.45
1/6/2023 4:15:00 AM 4.43 39.974 0.089 7.11 5.63 12.46
1/6/2023 4:30:00 AM 4.43 39.974 0.089 7.11 5.68 12.45
1/6/2023 4:45:00 AM 4.43 39.974 0.089 7.1 5.93 12.44
1/6/2023 5:00:00 AM 4.42 39.956 0.089 7.11 5.65 12.44
1/6/2023 5:15:00 AM 4.4 39.92 0.089 7.09 5.86 12.46
1/6/2023 5:30:00 AM 4.38 39.884 0.09 7.1 5.73 12.44
1/6/2023 5:45:00 AM 4.37 39.866 0.089 7.08 6.05 12.47
1/6/2023 6:00:00 AM 4.35 39.83 0.089 7.1 5.5 12.47
1/6/2023 6:15:00 AM 4.32 39.776 0.089 7.07 5.58 12.48
1/6/2023 6:30:00 AM 4.31 39.758 0.089 7.1 5.7 12.49
1/6/2023 6:45:00 AM 4.3 39.74 0.089 7.11 5.71 12.49
1/6/2023 7:00:00 AM 4.3 39.74 0.089 7.11 5.53 12.5
1/6/2023 7:15:00 AM 4.33 39.794 0.089 7.1 5.53 12.47
1/6/2023 7:30:00 AM 4.27 39.686 0.089 7.1 5.56 12.5
1/6/2023 7:45:00 AM 4.3 39.74 0.089 7.09 5.48 12.52
1/6/2023 8:00:00 AM 4.3 39.74 0.089 7.11 5.7 12.53
1/6/2023 8:15:00 AM 4.32 39.776 0.089 7.09 5.51 12.5
1/6/2023 8:30:00 AM 4.31 39.758 0.089 7.1 5.71 12.54
1/6/2023 8:45:00 AM 4.33 39.794 0.089 7.12 6.17 12.55
1/6/2023 9:00:00 AM 4.37 39.866 0.09 7.1 5.35 12.52
1/6/2023 9:15:00 AM 4.4 39.92 0.089 7.12 5.53 12.53
1/6/2023 9:30:00 AM 4.44 39.992 0.089 7.13 6.1 12.55
1/6/2023 9:45:00 AM 4.45 40.01 0.089 7.14 5.92 12.55
1/6/2023 10:00:00 AM 4.5 40.1 0.089 7.14 5.54 12.53
1/6/2023 10:15:00 AM 4.52 40.136 0.089 7.14 5.83 12.53
1/6/2023 10:30:00 AM 4.55 40.19 0.089 7.13 5.92 12.49
1/6/2023 10:45:00 AM 4.58 40.244 0.089 7.13 5.62 12.48
1/6/2023 11:00:00 AM 4.6 40.28 0.089 7.15 5.78 12.49
1/6/2023 11:15:00 AM 4.64 40.352 0.089 7.1 5.73 12.5
1/6/2023 11:30:00 AM 4.69 40.442 0.089 7.16 5.74 12.47
1/6/2023 11:45:00 AM 4.73 40.514 0.089 7.16 5.46 12.48
1/6/2023 12:00:00 PM 4.8 40.64 0.089 7.16 6.03 12.45
1/6/2023 12:15:00 PM 4.85 40.73 0.088 7.18 5.83 12.46
1/6/2023 12:30:00 PM 4.9 40.82 0.088 7.18 5.55 12.43
1/6/2023 12:45:00 PM 4.95 40.91 0.088 7.18 5.6 12.41
1/6/2023 1:00:00 PM 5 41 0.088 7.19 5.72 12.4
1/6/2023 1:15:00 PM 5.01 41.018 0.088 7.17 5.76 12.36
1/6/2023 1:30:00 PM 5.02 41.036 0.088 7.17 5.75 12.32
1/6/2023 1:45:00 PM 5.03 41.054 0.088 7.18 6.2 12.38
1/6/2023 2:00:00 PM 5.05 41.09 0.088 7.16 5.53 12.36
1/6/2023 2:15:00 PM 5.04 41.072 0.088 7.18 5.59 12.35
1/6/2023 2:30:00 PM 5.05 41.09 0.088 7.17 5.78 12.34
1/6/2023 2:45:00 PM 5.03 41.054 0.088 7.18 5.69 12.36
1/6/2023 3:00:00 PM 5.02 41.036 0.088 7.15 5.69 12.37
1/6/2023 3:15:00 PM 5.01 41.018 0.088 7.17 5.67 12.37
1/6/2023 3:30:00 PM 4.99 40.982 0.088 7.18 5.78 12.38
1/6/2023 3:45:00 PM 4.93 40.874 0.088 7.18 6.01 12.36
1/6/2023 4:00:00 PM 4.91 40.838 0.088 7.15 5.71 12.35
1/6/2023 4:15:00 PM 4.82 40.676 0.088 7.17 6.03 12.4
1/6/2023 4:30:00 PM 4.78 40.604 0.088 7.16 5.89 12.4
1/6/2023 4:45:00 PM 4.74 40.532 0.088 7.15 6.02 12.4
1/6/2023 5:00:00 PM 4.69 40.442 0.088 7.16 5.87 12.43
1/6/2023 5:15:00 PM 4.67 40.406 0.088 7.15 5.93 12.42
1/6/2023 5:30:00 PM 4.66 40.388 0.088 7.13 5.71 12.42
1/6/2023 5:45:00 PM 4.63 40.334 0.088 7.1 6.12 12.43
1/6/2023 6:00:00 PM 4.61 40.298 0.088 7.11 5.86 12.46
1/6/2023 6:15:00 PM 4.6 40.28 0.088 7.15 6.12 12.46
1/6/2023 6:30:00 PM 4.57 40.226 0.089 7.15 5.88 12.45
1/6/2023 6:45:00 PM 4.55 40.19 0.088 7.16 6.1 12.47
1/6/2023 7:00:00 PM 4.53 40.154 0.088 7.15 6.11 12.49
1/6/2023 7:15:00 PM 4.51 40.118 0.089 7.12 5.88 12.49
1/6/2023 7:30:00 PM 4.51 40.118 0.089 7.14 5.78 12.48
1/6/2023 7:45:00 PM 4.49 40.082 0.088 7.15 5.72 12.5
1/6/2023 8:00:00 PM 4.48 40.064 0.089 7.1 5.61 12.48
1/6/2023 8:15:00 PM 4.47 40.046 0.089 7.14 5.95 12.5
1/6/2023 8:30:00 PM 4.44 39.992 0.089 7.14 5.8 12.51
1/6/2023 8:45:00 PM 4.43 39.974 0.089 7.1 5.85 12.53
1/6/2023 9:00:00 PM 4.41 39.938 0.089 7.14 5.51 12.54
1/6/2023 9:15:00 PM 4.41 39.938 0.089 7.15 5.76 12.53
1/6/2023 9:30:00 PM 4.37 39.866 0.089 7.15 5.75 12.56
1/6/2023 9:45:00 PM 4.37 39.866 0.089 7.13 5.86 12.54
1/6/2023 10:00:00 PM 4.36 39.848 0.089 7.11 5.72 12.55
1/6/2023 10:15:00 PM 4.35 39.83 0.089 7.1 5.71 12.55
1/6/2023 10:30:00 PM 4.35 39.83 0.089 7.14 5.82 12.54
1/6/2023 10:45:00 PM 4.33 39.794 0.089 7.11 5.66 12.57
1/6/2023 11:00:00 PM 4.32 39.776 0.089 7.15 5.82 12.57
1/6/2023 11:15:00 PM 4.32 39.776 0.089 7.15 5.54 12.57
1/6/2023 11:30:00 PM 4.3 39.74 0.089 7.14 5.7 12.56
1/6/2023 11:45:00 PM 4.31 39.758 0.089 7.13 6.06 12.53
1/7/2023 12:00:00 AM 4.29 39.722 0.089 7.09 5.83 12.56
1/7/2023 12:15:00 AM 4.27 39.686 0.089 7.14 5.9 12.58
1/7/2023 12:30:00 AM 4.25 39.65 0.089 7.15 5.87 12.6
1/7/2023 12:45:00 AM 4.28 39.704 0.089 7.13 5.77 12.55
1/7/2023 1:00:00 AM 4.24 39.632 0.089 7.13 6.02 12.58
1/7/2023 1:15:00 AM 4.25 39.65 0.089 7.11 5.7 12.58
1/7/2023 1:30:00 AM 4.23 39.614 0.089 7.12 5.66 12.59
1/7/2023 1:45:00 AM 4.23 39.614 0.089 7.12 5.9 12.58
1/7/2023 2:00:00 AM 4.2 39.56 0.09 7.14 5.58 12.61
1/7/2023 2:15:00 AM 4.21 39.578 0.089 7.14 5.58 12.6
1/7/2023 2:30:00 AM 4.2 39.56 0.089 7.14 5.51 12.61
1/7/2023 2:45:00 AM 4.2 39.56 0.09 7.14 5.63 12.58
1/7/2023 3:00:00 AM 4.21 39.578 0.089 7.11 5.51 12.57
1/7/2023 3:15:00 AM 4.19 39.542 0.089 7.13 5.54 12.59
1/7/2023 3:30:00 AM 4.19 39.542 0.089 7.14 5.67 12.59
1/7/2023 3:45:00 AM 4.19 39.542 0.089 7.11 5.48 12.59
1/7/2023 4:00:00 AM 4.16 39.488 0.089 7.13 5.64 12.6
1/7/2023 4:15:00 AM 4.15 39.47 0.089 7.14 5.56 12.6
1/7/2023 4:30:00 AM 4.16 39.488 0.089 7.13 5.86 12.6
1/7/2023 4:45:00 AM 4.17 39.506 0.089 7.13 5.63 12.59
1/7/2023 5:00:00 AM 4.14 39.452 0.089 7.14 5.9 12.61
1/7/2023 5:15:00 AM 4.15 39.47 0.089 7.13 5.78 12.58
1/7/2023 5:30:00 AM 4.14 39.452 0.089 7.12 5.57 12.61
1/7/2023 5:45:00 AM 4.13 39.434 0.089 7.13 5.7 12.6
1/7/2023 6:00:00 AM 4.11 39.398 0.089 7.13 5.86 12.62
1/7/2023 6:15:00 AM 4.14 39.452 0.089 7.12 5.56 12.61
1/7/2023 6:30:00 AM 4.12 39.416 0.089 7.12 5.62 12.62
1/7/2023 6:45:00 AM 4.08 39.344 0.089 7.14 5.68 12.65
1/7/2023 7:00:00 AM 4.12 39.416 0.089 7.12 5.55 12.6
1/7/2023 7:15:00 AM 4.1 39.38 0.089 7.14 5.75 12.62
1/7/2023 7:30:00 AM 4.13 39.434 0.089 7.13 5.99 12.62
1/7/2023 7:45:00 AM 4.11 39.398 0.089 7.11 5.51 12.62
1/7/2023 8:00:00 AM 4.12 39.416 0.089 7.14 5.7 12.63
1/7/2023 8:15:00 AM 4.12 39.416 0.089 7.14 5.75 12.65
1/7/2023 8:30:00 AM 4.13 39.434 0.089 7.14 5.76 12.64
1/7/2023 8:45:00 AM 4.15 39.47 0.089 7.14 5.48 12.66
1/7/2023 9:00:00 AM 4.17 39.506 0.089 7.11 5.73 12.64
1/7/2023 9:15:00 AM 4.22 39.596 0.089 7.12 5.45 12.64
1/7/2023 9:30:00 AM 4.24 39.632 0.089 7.13 5.71 12.66
1/7/2023 9:45:00 AM 4.27 39.686 0.089 7.15 5.66 12.65
1/7/2023 10:00:00 AM 4.33 39.794 0.089 7.17 5.74 12.66
1/7/2023 10:15:00 AM 4.36 39.848 0.089 7.15 5.62 12.65
1/7/2023 10:30:00 AM 4.46 40.028 0.089 7.17 5.7 12.62
1/7/2023 10:45:00 AM 4.5 40.1 0.089 7.14 5.59 12.61
1/7/2023 11:00:00 AM 4.56 40.208 0.089 7.17 5.73 12.57
1/7/2023 11:15:00 AM 4.58 40.244 0.09 7.17 5.34 12.55
1/7/2023 11:30:00 AM 4.6 40.28 0.089 7.17 5.53 12.55
1/7/2023 11:45:00 AM 4.62 40.316 0.089 7.15 5.56 12.56
1/7/2023 12:00:00 PM 4.67 40.406 0.09 7.17 5.67 12.53
1/7/2023 12:15:00 PM 4.68 40.424 0.089 7.16 5.94 12.53
1/7/2023 12:30:00 PM 4.7 40.46 0.089 7.18 5.7 12.54
1/7/2023 12:45:00 PM 4.72 40.496 0.089 7.18 5.54 12.51
1/7/2023 1:00:00 PM 4.79 40.622 0.089 7.15 5.57 12.49
1/7/2023 1:15:00 PM 4.82 40.676 0.089 7.18 5.57 12.49
1/7/2023 1:30:00 PM 4.85 40.73 0.089 7.17 5.6 12.5
1/7/2023 1:45:00 PM 4.85 40.73 0.089 7.19 5.71 12.47
1/7/2023 2:00:00 PM 4.86 40.748 0.089 7.19 5.48 12.45
1/7/2023 2:15:00 PM 4.89 40.802 0.089 7.19 5.23 12.45
1/7/2023 2:30:00 PM 4.89 40.802 0.089 7.19 5.48 12.46
1/7/2023 2:45:00 PM 4.91 40.838 0.089 7.2 5.52 12.46
1/7/2023 3:00:00 PM 4.92 40.856 0.089 7.17 5.7 12.43
1/7/2023 3:15:00 PM 4.92 40.856 0.089 7.2 5.43 12.43
1/7/2023 3:30:00 PM 4.95 40.91 0.089 7.16 5.86 12.42
1/7/2023 3:45:00 PM 4.93 40.874 0.089 7.18 5.61 12.4
1/7/2023 4:00:00 PM 4.91 40.838 0.089 7.17 5.46 12.39
1/7/2023 4:15:00 PM 4.87 40.766 0.089 7.19 5.58 12.4
1/7/2023 4:30:00 PM 4.86 40.748 0.089 7.17 5.56 12.4
1/7/2023 4:45:00 PM 4.82 40.676 0.09 7.17 5.72 12.42
1/7/2023 5:00:00 PM 4.79 40.622 0.089 7.17 5.58 12.41
1/7/2023 5:15:00 PM 4.77 40.586 0.089 7.13 5.67 12.41
1/7/2023 5:30:00 PM 4.74 40.532 0.089 7.15 5.58 12.43
1/7/2023 5:45:00 PM 4.73 40.514 0.09 7.16 5.4 12.44
1/7/2023 6:00:00 PM 4.72 40.496 0.09 7.12 5.65 12.43
1/7/2023 6:15:00 PM 4.7 40.46 0.09 7.16 5.81 12.44
1/7/2023 6:30:00 PM 4.66 40.388 0.09 7.13 6.3 12.46
1/7/2023 6:45:00 PM 4.67 40.406 0.09 7.14 5.56 12.47
1/7/2023 7:00:00 PM 4.66 40.388 0.09 7.16 5.47 12.47
1/7/2023 7:15:00 PM 4.65 40.37 0.09 7.16 5.58 12.47
1/7/2023 7:30:00 PM 4.63 40.334 0.09 7.15 5.39 12.46
1/7/2023 7:45:00 PM 4.61 40.298 0.09 7.17 5.57 12.49
1/7/2023 8:00:00 PM 4.6 40.28 0.09 7.17 5.5 12.5
1/7/2023 8:15:00 PM 4.58 40.244 0.09 7.16 5.39 12.49
1/7/2023 8:30:00 PM 4.55 40.19 0.09 7.16 5.7 12.51
1/7/2023 8:45:00 PM 4.52 40.136 0.09 7.16 5.47 12.53
1/7/2023 9:00:00 PM 4.51 40.118 0.09 7.16 5.52 12.54
1/7/2023 9:15:00 PM 4.49 40.082 0.09 7.16 5.44 12.53
1/7/2023 9:30:00 PM 4.46 40.028 0.09 7.16 5.43 12.54
1/7/2023 9:45:00 PM 4.45 40.01 0.09 7.13 5.46 12.56
1/7/2023 10:00:00 PM 4.43 39.974 0.09 7.15 5.33 12.55
1/7/2023 10:15:00 PM 4.38 39.884 0.09 7.16 5.41 12.58
1/7/2023 10:30:00 PM 4.37 39.866 0.09 7.15 5.29 12.57
1/7/2023 10:45:00 PM 4.38 39.884 0.091 7.15 5.36 12.57
1/7/2023 11:00:00 PM 4.33 39.794 0.09 7.16 5.37 12.6
1/7/2023 11:15:00 PM 4.31 39.758 0.09 7.12 5.46 12.6
1/7/2023 11:30:00 PM 4.31 39.758 0.091 7.15 5.22 12.6
1/7/2023 11:45:00 PM 4.29 39.722 0.091 7.16 5.56 12.62
1/8/2023 12:00:00 AM 4.25 39.65 0.091 7.13 5.45 12.63
1/8/2023 12:15:00 AM 4.24 39.632 0.091 7.16 5.42 12.64
1/8/2023 12:30:00 AM 4.23 39.614 0.091 7.16 5.32 12.64
1/8/2023 12:45:00 AM 4.21 39.578 0.091 7.12 5.4 12.62
1/8/2023 1:00:00 AM 4.18 39.524 0.091 7.15 5.36 12.65
1/8/2023 1:15:00 AM 4.16 39.488 0.091 7.15 5.22 12.66
1/8/2023 1:30:00 AM 4.14 39.452 0.091 7.14 5.26 12.66
1/8/2023 1:45:00 AM 4.14 39.452 0.091 7.16 5.26 12.67
1/8/2023 2:00:00 AM 4.1 39.38 0.091 7.16 5.68 12.67
1/8/2023 2:15:00 AM 4.09 39.362 0.091 7.11 5.09 12.67
1/8/2023 2:30:00 AM 4.09 39.362 0.091 7.15 5.29 12.68
1/8/2023 2:45:00 AM 4.05 39.29 0.091 7.16 5.51 12.7
1/8/2023 3:00:00 AM 4.03 39.254 0.091 7.11 5.38 12.71
1/8/2023 3:15:00 AM 4.02 39.236 0.091 7.12 5.28 12.71
1/8/2023 3:30:00 AM 4.02 39.236 0.091 7.12 5.37 12.73
1/8/2023 3:45:00 AM 3.98 39.164 0.091 7.15 5.37 12.72
1/8/2023 4:00:00 AM 3.96 39.128 0.091 7.15 5.36 12.73
1/8/2023 4:15:00 AM 3.93 39.074 0.09 7.15 5.51 12.75
1/8/2023 4:30:00 AM 3.9 39.02 0.09 7.13 5.3 12.76
1/8/2023 4:45:00 AM 3.9 39.02 0.09 7.15 5.13 12.75
1/8/2023 5:00:00 AM 3.88 38.984 0.09 7.11 5.3 12.77
1/8/2023 5:15:00 AM 3.85 38.93 0.09 7.15 5.06 12.78
1/8/2023 5:30:00 AM 3.84 38.912 0.09 7.15 5.19 12.78
1/8/2023 5:45:00 AM 3.81 38.858 0.09 7.14 5.35 12.78
1/8/2023 6:00:00 AM 3.8 38.84 0.09 7.14 5.34 12.79
1/8/2023 6:15:00 AM 3.78 38.804 0.09 7.14 5.39 12.79
1/8/2023 6:30:00 AM 3.75 38.75 0.09 7.14 5.15 12.81
1/8/2023 6:45:00 AM 3.7 38.66 0.09 7.14 5.15 12.82
1/8/2023 7:00:00 AM 3.68 38.624 0.09 7.14 5.22 12.83
1/8/2023 7:15:00 AM 3.62 38.516 0.09 7.15 5.34 12.85
1/8/2023 7:30:00 AM 3.63 38.534 0.091 7.14 4.92 12.83
1/8/2023 7:45:00 AM 3.62 38.516 0.091 7.14 5.2 12.86
1/8/2023 8:00:00 AM 3.59 38.462 0.091 7.15 5.22 12.88
1/8/2023 8:15:00 AM 3.57 38.426 0.091 7.13 5.24 12.93
1/8/2023 8:30:00 AM 3.58 38.444 0.091 7.13 5.08 12.91
1/8/2023 8:45:00 AM 3.56 38.408 0.091 7.14 5.15 12.94
1/8/2023 9:00:00 AM 3.54 38.372 0.09 7.16 5.66 12.96
1/8/2023 9:15:00 AM 3.57 38.426 0.09 7.17 5.34 12.97
1/8/2023 9:30:00 AM 3.56 38.408 0.09 7.15 5.26 12.96
1/8/2023 9:45:00 AM 3.59 38.462 0.09 7.17 5.13 12.98
1/8/2023 10:00:00 AM 3.64 38.552 0.09 7.17 5.22 12.95
1/8/2023 10:15:00 AM 3.65 38.57 0.09 7.17 5.3 12.95
1/8/2023 10:30:00 AM 3.66 38.588 0.09 7.12 5.25 12.95
1/8/2023 10:45:00 AM 3.78 38.804 0.09 7.17 5.74 12.93
1/8/2023 11:00:00 AM 3.79 38.822 0.09 7.15 5.3 12.91
1/8/2023 11:15:00 AM 3.79 38.822 0.09 7.16 5.22 12.9
1/8/2023 11:30:00 AM 3.77 38.786 0.09 7.16 5.61 12.9
1/8/2023 11:45:00 AM 3.76 38.768 0.09 7.18 5.25 12.92
1/8/2023 12:00:00 PM 3.83 38.894 0.09 7.17 5.44 12.87
1/8/2023 12:15:00 PM 3.83 38.894 0.09 7.14 5.13 12.86
1/8/2023 12:30:00 PM 3.84 38.912 0.09 7.17 5.09 12.86
1/8/2023 12:45:00 PM 3.87 38.966 0.09 7.15 5.37 12.83
1/8/2023 1:00:00 PM 3.92 39.056 0.09 7.17 5.12 12.81
1/8/2023 1:15:00 PM 3.94 39.092 0.09 7.18 5.33 12.81
1/8/2023 1:30:00 PM 3.95 39.11 0.09 7.18 5.09 12.81
1/8/2023 1:45:00 PM 4 39.2 0.09 7.17 5.22 12.76
1/8/2023 2:00:00 PM 4.01 39.218 0.09 7.17 5.26 12.76
1/8/2023 2:15:00 PM 4.02 39.236 0.09 7.16 5.03 12.73
1/8/2023 2:30:00 PM 4.04 39.272 0.09 7.18 5.16 12.74
1/8/2023 2:45:00 PM 4.06 39.308 0.09 7.13 4.97 12.7
1/8/2023 3:00:00 PM 4.06 39.308 0.089 7.18 5 12.7
1/8/2023 3:15:00 PM 4.08 39.344 0.09 7.18 5.02 12.7
1/8/2023 3:30:00 PM 4.07 39.326 0.09 7.18 5.24 12.68
1/8/2023 3:45:00 PM 4.08 39.344 0.09 7.14 5.08 12.67
1/8/2023 4:00:00 PM 4.07 39.326 0.09 7.17 5 12.67
1/8/2023 4:15:00 PM 4.03 39.254 0.09 7.17 5.31 12.68
1/8/2023 4:30:00 PM 4 39.2 0.09 7.17 5.45 12.67
1/8/2023 4:45:00 PM 3.97 39.146 0.09 7.17 5.4 12.69
1/8/2023 5:00:00 PM 3.93 39.074 0.09 7.17 5.22 12.68
1/8/2023 5:15:00 PM 3.87 38.966 0.09 7.17 5.22 12.7
1/8/2023 5:30:00 PM 3.84 38.912 0.09 7.16 5.07 12.7
1/8/2023 5:45:00 PM 3.82 38.876 0.09 7.16 5.01 12.71
1/8/2023 6:00:00 PM 3.79 38.822 0.09 7.11 4.97 12.71
1/8/2023 6:15:00 PM 3.76 38.768 0.09 7.12 5.11 12.71
1/8/2023 6:30:00 PM 3.76 38.768 0.09 7.15 5.18 12.73
1/8/2023 6:45:00 PM 3.74 38.732 0.09 7.15 5.14 12.73
1/8/2023 7:00:00 PM 3.68 38.624 0.09 7.16 5.76 12.72
1/8/2023 7:15:00 PM 3.68 38.624 0.09 7.14 5.15 12.74
1/8/2023 7:30:00 PM 3.64 38.552 0.09 7.16 5.31 12.76
1/8/2023 7:45:00 PM 3.62 38.516 0.09 7.12 5 12.76
1/8/2023 8:00:00 PM 3.58 38.444 0.09 7.15 5.16 12.77
1/8/2023 8:15:00 PM 3.54 38.372 0.091 7.16 5.18 12.79
1/8/2023 8:30:00 PM 3.53 38.354 0.091 7.14 5.13 12.79
1/8/2023 8:45:00 PM 3.49 38.282 0.09 7.11 5.18 12.78
1/8/2023 9:00:00 PM 3.45 38.21 0.09 7.14 5.37 12.82
1/8/2023 9:15:00 PM 3.39 38.102 0.09 7.16 4.97 12.83
1/8/2023 9:30:00 PM 3.36 38.048 0.09 7.14 5.15 12.83
1/8/2023 9:45:00 PM 3.33 37.994 0.091 7.15 5.22 12.85
1/8/2023 10:00:00 PM 3.31 37.958 0.09 7.15 5.04 12.86
1/8/2023 10:15:00 PM 3.29 37.922 0.091 7.14 5.09 12.86
1/8/2023 10:30:00 PM 3.27 37.886 0.091 7.14 5.1 12.87
1/8/2023 10:45:00 PM 3.24 37.832 0.091 7.14 5.01 12.87
1/8/2023 11:00:00 PM 3.21 37.778 0.091 7.13 5 12.88
1/8/2023 11:15:00 PM 3.19 37.742 0.091 7.14 4.81 12.9
1/8/2023 11:30:00 PM 3.17 37.706 0.091 7.14 5.03 12.91
1/8/2023 11:45:00 PM 3.14 37.652 0.091 7.14 5.1 12.92
1/9/2023 12:00:00 AM 3.16 37.688 0.091 7.13 5.4 12.9
1/9/2023 12:15:00 AM 3.18 37.724 0.091 7.13 5.03 12.9
1/9/2023 12:30:00 AM 3.17 37.706 0.091 7.13 5.17 12.88
1/9/2023 12:45:00 AM 3.18 37.724 0.091 7.12 5.03 12.88
1/9/2023 1:00:00 AM 3.16 37.688 0.091 7.14 4.89 12.91
1/9/2023 1:15:00 AM 3.18 37.724 0.091 7.13 4.83 12.89
1/9/2023 1:30:00 AM 3.18 37.724 0.091 7.11 5.06 12.9
1/9/2023 1:45:00 AM 3.17 37.706 0.091 7.1 4.92 12.91
1/9/2023 2:00:00 AM 3.2 37.76 0.091 7.13 4.98 12.88
1/9/2023 2:15:00 AM 3.22 37.796 0.091 7.1 5.01 12.87
1/9/2023 2:30:00 AM 3.21 37.778 0.091 7.14 4.99 12.88
1/9/2023 2:45:00 AM 3.2 37.76 0.091 7.14 4.98 12.89
1/9/2023 3:00:00 AM 3.21 37.778 0.091 7.15 4.99 12.88
1/9/2023 3:15:00 AM 3.25 37.85 0.091 7.13 4.98 12.85
1/9/2023 3:30:00 AM 3.25 37.85 0.091 7.13 4.94 12.85
1/9/2023 3:45:00 AM 3.25 37.85 0.091 7.13 5.23 12.84
1/9/2023 4:00:00 AM 3.27 37.886 0.091 7.1 5.15 12.85
1/9/2023 4:15:00 AM 3.29 37.922 0.091 7.12 5.09 12.83
1/9/2023 4:30:00 AM 3.29 37.922 0.091 7.12 5.03 12.85
1/9/2023 4:45:00 AM 3.29 37.922 0.091 7.13 5.1 12.81
1/9/2023 5:00:00 AM 3.3 37.94 0.092 7.1 5.16 12.82
1/9/2023 5:15:00 AM 3.26 37.868 0.091 7.14 5.22 12.83
1/9/2023 5:30:00 AM 3.25 37.85 0.092 7.12 5.06 12.83
1/9/2023 5:45:00 AM 3.23 37.814 0.092 7.13 5.01 12.82
1/9/2023 6:00:00 AM 3.21 37.778 0.092 7.14 5.07 12.83
1/9/2023 6:15:00 AM 3.12 37.616 0.091 7.15 5.04 12.88
1/9/2023 6:30:00 AM 3.12 37.616 0.091 7.14 4.85 12.87
1/9/2023 6:45:00 AM 3.1 37.58 0.092 7.11 5.02 12.88
1/9/2023 7:00:00 AM 3.05 37.49 0.091 7.11 4.93 12.88
1/9/2023 7:15:00 AM 3.01 37.418 0.091 7.14 5.11 12.9
1/9/2023 7:30:00 AM 2.98 37.364 0.091 7.14 5.24 12.91
1/9/2023 7:45:00 AM 3.01 37.418 0.092 7.12 4.95 12.92
1/9/2023 8:00:00 AM 3.01 37.418 0.091 7.14 5.31 12.9
1/9/2023 8:15:00 AM 3.02 37.436 0.092 7.14 4.9 12.93
1/9/2023 8:30:00 AM 3.06 37.508 0.091 7.14 4.84 12.93
1/9/2023 8:45:00 AM 3.09 37.562 0.091 7.14 5.08 12.96
1/9/2023 9:00:00 AM 3.15 37.67 0.091 7.15 4.97 12.93
1/9/2023 9:15:00 AM 3.17 37.706 0.091 7.16 5.33 12.93
1/9/2023 9:30:00 AM 3.24 37.832 0.091 7.14 4.84 12.93
1/9/2023 9:45:00 AM 3.3 37.94 0.091 7.15 5.03 12.91
1/9/2023 10:00:00 AM 3.34 38.012 0.091 7.16 5.06 12.92
1/9/2023 10:15:00 AM 3.37 38.066 0.091 7.16 4.96 12.89
1/9/2023 10:30:00 AM 3.4 38.12 0.091 7.14 4.9 12.89
1/9/2023 10:45:00 AM 3.47 38.246 0.091 7.17 5.05 12.87
1/9/2023 11:00:00 AM 3.53 38.354 0.091 7.16 5 12.84
1/9/2023 11:15:00 AM 3.57 38.426 0.091 7.18 5.13 12.84
1/9/2023 11:30:00 AM 3.64 38.552 0.091 7.19 4.84 12.82
1/9/2023 11:45:00 AM 3.66 38.588 0.091 7.2 5.02 12.81
1/9/2023 12:00:00 PM 3.7 38.66 0.091 7.19 4.93 12.81
1/9/2023 12:15:00 PM 3.77 38.786 0.091 7.2 4.77 12.79
1/9/2023 12:30:00 PM 3.77 38.786 0.091 7.17 4.74 12.77
1/9/2023 12:45:00 PM 3.82 38.876 0.09 7.18 5.16 12.71
1/9/2023 1:00:00 PM 3.82 38.876 0.091 7.2 5.05 12.74
1/9/2023 1:15:00 PM 3.9 39.02 0.091 7.19 4.89 12.69
1/9/2023 1:30:00 PM 3.96 39.128 0.09 7.19 4.89 12.65
1/9/2023 1:45:00 PM 4.01 39.218 0.091 7.18 4.87 12.64
1/9/2023 2:00:00 PM 4.03 39.254 0.09 7.16 5.14 12.63
1/9/2023 2:15:00 PM 4.06 39.308 0.09 7.19 4.97 12.6
1/9/2023 2:30:00 PM 4.06 39.308 0.09 7.19 5.06 12.59
1/9/2023 2:45:00 PM 4.1 39.38 0.09 7.19 5 12.58
1/9/2023 3:00:00 PM 4.14 39.452 0.09 7.14 5.09 12.56
1/9/2023 3:15:00 PM 4.14 39.452 0.09 7.18 4.98 12.55
1/9/2023 3:30:00 PM 4.14 39.452 0.09 7.17 5.02 12.56
1/9/2023 3:45:00 PM 4.16 39.488 0.09 7.15 4.99 12.53
1/9/2023 4:00:00 PM 4.11 39.398 0.09 7.18 4.96 12.56
1/9/2023 4:15:00 PM 4.07 39.326 0.09 7.19 5.09 12.56
1/9/2023 4:30:00 PM 4.02 39.236 0.09 7.16 5.11 12.59
1/9/2023 4:45:00 PM 3.99 39.182 0.09 7.17 5.04 12.58
1/9/2023 5:00:00 PM 3.92 39.056 0.09 7.16 4.99 12.6
1/9/2023 5:15:00 PM 3.86 38.948 0.09 7.11 5.03 12.6
1/9/2023 5:30:00 PM 3.82 38.876 0.09 7.16 5.29 12.59
1/9/2023 5:45:00 PM 3.75 38.75 0.09 7.17 5.08 12.62
1/9/2023 6:00:00 PM 3.73 38.714 0.09 7.14 5.07 12.61
1/9/2023 6:15:00 PM 3.69 38.642 0.09 7.16 5.22 12.64
1/9/2023 6:30:00 PM 3.67 38.606 0.09 7.15 5.04 12.61
1/9/2023 6:45:00 PM 3.63 38.534 0.091 7.16 5.16 12.67
1/9/2023 7:00:00 PM 3.57 38.426 0.09 7.17 4.9 12.71
1/9/2023 7:15:00 PM 3.57 38.426 0.091 7.15 5.06 12.67
1/9/2023 7:30:00 PM 3.52 38.336 0.091 7.16 5.02 12.71
1/9/2023 7:45:00 PM 3.51 38.318 0.091 7.13 4.98 12.7
1/9/2023 8:00:00 PM 3.48 38.264 0.091 7.13 5.08 12.72
1/9/2023 8:15:00 PM 3.46 38.228 0.091 7.15 5 12.73
1/9/2023 8:30:00 PM 3.45 38.21 0.091 7.13 5.01 12.72
1/9/2023 8:45:00 PM 3.41 38.138 0.091 7.13 4.84 12.76
1/9/2023 9:00:00 PM 3.42 38.156 0.091 7.14 4.92 12.74
1/9/2023 9:15:00 PM 3.37 38.066 0.091 7.12 4.94 12.76
1/9/2023 9:30:00 PM 3.4 38.12 0.091 7.11 5.26 12.75
1/9/2023 9:45:00 PM 3.37 38.066 0.091 7.16 5.04 12.81
1/9/2023 10:00:00 PM 3.38 38.084 0.091 7.12 4.91 12.76
1/9/2023 10:15:00 PM 3.4 38.12 0.091 7.15 4.78 12.79
1/9/2023 10:30:00 PM 3.4 38.12 0.091 7.1 4.92 12.76
1/9/2023 10:45:00 PM 3.44 38.192 0.091 7.14 4.9 12.77
1/9/2023 11:00:00 PM 3.45 38.21 0.091 7.13 4.92 12.75
1/9/2023 11:15:00 PM 3.49 38.282 0.091 7.13 5.07 12.72
1/9/2023 11:30:00 PM 3.46 38.228 0.091 7.15 4.79 12.76
1/9/2023 11:45:00 PM 3.51 38.318 0.091 7.14 4.98 12.72
1/10/2023 12:00:00 AM 3.5 38.3 0.091 7.14 4.89 12.74
1/10/2023 12:15:00 AM 3.54 38.372 0.091 7.12 4.9 12.73
1/10/2023 12:30:00 AM 3.57 38.426 0.091 7.11 4.98 12.71
1/10/2023 12:45:00 AM 3.57 38.426 0.091 7.14 5.13 12.71
1/10/2023 1:00:00 AM 3.61 38.498 0.092 7.14 4.8 12.67
1/10/2023 1:15:00 AM 3.6 38.48 0.092 7.16 5.57 12.71
1/10/2023 1:30:00 AM 3.63 38.534 0.092 7.12 4.87 12.68
1/10/2023 1:45:00 AM 3.65 38.57 0.092 7.14 4.85 12.66
1/10/2023 2:00:00 AM 3.65 38.57 0.091 7.16 5.08 12.68
1/10/2023 2:15:00 AM 3.65 38.57 0.091 7.14 4.99 12.69
1/10/2023 2:30:00 AM 3.65 38.57 0.091 7.16 5.06 12.68
1/10/2023 2:45:00 AM 3.7 38.66 0.092 7.14 4.81 12.64
1/10/2023 3:00:00 AM 3.71 38.678 0.092 7.15 5.02 12.68
1/10/2023 3:15:00 AM 3.71 38.678 0.091 7.12 4.95 12.67
1/10/2023 3:30:00 AM 3.75 38.75 0.092 7.15 4.9 12.66
1/10/2023 3:45:00 AM 3.73 38.714 0.091 7.15 5.16 12.65
1/10/2023 4:00:00 AM 3.72 38.696 0.091 7.14 4.98 12.66
1/10/2023 4:15:00 AM 3.74 38.732 0.091 7.13 5.07 12.66
1/10/2023 4:30:00 AM 3.73 38.714 0.091 7.14 5.01 12.68
1/10/2023 4:45:00 AM 3.73 38.714 0.091 7.13 5.03 12.69
1/10/2023 5:00:00 AM 3.76 38.768 0.091 7.15 4.92 12.66
1/10/2023 5:15:00 AM 3.78 38.804 0.091 7.13 5 12.63
1/10/2023 5:30:00 AM 3.75 38.75 0.091 7.17 4.92 12.67
1/10/2023 5:45:00 AM 3.79 38.822 0.091 7.14 4.95 12.64
1/10/2023 6:00:00 AM 3.81 38.858 0.091 7.14 5.11 12.61
1/10/2023 6:15:00 AM 3.8 38.84 0.091 7.12 4.89 12.65
1/10/2023 6:30:00 AM 3.81 38.858 0.091 7.15 4.96 12.64
1/10/2023 6:45:00 AM 3.82 38.876 0.091 7.16 5.04 12.64
1/10/2023 7:00:00 AM 3.81 38.858 0.091 7.11 4.94 12.63
1/10/2023 7:15:00 AM 3.86 38.948 0.091 7.13 4.88 12.6
1/10/2023 7:30:00 AM 3.83 38.894 0.091 7.13 4.78 12.63
1/10/2023 7:45:00 AM 3.85 38.93 0.091 7.14 5.01 12.61
1/10/2023 8:00:00 AM 3.84 38.912 0.091 7.14 5.01 12.65
1/10/2023 8:15:00 AM 3.87 38.966 0.091 7.12 4.99 12.63
1/10/2023 8:30:00 AM 3.85 38.93 0.091 7.13 4.94 12.65
1/10/2023 8:45:00 AM 3.86 38.948 0.091 7.16 4.82 12.66
1/10/2023 9:00:00 AM 3.85 38.93 0.09 7.17 4.96 12.68
1/10/2023 9:15:00 AM 3.9 39.02 0.091 7.13 4.77 12.65
1/10/2023 9:30:00 AM 3.9 39.02 0.09 7.14 4.97 12.7
1/10/2023 9:45:00 AM 3.95 39.11 0.091 7.15 4.96 12.67
1/10/2023 10:00:00 AM 3.94 39.092 0.09 7.17 5.06 12.65
1/10/2023 10:15:00 AM 3.97 39.146 0.09 7.17 4.93 12.66
1/10/2023 10:30:00 AM 4 39.2 0.09 7.16 5.07 12.67
1/10/2023 10:45:00 AM 4 39.2 0.09 7.16 4.97 12.64
1/10/2023 11:00:00 AM 4.03 39.254 0.09 7.17 4.86 12.65
1/10/2023 11:15:00 AM 4.04 39.272 0.09 7.15 4.89 12.63
1/10/2023 11:30:00 AM 4.05 39.29 0.09 7.16 4.92 12.65
1/10/2023 11:45:00 AM 4.07 39.326 0.091 7.19 4.68 12.64
1/10/2023 12:00:00 PM 4.09 39.362 0.09 7.18 4.88 12.63
1/10/2023 12:15:00 PM 4.12 39.416 0.09 7.14 4.86 12.62
1/10/2023 12:30:00 PM 4.1 39.38 0.09 7.18 4.97 12.63
1/10/2023 12:45:00 PM 4.13 39.434 0.09 7.19 4.86 12.62
1/10/2023 1:00:00 PM 4.15 39.47 0.09 7.17 4.82 12.6
1/10/2023 1:15:00 PM 4.19 39.542 0.09 7.17 5.15 12.55
1/10/2023 1:30:00 PM 4.18 39.524 0.09 7.16 5.1 12.59
1/10/2023 1:45:00 PM 4.2 39.56 0.09 7.18 4.72 12.59
1/10/2023 2:00:00 PM 4.2 39.56 0.09 7.2 4.85 12.61
1/10/2023 2:15:00 PM 4.22 39.596 0.09 7.19 4.76 12.62
1/10/2023 2:30:00 PM 4.23 39.614 0.09 7.19 4.91 12.57
1/10/2023 2:45:00 PM 4.24 39.632 0.09 7.19 4.82 12.57
1/10/2023 3:00:00 PM 4.29 39.722 0.09 7.17 4.76 12.54
1/10/2023 3:15:00 PM 4.27 39.686 0.09 7.17 5.04 12.53
1/10/2023 3:30:00 PM 4.27 39.686 0.09 7.15 4.97 12.51
1/10/2023 3:45:00 PM 4.28 39.704 0.09 7.16 4.77 12.51
1/10/2023 4:00:00 PM 4.27 39.686 0.09 7.15 4.84 12.53
1/10/2023 4:15:00 PM 4.25 39.65 0.09 7.17 5.01 12.54
1/10/2023 4:30:00 PM 4.25 39.65 0.09 7.17 4.82 12.52
1/10/2023 4:45:00 PM 4.24 39.632 0.09 7.15 4.85 12.52
1/10/2023 5:00:00 PM 4.2 39.56 0.09 7.18 4.86 12.55
1/10/2023 5:15:00 PM 4.21 39.578 0.09 7.13 4.97 12.53
1/10/2023 5:30:00 PM 4.22 39.596 0.09 7.16 4.82 12.51
1/10/2023 5:45:00 PM 4.21 39.578 0.09 7.15 4.88 12.48
1/10/2023 6:00:00 PM 4.19 39.542 0.09 7.15 4.81 12.52
1/10/2023 6:15:00 PM 4.18 39.524 0.09 7.16 4.83 12.54
1/10/2023 6:30:00 PM 4.18 39.524 0.091 7.16 5.02 12.54
1/10/2023 6:45:00 PM 4.13 39.434 0.09 7.17 5.09 12.56
1/10/2023 7:00:00 PM 4.17 39.506 0.091 7.15 5 12.52
1/10/2023 7:15:00 PM 4.14 39.452 0.091 7.14 4.87 12.55
1/10/2023 7:30:00 PM 4.17 39.506 0.091 7.11 4.93 12.53
1/10/2023 7:45:00 PM 4.13 39.434 0.091 7.12 4.97 12.54
1/10/2023 8:00:00 PM 4.15 39.47 0.091 7.14 4.72 12.52
1/10/2023 8:15:00 PM 4.13 39.434 0.091 7.14 4.84 12.56
1/10/2023 8:30:00 PM 4.11 39.398 0.091 7.14 5.05 12.56
1/10/2023 8:45:00 PM 4.12 39.416 0.091 7.15 4.86 12.55
1/10/2023 9:00:00 PM 4.1 39.38 0.091 7.15 4.95 12.57
1/10/2023 9:15:00 PM 4.09 39.362 0.091 7.15 4.86 12.55
1/10/2023 9:30:00 PM 4.09 39.362 0.091 7.13 4.86 12.57
1/10/2023 9:45:00 PM 4.09 39.362 0.091 7.14 4.78 12.57
1/10/2023 10:00:00 PM 4.09 39.362 0.091 7.13 4.85 12.54
1/10/2023 10:15:00 PM 4.04 39.272 0.091 7.16 4.9 12.59
1/10/2023 10:30:00 PM 4.02 39.236 0.091 7.15 4.75 12.6
1/10/2023 10:45:00 PM 4.04 39.272 0.091 7.15 4.87 12.61
1/10/2023 11:00:00 PM 4.03 39.254 0.091 7.14 4.78 12.61
1/10/2023 11:15:00 PM 4.02 39.236 0.091 7.15 4.67 12.58
1/10/2023 11:30:00 PM 4.01 39.218 0.091 7.16 5.03 12.63
1/10/2023 11:45:00 PM 4.01 39.218 0.091 7.14 4.91 12.59
1/11/2023 12:00:00 AM 4 39.2 0.091 7.13 4.8 12.6
1/11/2023 12:15:00 AM 4 39.2 0.091 7.12 4.81 12.58
1/11/2023 12:30:00 AM 3.95 39.11 0.091 7.15 4.78 12.62
1/11/2023 12:45:00 AM 3.96 39.128 0.091 7.15 4.55 12.62
1/11/2023 1:00:00 AM 3.94 39.092 0.091 7.1 4.89 12.63
1/11/2023 1:15:00 AM 3.95 39.11 0.091 7.15 4.75 12.62
1/11/2023 1:30:00 AM 3.96 39.128 0.092 7.1 4.64 12.61
1/11/2023 1:45:00 AM 3.94 39.092 0.091 7.09 4.68 12.62
1/11/2023 2:00:00 AM 3.94 39.092 0.091 7.11 4.66 12.63
1/11/2023 2:15:00 AM 3.92 39.056 0.091 7.15 4.81 12.63
1/11/2023 2:30:00 AM 3.9 39.02 0.091 7.1 4.77 12.63
1/11/2023 2:45:00 AM 3.92 39.056 0.091 7.12 4.74 12.64
1/11/2023 3:00:00 AM 3.91 39.038 0.091 7.12 4.9 12.65
1/11/2023 3:15:00 AM 3.89 39.002 0.091 7.1 4.95 12.66
1/11/2023 3:30:00 AM 3.89 39.002 0.091 7.12 4.67 12.65
1/11/2023 3:45:00 AM 3.88 38.984 0.091 7.13 6.45 12.67
1/11/2023 4:00:00 AM 3.86 38.948 0.091 7.14 5.93 12.65
1/11/2023 4:15:00 AM 3.87 38.966 0.091 7.12 5.65 12.65
1/11/2023 4:30:00 AM 3.84 38.912 0.091 7.15 5.9 12.67
1/11/2023 4:45:00 AM 3.83 38.894 0.091 7.13 5.92 12.65
1/11/2023 5:00:00 AM 3.82 38.876 0.091 7.14 5.27 12.69
1/11/2023 5:15:00 AM 3.83 38.894 0.092 7.12 5.39 12.68
1/11/2023 5:30:00 AM 3.81 38.858 0.091 7.15 5.3 12.68
1/11/2023 5:45:00 AM 3.82 38.876 0.091 7.12 5.25 12.66
1/11/2023 6:00:00 AM 3.82 38.876 0.091 7.13 5.4 12.66
1/11/2023 6:15:00 AM 3.8 38.84 0.091 7.13 5.27 12.68
1/11/2023 6:30:00 AM 3.74 38.732 0.091 7.14 5.15 12.7
1/11/2023 6:45:00 AM 3.74 38.732 0.091 7.13 5.21 12.7
1/11/2023 7:00:00 AM 3.68 38.624 0.091 7.14 5.37 12.71
1/11/2023 7:15:00 AM 3.61 38.498 0.091 7.15 5.27 12.75
1/11/2023 7:30:00 AM 3.61 38.498 0.091 7.13 5.17 12.74
1/11/2023 7:45:00 AM 3.54 38.372 0.091 7.13 5.11 12.75
1/11/2023 8:00:00 AM 3.52 38.336 0.092 7.13 5.06 12.81
1/11/2023 8:15:00 AM 3.45 38.21 0.091 7.13 5.16 12.84
1/11/2023 8:30:00 AM 3.47 38.246 0.091 7.16 5.05 12.88
1/11/2023 8:45:00 AM 3.49 38.282 0.091 7.15 5.19 12.88
1/11/2023 9:00:00 AM 3.53 38.354 0.091 7.14 5.03 12.88
1/11/2023 9:15:00 AM 3.53 38.354 0.091 7.16 5.19 12.85
1/11/2023 9:30:00 AM 3.61 38.498 0.091 7.14 4.87 12.89
1/11/2023 9:45:00 AM 3.69 38.642 0.091 7.14 5.03 12.81
1/11/2023 10:00:00 AM 3.72 38.696 0.091 7.15 4.62 12.85
1/11/2023 10:15:00 AM 3.81 38.858 0.091 7.13 4.88 12.82
1/11/2023 10:30:00 AM 3.82 38.876 0.091 7.14 4.88 12.84
1/11/2023 10:45:00 AM 3.84 38.912 0.091 7.16 4.87 12.83
1/11/2023 11:00:00 AM 3.92 39.056 0.091 7.16 5.03 12.81
1/11/2023 11:15:00 AM 3.97 39.146 0.091 7.17 5 12.78
1/11/2023 11:30:00 AM 4.08 39.344 0.091 7.16 4.98 12.74
1/11/2023 11:45:00 AM 4.16 39.488 0.091 7.17 4.88 12.72
1/11/2023 12:00:00 PM 4.29 39.722 0.091 7.14 4.88 12.65
1/11/2023 12:15:00 PM 4.33 39.794 0.09 7.18 4.66 12.68
1/11/2023 12:30:00 PM 4.45 40.01 0.091 7.16 4.68 12.62
1/11/2023 12:45:00 PM 4.48 40.064 0.091 7.16 4.72 12.61
1/11/2023 1:00:00 PM 4.52 40.136 0.091 7.19 4.92 12.59
1/11/2023 1:15:00 PM 4.57 40.226 0.093 7.19 4.02 12.57
1/11/2023 1:30:00 PM 4.65 40.37 0.091 7.16 4.98 12.52
1/11/2023 1:45:00 PM 4.66 40.388 0.09 7.18 4.63 12.51
1/11/2023 2:00:00 PM 4.74 40.532 0.09 7.17 4.82 12.48
1/11/2023 2:15:00 PM 4.73 40.514 0.09 7.19 4.8 12.5
1/11/2023 2:30:00 PM 4.79 40.622 0.09 7.17 4.91 12.46
1/11/2023 2:45:00 PM 4.81 40.658 0.091 7.18 4.85 12.47
1/11/2023 3:00:00 PM 4.86 40.748 0.09 7.16 5.03 12.41
1/11/2023 3:15:00 PM 4.85 40.73 0.091 7.14 5.26 12.43
1/11/2023 3:30:00 PM 4.84 40.712 0.091 7.14 4.59 12.42
1/11/2023 3:45:00 PM 4.84 40.712 0.091 7.18 4.76 12.4
1/11/2023 4:00:00 PM 4.84 40.712 0.091 7.16 4.74 12.42
1/11/2023 4:15:00 PM 4.84 40.712 0.091 7.16 4.66 12.4
1/11/2023 4:30:00 PM 4.76 40.568 0.091 7.17 4.81 12.4
1/11/2023 4:45:00 PM 4.77 40.586 0.09 7.16 4.88 12.36
1/11/2023 5:00:00 PM 4.74 40.532 0.091 7.13 4.66 12.37
1/11/2023 5:15:00 PM 4.71 40.478 0.091 7.12 5.43 12.34
1/11/2023 5:30:00 PM 4.66 40.388 0.091 7.14 5.03 12.34
1/11/2023 5:45:00 PM 4.63 40.334 0.091 7.13 5 12.37
1/11/2023 6:00:00 PM 4.6 40.28 0.091 7.13 5.04 12.36
1/11/2023 6:15:00 PM 4.55 40.19 0.091 7.1 4.94 12.38
1/11/2023 6:30:00 PM 4.54 40.172 0.091 7.13 5.38 12.39
1/11/2023 6:45:00 PM 4.5 40.1 0.092 7.13 4.73 12.4
1/11/2023 7:00:00 PM 4.47 40.046 0.091 7.13 5.2 12.38
1/11/2023 7:15:00 PM 4.4 39.92 0.092 7.13 4.94 12.41
1/11/2023 7:30:00 PM 4.36 39.848 0.091 7.11 4.93 12.47
1/11/2023 7:45:00 PM 4.38 39.884 0.091 7.11 4.84 12.43
1/11/2023 8:00:00 PM 4.35 39.83 0.092 7.12 4.79 12.47
1/11/2023 8:15:00 PM 4.3 39.74 0.092 7.14 4.97 12.47
1/11/2023 8:30:00 PM 4.35 39.83 0.092 7.09 4.98 12.43
1/11/2023 8:45:00 PM 4.26 39.668 0.092 7.14 4.86 12.46
1/11/2023 9:00:00 PM 4.26 39.668 0.092 7.13 4.72 12.45
1/11/2023 9:15:00 PM 4.24 39.632 0.093 7.14 4.71 12.52
1/11/2023 9:30:00 PM 4.26 39.668 0.092 7.12 4.64 12.46
1/11/2023 9:45:00 PM 4.26 39.668 0.092 7.13 4.83 12.5
1/11/2023 10:00:00 PM 4.24 39.632 0.092 7.12 4.83 12.51
1/11/2023 10:15:00 PM 4.29 39.722 0.093 7.1 4.59 12.46
1/11/2023 10:30:00 PM 4.28 39.704 0.092 7.11 4.64 12.44
1/11/2023 10:45:00 PM 4.25 39.65 0.092 7.11 5.1 12.48
1/11/2023 11:00:00 PM 4.27 39.686 0.092 7.11 4.98 12.43
1/11/2023 11:15:00 PM 4.28 39.704 0.093 7.11 4.93 12.44
1/11/2023 11:30:00 PM 4.25 39.65 0.093 7.09 4.71 12.45
1/11/2023 11:45:00 PM 4.26 39.668 0.093 7.11 4.89 12.42
1/12/2023 12:00:00 AM 4.23 39.614 0.093 7.09 5.07 12.45
1/12/2023 12:15:00 AM 4.23 39.614 0.093 7.08 4.92 12.45
1/12/2023 12:30:00 AM 4.24 39.632 0.093 7.08 4.65 12.43
1/12/2023 12:45:00 AM 4.2 39.56 0.093 7.13 5.11 12.51
1/12/2023 1:00:00 AM 4.24 39.632 0.093 7.09 4.79 12.45
1/12/2023 1:15:00 AM 4.22 39.596 0.093 7.12 4.82 12.48
1/12/2023 1:30:00 AM 4.21 39.578 0.093 7.1 4.87 12.46
1/12/2023 1:45:00 AM 4.17 39.506 0.093 7.11 4.86 12.49
1/12/2023 2:00:00 AM 4.15 39.47 0.093 7.12 4.73 12.51
1/12/2023 2:15:00 AM 4.13 39.434 0.093 7.13 4.8 12.52
1/12/2023 2:30:00 AM 4.17 39.506 0.093 7.09 4.88 12.49
1/12/2023 2:45:00 AM 4.14 39.452 0.093 7.11 4.97 12.53
1/12/2023 3:00:00 AM 4.17 39.506 0.093 7.11 4.74 12.48
1/12/2023 3:15:00 AM 4.14 39.452 0.093 7.1 4.9 12.5
1/12/2023 3:30:00 AM 4.11 39.398 0.093 7.1 4.73 12.5
1/12/2023 3:45:00 AM 4.14 39.452 0.093 7.09 5.18 12.47
1/12/2023 4:00:00 AM 4.15 39.47 0.093 7.11 4.67 12.49
1/12/2023 4:15:00 AM 4.07 39.326 0.093 7.1 5.04 12.56
1/12/2023 4:30:00 AM 4.12 39.416 0.093 7.08 4.74 12.49
1/12/2023 4:45:00 AM 4.11 39.398 0.093 7.06 4.82 12.46
1/12/2023 5:00:00 AM 4.11 39.398 0.093 7.11 4.89 12.46
1/12/2023 5:15:00 AM 4.11 39.398 0.093 7.11 4.9 12.49
1/12/2023 5:30:00 AM 4.14 39.452 0.093 7.1 4.79 12.47
1/12/2023 5:45:00 AM 4.1 39.38 0.093 7.1 4.74 12.49
1/12/2023 6:00:00 AM 4.13 39.434 0.093 7.11 4.65 12.51
1/12/2023 6:15:00 AM 4.11 39.398 0.093 7.11 4.73 12.5
1/12/2023 6:30:00 AM 4.1 39.38 0.093 7.09 4.73 12.52
1/12/2023 6:45:00 AM 4.12 39.416 0.093 7.1 4.61 12.48
1/12/2023 7:00:00 AM 4.12 39.416 0.093 7.09 4.73 12.5
1/12/2023 7:15:00 AM 4.11 39.398 0.093 7.09 4.69 12.48
1/12/2023 7:30:00 AM 4.15 39.47 0.094 7.12 4.47 12.48
1/12/2023 7:45:00 AM 4.16 39.488 0.093 7.06 4.63 12.47
1/12/2023 8:00:00 AM 4.15 39.47 0.093 7.1 4.59 12.48
1/12/2023 8:15:00 AM 4.16 39.488 0.093 7.12 4.59 12.51
1/12/2023 8:30:00 AM 4.15 39.47 0.094 7.13 4.59 12.53
1/12/2023 8:45:00 AM 4.16 39.488 0.093 7.12 4.65 12.51
1/12/2023 9:00:00 AM 4.2 39.56 0.093 7.11 4.69 12.47
1/12/2023 9:15:00 AM 4.27 39.686 0.093 7.13 4.74 12.46
1/12/2023 9:30:00 AM 4.27 39.686 0.093 7.1 4.66 12.48
1/12/2023 9:45:00 AM 4.27 39.686 0.093 7.12 4.75 12.5
1/12/2023 10:00:00 AM 4.33 39.794 0.093 7.13 4.68 12.49
1/12/2023 10:15:00 AM 4.39 39.902 0.093 7.12 4.71 12.52
1/12/2023 10:30:00 AM 4.45 40.01 0.093 7.08 4.66 12.46
1/12/2023 10:45:00 AM 4.42 39.956 0.093 7.12 4.64 12.48
1/12/2023 11:00:00 AM 4.46 40.028 0.093 7.1 4.71 12.44
1/12/2023 11:15:00 AM 4.48 40.064 0.093 7.15 4.75 12.46
1/12/2023 11:30:00 AM 4.51 40.118 0.093 7.13 4.58 12.49
1/12/2023 11:45:00 AM 4.57 40.226 0.094 7.17 4.43 12.48
1/12/2023 12:00:00 PM 4.67 40.406 0.093 7.11 4.73 12.45
1/12/2023 12:15:00 PM 4.7 40.46 0.093 7.16 4.4 12.42
1/12/2023 12:30:00 PM 4.77 40.586 0.093 7.12 4.7 12.38
1/12/2023 12:45:00 PM 4.79 40.622 0.093 7.14 4.63 12.35
1/12/2023 1:00:00 PM 4.83 40.694 0.093 7.13 5.08 12.33
1/12/2023 1:15:00 PM 4.83 40.694 0.094 7.14 5.31 12.33
1/12/2023 1:30:00 PM 4.86 40.748 0.093 7.14 4.66 12.27
1/12/2023 1:45:00 PM 4.86 40.748 0.093 7.18 4.58 12.33
1/12/2023 2:00:00 PM 4.91 40.838 0.093 7.12 5.23 12.27
1/12/2023 2:15:00 PM 4.93 40.874 0.093 7.12 4.71 12.25
1/12/2023 2:30:00 PM 4.97 40.946 0.093 7.13 4.66 12.21
1/12/2023 2:45:00 PM 5 41 0.093 7.12 4.73 12.16
1/12/2023 3:00:00 PM 5 41 0.093 7.15 4.61 12.19
1/12/2023 3:15:00 PM 4.99 40.982 0.093 7.15 4.64 12.2
1/12/2023 3:30:00 PM 4.99 40.982 0.093 7.14 4.64 12.22
1/12/2023 3:45:00 PM 5.01 41.018 0.093 7.14 4.67 12.18
1/12/2023 4:00:00 PM 5.02 41.036 0.093 7.14 4.58 12.16
1/12/2023 4:15:00 PM 5.04 41.072 0.093 7.12 4.59 12.12
1/12/2023 4:30:00 PM 5.07 41.126 0.093 7.14 4.91 12.11
1/12/2023 4:45:00 PM 5.08 41.144 0.092 7.14 7.27 12.09
1/12/2023 5:00:00 PM 5.09 41.162 0.092 7.14 5.99 12.1
1/12/2023 5:15:00 PM 5.11 41.198 0.092 7.13 5.35 12.1
1/12/2023 5:30:00 PM 5.12 41.216 0.092 7.13 4.98 12.04
1/12/2023 5:45:00 PM 5.12 41.216 0.092 7.14 4.85 12.08
1/12/2023 6:00:00 PM 5.2 41.36 0.092 7.12 5.15 12.03
1/12/2023 6:15:00 PM 5.16 41.288 0.091 7.12 5.4 12.05
1/12/2023 6:30:00 PM 5.2 41.36 0.091 7.07 5.55 12
1/12/2023 6:45:00 PM 5.2 41.36 0.092 7.12 5.43 12.06
1/12/2023 7:00:00 PM 5.24 41.432 0.093 7.11 5.44 12.01
1/12/2023 7:15:00 PM 5.21 41.378 0.094 7.14 5.57 12.01
1/12/2023 7:30:00 PM 5.24 41.432 0.093 7.13 6.29 12.03
1/12/2023 7:45:00 PM 5.24 41.432 0.093 7.12 6.82 12.06
1/12/2023 8:00:00 PM 5.25 41.45 0.093 7.13 6.87 12.03
1/12/2023 8:15:00 PM 5.28 41.504 0.094 7.12 6.28 12.02
1/12/2023 8:30:00 PM 5.28 41.504 0.094 7.14 6.19 12.03
1/12/2023 8:45:00 PM 5.27 41.486 0.093 7.13 6.49 12.03
1/12/2023 9:00:00 PM 5.27 41.486 0.093 7.16 6.98 12.03
1/12/2023 9:15:00 PM 5.3 41.54 0.092 7.13 6.53 12.01
1/12/2023 9:30:00 PM 5.3 41.54 0.092 7.15 6.21 11.99
1/12/2023 9:45:00 PM 5.3 41.54 0.093 7.13 6.09 12.01
1/12/2023 10:00:00 PM 5.3 41.54 0.093 7.15 6.41 12.01
1/12/2023 10:15:00 PM 5.33 41.594 0.094 7.11 6.47 11.99
1/12/2023 10:30:00 PM 5.3 41.54 0.094 7.13 6.76 11.99
1/12/2023 10:45:00 PM 5.3 41.54 0.094 7.14 6.58 12.02
1/12/2023 11:00:00 PM 5.33 41.594 0.094 7.13 6.37 11.97
1/12/2023 11:15:00 PM 5.32 41.576 0.094 7.14 6.23 11.99
1/12/2023 11:30:00 PM 5.33 41.594 0.094 7.14 7.46 11.99
1/12/2023 11:45:00 PM 5.33 41.594 0.094 7.12 6.16 11.97
1/13/2023 12:00:00 AM 5.33 41.594 0.094 7.14 6.35 11.98
1/13/2023 12:15:00 AM 5.35 41.63 0.093 7.14 5.98 11.96
1/13/2023 12:30:00 AM 5.34 41.612 0.094 7.12 5.51 11.99
1/13/2023 12:45:00 AM 5.33 41.594 0.093 7.13 5.35 11.97
1/13/2023 1:00:00 AM 5.34 41.612 0.093 7.14 5.41 11.96
1/13/2023 1:15:00 AM 5.35 41.63 0.093 7.14 5.32 11.95
1/13/2023 1:30:00 AM 5.35 41.63 0.093 7.14 5.82 11.96
1/13/2023 1:45:00 AM 5.37 41.666 0.093 7.13 5.5 11.95
1/13/2023 2:00:00 AM 5.37 41.666 0.093 7.14 5.53 11.94
1/13/2023 2:15:00 AM 5.34 41.612 0.092 7.14 5.62 11.97
1/13/2023 2:30:00 AM 5.35 41.63 0.092 7.14 5.44 11.95
1/13/2023 2:45:00 AM 5.36 41.648 0.092 7.14 5.41 11.95
1/13/2023 3:00:00 AM 5.35 41.63 0.092 7.14 5.28 11.95
1/13/2023 3:15:00 AM 5.34 41.612 0.092 7.12 5.33 11.94
1/13/2023 3:30:00 AM 5.36 41.648 0.092 7.12 5.23 11.94
1/13/2023 3:45:00 AM 5.35 41.63 0.092 7.15 5.37 11.94
1/13/2023 4:00:00 AM 5.36 41.648 0.092 7.11 5.41 11.93
1/13/2023 4:15:00 AM 5.36 41.648 0.092 7.13 5.35 11.93
1/13/2023 4:30:00 AM 5.36 41.648 0.092 7.14 5.14 11.95
1/13/2023 4:45:00 AM 5.34 41.612 0.092 7.13 5.39 11.96
1/13/2023 5:00:00 AM 5.32 41.576 0.092 7.15 5.48 11.95
1/13/2023 5:15:00 AM 5.33 41.594 0.091 7.15 5.51 11.96
1/13/2023 5:30:00 AM 5.34 41.612 0.091 7.11 5.34 11.96
1/13/2023 5:45:00 AM 5.33 41.594 0.091 7.13 5.54 11.95
1/13/2023 6:00:00 AM 5.33 41.594 0.091 7.14 5.76 11.97
1/13/2023 6:15:00 AM 5.33 41.594 0.091 7.12 5.7 11.98
1/13/2023 6:30:00 AM 5.32 41.576 0.091 7.13 5.99 11.97
1/13/2023 6:45:00 AM 5.34 41.612 0.091 7.12 5.78 11.98
1/13/2023 7:00:00 AM 5.35 41.63 0.091 7.11 6.11 11.97
1/13/2023 7:15:00 AM 5.37 41.666 0.091 7.13 6.14 11.98
1/13/2023 7:30:00 AM 5.38 41.684 0.091 7.12 6 11.96
1/13/2023 7:45:00 AM 5.33 41.594 0.091 7.14 5.95 11.99
1/13/2023 8:00:00 AM 5.31 41.558 0.091 7.16 5.9 12
1/13/2023 8:15:00 AM 5.24 41.432 0.091 7.13 5.86 12.04
1/13/2023 8:30:00 AM 5.21 41.378 0.091 7.13 5.63 12.07
1/13/2023 8:45:00 AM 5.13 41.234 0.091 7.18 5.64 12.1
1/13/2023 9:00:00 AM 5.08 41.144 0.091 7.16 5.57 12.14
1/13/2023 9:15:00 AM 5.05 41.09 0.091 7.14 5.53 12.14
1/13/2023 9:30:00 AM 5 41 0.09 7.19 5.7 12.19
1/13/2023 9:45:00 AM 4.98 40.964 0.09 7.17 5.47 12.22
1/13/2023 10:00:00 AM 4.96 40.928 0.09 7.18 5.89 12.24
1/13/2023 10:15:00 AM 4.94 40.892 0.09 7.17 5.75 12.26
1/13/2023 10:30:00 AM 4.94 40.892 0.09 7.19 5.76 12.25
1/13/2023 10:45:00 AM 4.92 40.856 0.09 7.19 6 12.26
1/13/2023 11:00:00 AM 4.92 40.856 0.09 7.2 5.57 12.29
1/13/2023 11:15:00 AM 4.89 40.802 0.09 7.2 5.58 12.29
1/13/2023 11:30:00 AM 4.92 40.856 0.09 7.2 6.23 12.3
1/13/2023 11:45:00 AM 4.94 40.892 0.09 7.17 8.99 12.29
1/13/2023 12:00:00 PM 4.94 40.892 0.09 7.18 6.46 12.31
1/13/2023 12:15:00 PM 4.92 40.856 0.09 7.2 5.93 12.28
1/13/2023 12:30:00 PM 4.89 40.802 0.09 7.2 6.11 12.31
1/13/2023 12:45:00 PM 4.89 40.802 0.09 7.15 6.06 12.3
1/13/2023 1:00:00 PM 4.83 40.694 0.09 7.19 5.97 12.3
1/13/2023 1:15:00 PM 4.78 40.604 0.089 7.18 6.34 12.32
1/13/2023 1:30:00 PM 4.75 40.55 0.089 7.18 6.3 12.32
1/13/2023 1:45:00 PM 4.7 40.46 0.089 7.19 6.93 12.34
1/13/2023 2:00:00 PM 4.68 40.424 0.089 7.17 5.52 12.32
1/13/2023 2:15:00 PM 4.62 40.316 0.089 7.16 5.54 12.35
1/13/2023 2:30:00 PM 4.54 40.172 0.088 7.17 5.53 12.37
1/13/2023 2:45:00 PM 4.48 40.064 0.089 7.14 6.26 12.39
1/13/2023 3:00:00 PM 4.43 39.974 0.089 7.18 5.66 12.43
1/13/2023 3:15:00 PM 4.36 39.848 0.089 7.16 5.62 12.44
1/13/2023 3:30:00 PM 4.36 39.848 0.089 7.17 5.25 12.42
1/13/2023 3:45:00 PM 4.33 39.794 0.088 7.17 5.49 12.4
1/13/2023 4:00:00 PM 4.28 39.704 0.088 7.16 5.42 12.46
1/13/2023 4:15:00 PM 4.21 39.578 0.088 7.15 5.64 12.48
1/13/2023 4:30:00 PM 4.18 39.524 0.088 7.17 5.45 12.47
1/13/2023 4:45:00 PM 4.14 39.452 0.088 7.17 5.43 12.48
1/13/2023 5:00:00 PM 4.1 39.38 0.088 7.16 5.62 12.48
1/13/2023 5:15:00 PM 4.06 39.308 0.088 7.15 5.31 12.51
1/13/2023 5:30:00 PM 4.02 39.236 0.088 7.16 5.65 12.53
1/13/2023 5:45:00 PM 4.01 39.218 0.088 7.12 5.6 12.53
1/13/2023 6:00:00 PM 3.93 39.074 0.088 7.15 5.38 12.56
1/13/2023 6:15:00 PM 3.9 39.02 0.088 7.13 5.6 12.56
1/13/2023 6:30:00 PM 3.85 38.93 0.088 7.16 5.31 12.58
1/13/2023 6:45:00 PM 3.83 38.894 0.088 7.15 5.38 12.59
1/13/2023 7:00:00 PM 3.8 38.84 0.088 7.14 5.52 12.62
1/13/2023 7:15:00 PM 3.75 38.75 0.088 7.13 5.48 12.61
1/13/2023 7:30:00 PM 3.71 38.678 0.088 7.16 5.41 12.64
1/13/2023 7:45:00 PM 3.69 38.642 0.088 7.13 5.42 12.63
1/13/2023 8:00:00 PM 3.67 38.606 0.088 7.16 5.72 12.65
1/13/2023 8:15:00 PM 3.65 38.57 0.088 7.15 5.32 12.66
1/13/2023 8:30:00 PM 3.59 38.462 0.089 7.14 5.4 12.7
1/13/2023 8:45:00 PM 3.58 38.444 0.088 7.12 5.41 12.68
1/13/2023 9:00:00 PM 3.57 38.426 0.088 7.12 5.37 12.69
1/13/2023 9:15:00 PM 3.53 38.354 0.089 7.14 5.21 12.7
1/13/2023 9:30:00 PM 3.51 38.318 0.088 7.14 5.27 12.72
1/13/2023 9:45:00 PM 3.48 38.264 0.088 7.13 5.24 12.71
1/13/2023 10:00:00 PM 3.45 38.21 0.088 7.13 5.28 12.75
1/13/2023 10:15:00 PM 3.41 38.138 0.088 7.12 5.36 12.76
1/13/2023 10:30:00 PM 3.39 38.102 0.088 7.14 5.37 12.76
1/13/2023 10:45:00 PM 3.38 38.084 0.088 7.14 5.26 12.78
1/13/2023 11:00:00 PM 3.35 38.03 0.088 7.13 5.49 12.77
1/13/2023 11:15:00 PM 3.34 38.012 0.088 7.11 5.57 12.76
1/13/2023 11:30:00 PM 3.31 37.958 0.088 7.14 5.28 12.76
1/13/2023 11:45:00 PM 3.28 37.904 0.089 7.13 5.12 12.8
1/14/2023 12:00:00 AM 3.26 37.868 0.089 7.11 5.23 12.8
1/14/2023 12:15:00 AM 3.21 37.778 0.089 7.12 5.14 12.81
1/14/2023 12:30:00 AM 3.2 37.76 0.089 7.12 5.24 12.82
1/14/2023 12:45:00 AM 3.17 37.706 0.089 7.14 5.14 12.83
1/14/2023 1:00:00 AM 3.13 37.634 0.089 7.14 5.23 12.84
1/14/2023 1:15:00 AM 3.11 37.598 0.089 7.12 5.29 12.85
1/14/2023 1:30:00 AM 3.09 37.562 0.089 7.12 5.17 12.86
1/14/2023 1:45:00 AM 3.03 37.454 0.089 7.12 5.27 12.89
1/14/2023 2:00:00 AM 3.02 37.436 0.089 7.12 5.16 12.88
1/14/2023 2:15:00 AM 2.98 37.364 0.089 7.11 5.18 12.9
1/14/2023 2:30:00 AM 2.97 37.346 0.089 7.12 5.35 12.92
1/14/2023 2:45:00 AM 2.94 37.292 0.089 7.12 5.1 12.93
1/14/2023 3:00:00 AM 2.91 37.238 0.089 7.12 5.3 12.93
1/14/2023 3:15:00 AM 2.88 37.184 0.089 7.12 5.35 12.93
1/14/2023 3:30:00 AM 2.87 37.166 0.089 7.1 5.13 12.97
1/14/2023 3:45:00 AM 2.85 37.13 0.089 7.12 5.27 12.95
1/14/2023 4:00:00 AM 2.85 37.13 0.09 7.12 5.23 12.98
1/14/2023 4:15:00 AM 2.83 37.094 0.089 7.11 5.19 12.97
1/14/2023 4:30:00 AM 2.83 37.094 0.089 7.12 5.28 12.97
1/14/2023 4:45:00 AM 2.78 37.004 0.089 7.13 5.35 12.98
1/14/2023 5:00:00 AM 2.74 36.932 0.089 7.15 4.98 13
1/14/2023 5:15:00 AM 2.74 36.932 0.089 7.14 5 13
1/14/2023 5:30:00 AM 2.72 36.896 0.089 7.13 5.35 13
1/14/2023 5:45:00 AM 2.72 36.896 0.089 7.12 4.96 13.01
1/14/2023 6:00:00 AM 2.69 36.842 0.089 7.14 5.13 13
1/14/2023 6:15:00 AM 2.65 36.77 0.089 7.13 5.21 13.04
1/14/2023 6:30:00 AM 2.61 36.698 0.089 7.14 5.14 13.06
1/14/2023 6:45:00 AM 2.61 36.698 0.089 7.14 5.48 13.06
1/14/2023 7:00:00 AM 2.56 36.608 0.089 7.14 5.22 13.08
1/14/2023 7:15:00 AM 2.55 36.59 0.09 7.14 5.55 13.08
1/14/2023 7:30:00 AM 2.56 36.608 0.089 7.14 5.34 13.07
1/14/2023 7:45:00 AM 2.51 36.518 0.089 7.15 5.41 13.11
1/14/2023 8:00:00 AM 2.49 36.482 0.089 7.13 5.18 13.11
1/14/2023 8:15:00 AM 2.49 36.482 0.089 7.14 5.11 13.11
1/14/2023 8:30:00 AM 2.47 36.446 0.089 7.12 5.06 13.14
1/14/2023 8:45:00 AM 2.45 36.41 0.089 7.12 5.45 13.15
1/14/2023 9:00:00 AM 2.45 36.41 0.089 7.14 5.23 13.17
1/14/2023 9:15:00 AM 2.41 36.338 0.089 7.13 5.32 13.19
1/14/2023 9:30:00 AM 2.42 36.356 0.089 7.12 5.26 13.2
1/14/2023 9:45:00 AM 2.42 36.356 0.089 7.12 5.8 13.22
1/14/2023 10:00:00 AM 2.42 36.356 0.089 7.14 5.89 13.24
1/14/2023 10:15:00 AM 2.48 36.464 0.089 7.12 5.21 13.21
1/14/2023 10:30:00 AM 2.54 36.572 0.089 7.11 5.19 13.19
1/14/2023 10:45:00 AM 2.55 36.59 0.089 7.12 5.16 13.2
1/14/2023 11:00:00 AM 2.57 36.626 0.089 7.12 5.08 13.18
1/14/2023 11:15:00 AM 2.58 36.644 0.089 7.16 5.42 13.2
1/14/2023 11:30:00 AM 2.66 36.788 0.089 7.15 5.66 13.16
1/14/2023 11:45:00 AM 2.68 36.824 0.089 7.16 5.16 13.15
1/14/2023 12:00:00 PM 2.7 36.86 0.089 7.17 5.19 13.15
1/14/2023 12:15:00 PM 2.71 36.878 0.089 7.16 5.06 13.14
1/14/2023 12:30:00 PM 2.71 36.878 0.089 7.15 4.92 13.15
1/14/2023 12:45:00 PM 2.76 36.968 0.089 7.14 5.15 13.1
1/14/2023 1:00:00 PM 2.77 36.986 0.089 7.16 5 13.11
1/14/2023 1:15:00 PM 2.78 37.004 0.089 7.14 5.09 13.1
1/14/2023 1:30:00 PM 2.8 37.04 0.09 7.14 5.02 13.11
1/14/2023 1:45:00 PM 2.82 37.076 0.089 7.13 5.17 13.09
1/14/2023 2:00:00 PM 2.8 37.04 0.089 7.15 5.16 13.11
1/14/2023 2:15:00 PM 2.81 37.058 0.089 7.13 5.21 13.1
1/14/2023 2:30:00 PM 2.8 37.04 0.089 7.14 5.22 13.12
1/14/2023 2:45:00 PM 2.79 37.022 0.089 7.14 5.2 13.09
1/14/2023 3:00:00 PM 2.79 37.022 0.09 7.14 5.09 13.09
1/14/2023 3:15:00 PM 2.76 36.968 0.089 7.14 5.3 13.1
1/14/2023 3:30:00 PM 2.7 36.86 0.09 7.18 5.6 13.14
1/14/2023 3:45:00 PM 2.7 36.86 0.09 7.14 4.96 13.1
1/14/2023 4:00:00 PM 2.67 36.806 0.09 7.14 5.2 13.14
1/14/2023 4:15:00 PM 2.65 36.77 0.09 7.13 5.26 13.13
1/14/2023 4:30:00 PM 2.62 36.716 0.09 7.13 5.15 13.14
1/14/2023 4:45:00 PM 2.57 36.626 0.09 7.14 5.22 13.13
1/14/2023 5:00:00 PM 2.56 36.608 0.09 7.12 5.42 13.13
1/14/2023 5:15:00 PM 2.54 36.572 0.091 7.12 5.11 13.12
1/14/2023 5:30:00 PM 2.49 36.482 0.091 7.12 5.4 13.15
1/14/2023 5:45:00 PM 2.47 36.446 0.09 7.12 5.32 13.13
1/14/2023 6:00:00 PM 2.41 36.338 0.09 7.11 5.46 13.17
1/14/2023 6:15:00 PM 2.39 36.302 0.09 7.11 5.45 13.19
1/14/2023 6:30:00 PM 2.33 36.194 0.09 7.11 5.48 13.21
1/14/2023 6:45:00 PM 2.28 36.104 0.09 7.11 5.3 13.2
1/14/2023 7:00:00 PM 2.27 36.086 0.09 7.1 5.38 13.23
1/14/2023 7:15:00 PM 2.25 36.05 0.091 7.11 5.24 13.25
1/14/2023 7:30:00 PM 2.22 35.996 0.09 7.1 5.44 13.25
1/14/2023 7:45:00 PM 2.18 35.924 0.09 7.1 5.17 13.25
1/14/2023 8:00:00 PM 2.16 35.888 0.091 7.08 5.42 13.27
1/14/2023 8:15:00 PM 2.14 35.852 0.091 7.09 5.3 13.26
1/14/2023 8:30:00 PM 2.14 35.852 0.091 7.08 5.44 13.23
1/14/2023 8:45:00 PM 2.06 35.708 0.091 7.1 5.19 13.29
1/14/2023 9:00:00 PM 2.04 35.672 0.091 7.09 5.58 13.33
1/14/2023 9:15:00 PM 2.02 35.636 0.091 7.09 5.4 13.31
1/14/2023 9:30:00 PM 1.97 35.546 0.091 7.11 5.26 13.36
1/14/2023 9:45:00 PM 1.96 35.528 0.092 7.11 5.12 13.36
1/14/2023 10:00:00 PM 1.98 35.564 0.091 7.09 4.98 13.33
1/14/2023 10:15:00 PM 1.96 35.528 0.091 7.09 4.86 13.32
1/14/2023 10:30:00 PM 1.91 35.438 0.091 7.1 4.97 13.36
1/14/2023 10:45:00 PM 1.88 35.384 0.091 7.11 4.82 13.39
1/14/2023 11:00:00 PM 1.89 35.402 0.092 7.11 5.02 13.38
1/14/2023 11:15:00 PM 1.89 35.402 0.092 7.1 5.04 13.37
1/14/2023 11:30:00 PM 1.88 35.384 0.092 7.1 4.95 13.38
1/14/2023 11:45:00 PM 1.89 35.402 0.092 7.1 4.96 13.38
1/15/2023 12:00:00 AM 1.86 35.348 0.092 7.11 5.01 13.38
1/15/2023 12:15:00 AM 1.88 35.384 0.092 7.09 4.82 13.36
1/15/2023 12:30:00 AM 1.87 35.366 0.092 7.09 5.06 13.4
1/15/2023 12:45:00 AM 1.87 35.366 0.092 7.1 4.89 13.4
1/15/2023 1:00:00 AM 1.9 35.42 0.092 7.1 4.99 13.39
1/15/2023 1:15:00 AM 1.91 35.438 0.092 7.09 5.32 13.38
1/15/2023 1:30:00 AM 1.93 35.474 0.092 7.09 5.23 13.38
1/15/2023 1:45:00 AM 1.94 35.492 0.092 7.08 5.22 13.36
1/15/2023 2:00:00 AM 1.97 35.546 0.092 7.09 4.97 13.33
1/15/2023 2:15:00 AM 1.94 35.492 0.092 7.08 5.2 13.36
1/15/2023 2:30:00 AM 1.97 35.546 0.092 7.09 4.98 13.36
1/15/2023 2:45:00 AM 1.96 35.528 0.092 7.09 5.05 13.35
1/15/2023 3:00:00 AM 1.94 35.492 0.092 7.1 4.93 13.35
1/15/2023 3:15:00 AM 1.94 35.492 0.092 7.09 5.14 13.37
1/15/2023 3:30:00 AM 1.96 35.528 0.092 7.08 5.16 13.36
1/15/2023 3:45:00 AM 1.93 35.474 0.092 7.09 5.02 13.36
1/15/2023 4:00:00 AM 1.93 35.474 0.092 7.1 5.05 13.38
1/15/2023 4:15:00 AM 1.95 35.51 0.092 7.08 5.14 13.36
1/15/2023 4:30:00 AM 1.96 35.528 0.093 7.1 5.05 13.36
1/15/2023 4:45:00 AM 1.93 35.474 0.093 7.09 4.97 13.37
1/15/2023 5:00:00 AM 1.92 35.456 0.092 7.1 4.83 13.39
1/15/2023 5:15:00 AM 1.92 35.456 0.093 7.07 4.88 13.35
1/15/2023 5:30:00 AM 1.89 35.402 0.093 7.1 4.96 13.39
1/15/2023 5:45:00 AM 1.86 35.348 0.093 7.1 4.93 13.41
1/15/2023 6:00:00 AM 1.85 35.33 0.093 7.11 4.73 13.41
1/15/2023 6:15:00 AM 1.85 35.33 0.093 7.1 4.98 13.41
1/15/2023 6:30:00 AM 1.81 35.258 0.093 7.09 4.95 13.41
1/15/2023 6:45:00 AM 1.8 35.24 0.093 7.09 5.15 13.41
1/15/2023 7:00:00 AM 1.76 35.168 0.093 7.11 4.81 13.44
1/15/2023 7:15:00 AM 1.75 35.15 0.093 7.1 5.03 13.42
1/15/2023 7:30:00 AM 1.75 35.15 0.093 7.09 4.87 13.45
1/15/2023 7:45:00 AM 1.71 35.078 0.093 7.1 5.05 13.46
1/15/2023 8:00:00 AM 1.71 35.078 0.093 7.1 5.06 13.5
1/15/2023 8:15:00 AM 1.66 34.988 0.093 7.12 5 13.51
1/15/2023 8:30:00 AM 1.69 35.042 0.093 7.09 4.95 13.49
1/15/2023 8:45:00 AM 1.69 35.042 0.093 7.11 5.17 13.54
1/15/2023 9:00:00 AM 1.7 35.06 0.093 7.11 5.01 13.57
1/15/2023 9:15:00 AM 1.76 35.168 0.093 7.12 4.96 13.56
1/15/2023 9:30:00 AM 1.81 35.258 0.094 7.11 4.89 13.52
1/15/2023 9:45:00 AM 1.82 35.276 0.093 7.12 4.97 13.53
1/15/2023 10:00:00 AM 1.9 35.42 0.093 7.12 4.91 13.51
1/15/2023 10:15:00 AM 1.95 35.51 0.093 7.12 5.01 13.46
1/15/2023 10:30:00 AM 1.95 35.51 0.093 7.13 4.87 13.52
1/15/2023 10:45:00 AM 1.95 35.51 0.093 7.13 4.99 13.5
1/15/2023 11:00:00 AM 2.06 35.708 0.093 7.11 4.84 13.48
1/15/2023 11:15:00 AM 2.07 35.726 0.093 7.12 4.9 13.45
1/15/2023 11:30:00 AM 2.05 35.69 0.093 7.14 4.67 13.46
1/15/2023 11:45:00 AM 2.12 35.816 0.093 7.13 4.79 13.44
1/15/2023 12:00:00 PM 2.13 35.834 0.094 7.15 4.83 13.45
1/15/2023 12:15:00 PM 2.2 35.96 0.093 7.14 4.8 13.39
1/15/2023 12:30:00 PM 2.16 35.888 0.093 7.16 4.67 13.42
1/15/2023 12:45:00 PM 2.23 36.014 0.093 7.16 5.12 13.41
1/15/2023 1:00:00 PM 2.27 36.086 0.093 7.15 4.97 13.39
1/15/2023 1:15:00 PM 2.28 36.104 0.093 7.15 4.81 13.39
1/15/2023 1:30:00 PM 2.35 36.23 0.093 7.16 4.86 13.35
1/15/2023 1:45:00 PM 2.41 36.338 0.093 7.14 4.84 13.3
1/15/2023 2:00:00 PM 2.46 36.428 0.093 7.15 5.03 13.28
1/15/2023 2:15:00 PM 2.5 36.5 0.093 7.15 4.78 13.28
1/15/2023 2:30:00 PM 2.49 36.482 0.093 7.16 4.91 13.27
1/15/2023 2:45:00 PM 2.53 36.554 0.093 7.13 5 13.2
1/15/2023 3:00:00 PM 2.55 36.59 0.093 7.14 5.11 13.19
1/15/2023 3:15:00 PM 2.61 36.698 0.093 7.16 4.89 13.18
1/15/2023 3:30:00 PM 2.66 36.788 0.093 7.14 4.97 13.16
1/15/2023 3:45:00 PM 2.66 36.788 0.093 7.15 5.27 13.12
1/15/2023 4:00:00 PM 2.64 36.752 0.093 7.15 4.93 13.12
1/15/2023 4:15:00 PM 2.61 36.698 0.093 7.15 5.04 13.15
1/15/2023 4:30:00 PM 2.57 36.626 0.093 7.15 5.09 13.17
1/15/2023 4:45:00 PM 2.53 36.554 0.093 7.14 5.03 13.17
1/15/2023 5:00:00 PM 2.46 36.428 0.093 7.13 5.18 13.17
1/15/2023 5:15:00 PM 2.41 36.338 0.093 7.12 5.09 13.16
1/15/2023 5:30:00 PM 2.35 36.23 0.093 7.13 5.19 13.19
1/15/2023 5:45:00 PM 2.25 36.05 0.093 7.14 5.28 13.26
1/15/2023 6:00:00 PM 2.23 36.014 0.093 7.12 5.16 13.25
1/15/2023 6:15:00 PM 2.19 35.942 0.093 7.12 5.27 13.26
1/15/2023 6:30:00 PM 2.17 35.906 0.093 7.11 6 13.25
1/15/2023 6:45:00 PM 2.12 35.816 0.093 7.1 6.2 13.29
1/15/2023 7:00:00 PM 2.09 35.762 0.094 7.11 6.78 13.31
1/15/2023 7:15:00 PM 2.06 35.708 0.094 7.11 6.73 13.31
1/15/2023 7:30:00 PM 2.03 35.654 0.093 7.11 6.66 13.32
1/15/2023 7:45:00 PM 2.07 35.726 0.094 7.09 6.38 13.31
1/15/2023 8:00:00 PM 1.99 35.582 0.094 7.12 5.55 13.35
1/15/2023 8:15:00 PM 2.05 35.69 0.094 7.1 5.24 13.29
1/15/2023 8:30:00 PM 2.03 35.654 0.094 7.11 5.05 13.32
1/15/2023 8:45:00 PM 2.05 35.69 0.094 7.11 5.05 13.29
1/15/2023 9:00:00 PM 2 35.6 0.094 7.12 4.86 13.35
1/15/2023 9:15:00 PM 2.06 35.708 0.094 7.06 4.9 13.28
1/15/2023 9:30:00 PM 2.03 35.654 0.094 7.1 4.89 13.28
1/15/2023 9:45:00 PM 2 35.6 0.094 7.1 5.06 13.32
1/15/2023 10:00:00 PM 1.96 35.528 0.094 7.12 5.14 13.35
1/15/2023 10:15:00 PM 1.96 35.528 0.094 7.11 5.32 13.33
1/15/2023 10:30:00 PM 1.98 35.564 0.095 7.1 6.33 13.33
1/15/2023 10:45:00 PM 1.98 35.564 0.094 7.08 7.88 13.27
1/15/2023 11:00:00 PM 1.89 35.402 0.094 7.12 7.93 13.4
1/15/2023 11:15:00 PM 1.92 35.456 0.094 7.09 7.62 13.35
1/15/2023 11:30:00 PM 1.89 35.402 0.094 7.09 6.72 13.35
1/15/2023 11:45:00 PM 1.86 35.348 0.094 7.1 5.75 13.38
1/16/2023 12:00:00 AM 1.92 35.456 0.094 7.09 5.6 13.32
1/16/2023 12:15:00 AM 1.91 35.438 0.094 7.09 5.26 13.33
1/16/2023 12:30:00 AM 1.91 35.438 0.094 7.06 5.16 13.3
1/16/2023 12:45:00 AM 1.79 35.222 0.094 7.1 4.95 13.39
1/16/2023 1:00:00 AM 1.84 35.312 0.095 7.08 4.86 13.38
1/16/2023 1:15:00 AM 1.85 35.33 0.094 7.08 4.86 13.33
1/16/2023 1:30:00 AM 1.76 35.168 0.094 7.09 5.24 13.37
1/16/2023 1:45:00 AM 1.73 35.114 0.095 7.1 4.87 13.43
1/16/2023 2:00:00 AM 1.74 35.132 0.094 7.06 4.84 13.4
1/16/2023 2:15:00 AM 1.73 35.114 0.094 7.08 5.12 13.36
1/16/2023 2:30:00 AM 1.67 35.006 0.095 7.09 4.9 13.42
1/16/2023 2:45:00 AM 1.6 34.88 0.095 7.09 5.13 13.46
1/16/2023 3:00:00 AM 1.62 34.916 0.095 7.08 5.28 13.42
1/16/2023 3:15:00 AM 1.57 34.826 0.095 7.1 4.76 13.46
1/16/2023 3:30:00 AM 1.51 34.718 0.09 7.11 177.91 13.48
1/16/2023 3:45:00 AM 1.58 34.844 0.095 7.06 4.88 13.4
1/16/2023 4:00:00 AM 1.44 34.592 0.095 7.1 5 13.52
1/16/2023 4:15:00 AM 1.48 34.664 0.095 7.09 4.66 13.46
1/16/2023 4:30:00 AM 1.48 34.664 0.095 7.07 4.85 13.45
1/16/2023 4:45:00 AM 1.39 34.502 0.095 7.08 4.91 13.5
1/16/2023 5:00:00 AM 1.36 34.448 0.095 7.06 4.8 13.48
1/16/2023 5:15:00 AM 1.35 34.43 0.095 7.09 4.88 13.54
1/16/2023 5:30:00 AM 1.42 34.556 0.095 7.07 4.82 13.5
1/16/2023 5:45:00 AM 1.3 34.34 0.095 7.07 4.99 13.55
1/16/2023 6:00:00 AM 1.27 34.286 0.095 7.07 5.35 13.52
1/16/2023 6:15:00 AM 1.26 34.268 0.095 7.07 4.81 13.55
1/16/2023 6:30:00 AM 1.18 34.124 0.095 7.07 4.89 13.55
1/16/2023 6:45:00 AM 1.21 34.178 0.095 7.06 4.87 13.58
1/16/2023 7:00:00 AM 1.17 34.106 0.095 7.07 5.03 13.57
1/16/2023 7:15:00 AM 1.12 34.016 0.095 7.06 4.77 13.58
1/16/2023 7:30:00 AM 1.05 33.89 0.095 7.08 4.83 13.65
1/16/2023 7:45:00 AM 1.04 33.872 0.095 7.08 4.76 13.66
1/16/2023 8:00:00 AM 1.04 33.872 0.095